<?xml version="1.0" encoding="UTF-8" standalone="no" ?>
<gpx xmlns="http://www.topografix.com/GPX/1/1" xmlns:xsi="http://www.w3.org/2001/XMLSchema-instance" xsi:schemaLocation="http://www.topografix.com/GPX/1/1 http://www.topografix.com/GPX/1/1/gpx.xsd" version="1.1" creator="VisuGPX - https://www.visugpx.com">
  <metadata>
    <name>Mittlach - Neurod - Altenweiher</name>
    <desc><![CDATA[Sortie commune CAF Colmr CV Wintzenheim]]></desc>
  </metadata>
  <trk>
    <name><![CDATA[Mittlach - Neurod - Altenweiher_1]]></name>
    <trkseg>
      <trkpt lat="48.00448" lon="7.01642">
        <ele>643.126709</ele>
        <time>2015-03-15T08:14:38Z</time>
      </trkpt>
      <trkpt lat="48.00454" lon="7.0164">
        <ele>632.13147</ele>
        <time>2015-03-15T08:14:39Z</time>
      </trkpt>
      <trkpt lat="48.00458" lon="7.01648">
        <ele>639.692139</ele>
        <time>2015-03-15T08:14:40Z</time>
      </trkpt>
      <trkpt lat="48.00455" lon="7.01636">
        <ele>625.284424</ele>
        <time>2015-03-15T08:14:41Z</time>
      </trkpt>
      <trkpt lat="48.00462" lon="7.01633">
        <ele>630.206055</ele>
        <time>2015-03-15T08:14:43Z</time>
      </trkpt>
      <trkpt lat="48.00464" lon="7.01638">
        <ele>613.671509</ele>
        <time>2015-03-15T08:14:45Z</time>
      </trkpt>
      <trkpt lat="48.00465" lon="7.01633">
        <ele>612.499268</ele>
        <time>2015-03-15T08:14:46Z</time>
      </trkpt>
      <trkpt lat="48.00459" lon="7.01636">
        <ele>614.141846</ele>
        <time>2015-03-15T08:14:59Z</time>
      </trkpt>
      <trkpt lat="48.00452" lon="7.01635">
        <ele>612.039062</ele>
        <time>2015-03-15T08:15:07Z</time>
      </trkpt>
      <trkpt lat="48.00447" lon="7.01642">
        <ele>602.740723</ele>
        <time>2015-03-15T08:15:13Z</time>
      </trkpt>
      <trkpt lat="48.00447" lon="7.01649">
        <ele>601.34729</ele>
        <time>2015-03-15T08:15:17Z</time>
      </trkpt>
      <trkpt lat="48.00457" lon="7.01668">
        <ele>593.476074</ele>
        <time>2015-03-15T08:15:33Z</time>
      </trkpt>
      <trkpt lat="48.00456" lon="7.01677">
        <ele>593.623291</ele>
        <time>2015-03-15T08:15:41Z</time>
      </trkpt>
      <trkpt lat="48.00462" lon="7.01687">
        <ele>591.268443</ele>
        <time>2015-03-15T08:16:00Z</time>
      </trkpt>
      <trkpt lat="48.00464" lon="7.01703">
        <ele>592.277581</ele>
        <time>2015-03-15T08:16:08Z</time>
      </trkpt>
      <trkpt lat="48.00471" lon="7.01718">
        <ele>593.570345</ele>
        <time>2015-03-15T08:16:16Z</time>
      </trkpt>
      <trkpt lat="48.00476" lon="7.01725">
        <ele>593.514434</ele>
        <time>2015-03-15T08:16:20Z</time>
      </trkpt>
      <trkpt lat="48.0048" lon="7.01739">
        <ele>593.088119</ele>
        <time>2015-03-15T08:16:28Z</time>
      </trkpt>
      <trkpt lat="48.00483" lon="7.01753">
        <ele>591.733154</ele>
        <time>2015-03-15T08:16:36Z</time>
      </trkpt>
      <trkpt lat="48.0048" lon="7.01775">
        <ele>590.530236</ele>
        <time>2015-03-15T08:16:48Z</time>
      </trkpt>
      <trkpt lat="48.00485" lon="7.01789">
        <ele>589.570503</ele>
        <time>2015-03-15T08:16:56Z</time>
      </trkpt>
      <trkpt lat="48.00486" lon="7.01803">
        <ele>588.803611</ele>
        <time>2015-03-15T08:17:05Z</time>
      </trkpt>
      <trkpt lat="48.00489" lon="7.01822">
        <ele>587.98506</ele>
        <time>2015-03-15T08:17:13Z</time>
      </trkpt>
      <trkpt lat="48.00489" lon="7.01835">
        <ele>587.681442</ele>
        <time>2015-03-15T08:17:19Z</time>
      </trkpt>
      <trkpt lat="48.00509" lon="7.01879">
        <ele>584.544922</ele>
        <time>2015-03-15T08:17:43Z</time>
      </trkpt>
      <trkpt lat="48.00516" lon="7.0193">
        <ele>575.359863</ele>
        <time>2015-03-15T08:18:15Z</time>
      </trkpt>
      <trkpt lat="48.00521" lon="7.01955">
        <ele>581.573114</ele>
        <time>2015-03-15T08:18:31Z</time>
      </trkpt>
      <trkpt lat="48.0052" lon="7.01984">
        <ele>579.018186</ele>
        <time>2015-03-15T08:18:47Z</time>
      </trkpt>
      <trkpt lat="48.00524" lon="7.02032">
        <ele>575.16765</ele>
        <time>2015-03-15T08:20:21Z</time>
      </trkpt>
      <trkpt lat="48.00521" lon="7.02056">
        <ele>572.075928</ele>
        <time>2015-03-15T08:20:37Z</time>
      </trkpt>
      <trkpt lat="48.00517" lon="7.02066">
        <ele>569.578125</ele>
        <time>2015-03-15T08:20:45Z</time>
      </trkpt>
      <trkpt lat="48.00515" lon="7.02108">
        <ele>572.520976</ele>
        <time>2015-03-15T08:21:05Z</time>
      </trkpt>
      <trkpt lat="48.00511" lon="7.02111">
        <ele>572.434587</ele>
        <time>2015-03-15T08:21:09Z</time>
      </trkpt>
      <trkpt lat="48.0051" lon="7.02121">
        <ele>569.486206</ele>
        <time>2015-03-15T08:21:13Z</time>
      </trkpt>
      <trkpt lat="48.00507" lon="7.02135">
        <ele>569.640381</ele>
        <time>2015-03-15T08:21:21Z</time>
      </trkpt>
      <trkpt lat="48.00507" lon="7.02152">
        <ele>569.296875</ele>
        <time>2015-03-15T08:21:29Z</time>
      </trkpt>
      <trkpt lat="48.00498" lon="7.0217">
        <ele>570.718337</ele>
        <time>2015-03-15T08:21:41Z</time>
      </trkpt>
      <trkpt lat="48.00471" lon="7.02183">
        <ele>569.555239</ele>
        <time>2015-03-15T08:21:59Z</time>
      </trkpt>
      <trkpt lat="48.00471" lon="7.02187">
        <ele>568.438721</ele>
        <time>2015-03-15T08:22:03Z</time>
      </trkpt>
      <trkpt lat="48.00448" lon="7.02199">
        <ele>567.91452</ele>
        <time>2015-03-15T08:22:19Z</time>
      </trkpt>
      <trkpt lat="48.00445" lon="7.02202">
        <ele>567.740693</ele>
        <time>2015-03-15T08:22:23Z</time>
      </trkpt>
      <trkpt lat="48.00436" lon="7.02223">
        <ele>560.244751</ele>
        <time>2015-03-15T08:22:39Z</time>
      </trkpt>
      <trkpt lat="48.00431" lon="7.02228">
        <ele>565.819556</ele>
        <time>2015-03-15T08:22:43Z</time>
      </trkpt>
      <trkpt lat="48.0043" lon="7.02232">
        <ele>558.166626</ele>
        <time>2015-03-15T08:22:47Z</time>
      </trkpt>
      <trkpt lat="48.00422" lon="7.02243">
        <ele>565.094164</ele>
        <time>2015-03-15T08:22:55Z</time>
      </trkpt>
      <trkpt lat="48.00415" lon="7.0226">
        <ele>564.29454</ele>
        <time>2015-03-15T08:23:07Z</time>
      </trkpt>
      <trkpt lat="48.00405" lon="7.02271">
        <ele>564.067954</ele>
        <time>2015-03-15T08:23:19Z</time>
      </trkpt>
      <trkpt lat="48.00404" lon="7.02277">
        <ele>553.378662</ele>
        <time>2015-03-15T08:23:23Z</time>
      </trkpt>
      <trkpt lat="48.00396" lon="7.0229">
        <ele>553.526245</ele>
        <time>2015-03-15T08:23:31Z</time>
      </trkpt>
      <trkpt lat="48.00387" lon="7.02321">
        <ele>563.144289</ele>
        <time>2015-03-15T08:23:47Z</time>
      </trkpt>
      <trkpt lat="48.00381" lon="7.02333">
        <ele>562.798963</ele>
        <time>2015-03-15T08:23:55Z</time>
      </trkpt>
      <trkpt lat="48.0038" lon="7.02343">
        <ele>562.87004</ele>
        <time>2015-03-15T08:23:59Z</time>
      </trkpt>
      <trkpt lat="48.00374" lon="7.02355">
        <ele>562.422187</ele>
        <time>2015-03-15T08:24:07Z</time>
      </trkpt>
      <trkpt lat="48.00368" lon="7.02386">
        <ele>561.363749</ele>
        <time>2015-03-15T08:24:23Z</time>
      </trkpt>
      <trkpt lat="48.00363" lon="7.024">
        <ele>560.87506</ele>
        <time>2015-03-15T08:24:31Z</time>
      </trkpt>
      <trkpt lat="48.0036" lon="7.02412">
        <ele>560.826348</ele>
        <time>2015-03-15T08:24:39Z</time>
      </trkpt>
      <trkpt lat="48.00354" lon="7.02426">
        <ele>560.779851</ele>
        <time>2015-03-15T08:24:47Z</time>
      </trkpt>
      <trkpt lat="48.00355" lon="7.02488">
        <ele>553.943115</ele>
        <time>2015-03-15T08:25:23Z</time>
      </trkpt>
      <trkpt lat="48.00353" lon="7.02493">
        <ele>554.27417</ele>
        <time>2015-03-15T08:25:27Z</time>
      </trkpt>
      <trkpt lat="48.0036" lon="7.02551">
        <ele>552.800903</ele>
        <time>2015-03-15T08:26:01Z</time>
      </trkpt>
      <trkpt lat="48.00362" lon="7.02578">
        <ele>551.830078</ele>
        <time>2015-03-15T08:26:17Z</time>
      </trkpt>
      <trkpt lat="48.00365" lon="7.02594">
        <ele>553.122437</ele>
        <time>2015-03-15T08:26:25Z</time>
      </trkpt>
      <trkpt lat="48.00366" lon="7.02631">
        <ele>555.166016</ele>
        <time>2015-03-15T08:26:49Z</time>
      </trkpt>
      <trkpt lat="48.0037" lon="7.02636">
        <ele>553.780029</ele>
        <time>2015-03-15T08:27:17Z</time>
      </trkpt>
      <trkpt lat="48.0036" lon="7.02625">
        <ele>549.12915</ele>
        <time>2015-03-15T08:27:57Z</time>
      </trkpt>
      <trkpt lat="48.00356" lon="7.02616">
        <ele>546.198975</ele>
        <time>2015-03-15T08:28:05Z</time>
      </trkpt>
      <trkpt lat="48.00351" lon="7.02608">
        <ele>549.916138</ele>
        <time>2015-03-15T08:28:13Z</time>
      </trkpt>
      <trkpt lat="48.00326" lon="7.02552">
        <ele>552.575195</ele>
        <time>2015-03-15T08:29:01Z</time>
      </trkpt>
      <trkpt lat="48.00322" lon="7.02539">
        <ele>552.19165</ele>
        <time>2015-03-15T08:29:09Z</time>
      </trkpt>
      <trkpt lat="48.00315" lon="7.02529">
        <ele>550.995361</ele>
        <time>2015-03-15T08:29:17Z</time>
      </trkpt>
      <trkpt lat="48.00313" lon="7.02513">
        <ele>553.404297</ele>
        <time>2015-03-15T08:29:29Z</time>
      </trkpt>
      <trkpt lat="48.00316" lon="7.02508">
        <ele>550.349121</ele>
        <time>2015-03-15T08:29:41Z</time>
      </trkpt>
      <trkpt lat="48.00314" lon="7.02502">
        <ele>546.944824</ele>
        <time>2015-03-15T08:29:45Z</time>
      </trkpt>
      <trkpt lat="48.00305" lon="7.02489">
        <ele>546.051514</ele>
        <time>2015-03-15T08:29:57Z</time>
      </trkpt>
      <trkpt lat="48.00304" lon="7.02428">
        <ele>558.320801</ele>
        <time>2015-03-15T08:30:45Z</time>
      </trkpt>
      <trkpt lat="48.00301" lon="7.02406">
        <ele>556.454102</ele>
        <time>2015-03-15T08:31:01Z</time>
      </trkpt>
      <trkpt lat="48.00299" lon="7.02402">
        <ele>554.604248</ele>
        <time>2015-03-15T08:31:09Z</time>
      </trkpt>
      <trkpt lat="48.003" lon="7.02398">
        <ele>556.192017</ele>
        <time>2015-03-15T08:31:13Z</time>
      </trkpt>
      <trkpt lat="48.00297" lon="7.02386">
        <ele>561.036865</ele>
        <time>2015-03-15T08:31:26Z</time>
      </trkpt>
      <trkpt lat="48.00295" lon="7.02356">
        <ele>565.05957</ele>
        <time>2015-03-15T08:32:05Z</time>
      </trkpt>
      <trkpt lat="48.00301" lon="7.0235">
        <ele>564.475586</ele>
        <time>2015-03-15T08:32:13Z</time>
      </trkpt>
      <trkpt lat="48.00305" lon="7.02338">
        <ele>561.894531</ele>
        <time>2015-03-15T08:32:29Z</time>
      </trkpt>
      <trkpt lat="48.00308" lon="7.02308">
        <ele>563.073486</ele>
        <time>2015-03-15T08:33:01Z</time>
      </trkpt>
      <trkpt lat="48.00301" lon="7.02303">
        <ele>575.745361</ele>
        <time>2015-03-15T08:33:39Z</time>
      </trkpt>
      <trkpt lat="48.00298" lon="7.02293">
        <ele>578.473877</ele>
        <time>2015-03-15T08:34:11Z</time>
      </trkpt>
      <trkpt lat="48.00292" lon="7.02292">
        <ele>602.763701</ele>
        <time>2015-03-15T08:34:56Z</time>
      </trkpt>
      <trkpt lat="48.0027" lon="7.02322">
        <ele>590.002686</ele>
        <time>2015-03-15T08:35:20Z</time>
      </trkpt>
      <trkpt lat="48.0026" lon="7.02346">
        <ele>593.63208</ele>
        <time>2015-03-15T08:35:36Z</time>
      </trkpt>
      <trkpt lat="48.00255" lon="7.02367">
        <ele>595.509033</ele>
        <time>2015-03-15T08:35:52Z</time>
      </trkpt>
      <trkpt lat="48.00248" lon="7.0238">
        <ele>598.345581</ele>
        <time>2015-03-15T08:36:08Z</time>
      </trkpt>
      <trkpt lat="48.00222" lon="7.02407">
        <ele>596.607788</ele>
        <time>2015-03-15T08:36:40Z</time>
      </trkpt>
      <trkpt lat="48.00213" lon="7.0242">
        <ele>597.513184</ele>
        <time>2015-03-15T08:36:52Z</time>
      </trkpt>
      <trkpt lat="48.00208" lon="7.02423">
        <ele>598.62207</ele>
        <time>2015-03-15T08:36:56Z</time>
      </trkpt>
      <trkpt lat="48.002" lon="7.02424">
        <ele>599.249268</ele>
        <time>2015-03-15T08:37:04Z</time>
      </trkpt>
      <trkpt lat="48.00197" lon="7.02428">
        <ele>602.062988</ele>
        <time>2015-03-15T08:37:12Z</time>
      </trkpt>
      <trkpt lat="48.0019" lon="7.0243">
        <ele>608.447998</ele>
        <time>2015-03-15T08:37:28Z</time>
      </trkpt>
      <trkpt lat="48.00186" lon="7.02447">
        <ele>602.392578</ele>
        <time>2015-03-15T08:37:44Z</time>
      </trkpt>
      <trkpt lat="48.00185" lon="7.02462">
        <ele>601.774414</ele>
        <time>2015-03-15T08:37:56Z</time>
      </trkpt>
      <trkpt lat="48.0018" lon="7.02465">
        <ele>606.147217</ele>
        <time>2015-03-15T08:38:04Z</time>
      </trkpt>
      <trkpt lat="48.00174" lon="7.02474">
        <ele>609.132812</ele>
        <time>2015-03-15T08:38:20Z</time>
      </trkpt>
      <trkpt lat="48.00166" lon="7.02476">
        <ele>610.181274</ele>
        <time>2015-03-15T08:38:28Z</time>
      </trkpt>
      <trkpt lat="48.00159" lon="7.02484">
        <ele>607.720947</ele>
        <time>2015-03-15T08:39:00Z</time>
      </trkpt>
      <trkpt lat="48.00136" lon="7.02464">
        <ele>610.396973</ele>
        <time>2015-03-15T08:39:40Z</time>
      </trkpt>
      <trkpt lat="48.00129" lon="7.0246">
        <ele>610.779541</ele>
        <time>2015-03-15T08:39:48Z</time>
      </trkpt>
      <trkpt lat="48.00118" lon="7.02445">
        <ele>610.811401</ele>
        <time>2015-03-15T08:40:04Z</time>
      </trkpt>
      <trkpt lat="48.00113" lon="7.0244">
        <ele>612.068359</ele>
        <time>2015-03-15T08:40:12Z</time>
      </trkpt>
      <trkpt lat="48.00109" lon="7.0243">
        <ele>610.058838</ele>
        <time>2015-03-15T08:40:28Z</time>
      </trkpt>
      <trkpt lat="48.00094" lon="7.02407">
        <ele>614.62854</ele>
        <time>2015-03-15T08:41:00Z</time>
      </trkpt>
      <trkpt lat="48.00082" lon="7.02392">
        <ele>619.352051</ele>
        <time>2015-03-15T08:41:20Z</time>
      </trkpt>
      <trkpt lat="48.00077" lon="7.02395">
        <ele>619.770386</ele>
        <time>2015-03-15T08:41:28Z</time>
      </trkpt>
      <trkpt lat="48.00065" lon="7.02392">
        <ele>622.634155</ele>
        <time>2015-03-15T08:41:44Z</time>
      </trkpt>
      <trkpt lat="48.00065" lon="7.02384">
        <ele>619.852539</ele>
        <time>2015-03-15T08:41:52Z</time>
      </trkpt>
      <trkpt lat="48.00062" lon="7.02381">
        <ele>621.544678</ele>
        <time>2015-03-15T08:41:56Z</time>
      </trkpt>
      <trkpt lat="48.00059" lon="7.02381">
        <ele>620.203613</ele>
        <time>2015-03-15T08:41:58Z</time>
      </trkpt>
      <trkpt lat="48.00058" lon="7.02378">
        <ele>617.677124</ele>
        <time>2015-03-15T08:42:02Z</time>
      </trkpt>
      <trkpt lat="48.00056" lon="7.02378">
        <ele>620.977905</ele>
        <time>2015-03-15T08:42:06Z</time>
      </trkpt>
      <trkpt lat="48.00054" lon="7.0237">
        <ele>619.762573</ele>
        <time>2015-03-15T08:42:14Z</time>
      </trkpt>
      <trkpt lat="48.00051" lon="7.02364">
        <ele>619.879395</ele>
        <time>2015-03-15T08:42:51Z</time>
      </trkpt>
      <trkpt lat="48.0005" lon="7.02357">
        <ele>620.520264</ele>
        <time>2015-03-15T08:42:59Z</time>
      </trkpt>
      <trkpt lat="48.00031" lon="7.02338">
        <ele>624.393311</ele>
        <time>2015-03-15T08:43:13Z</time>
      </trkpt>
      <trkpt lat="48.0002" lon="7.02345">
        <ele>626.966553</ele>
        <time>2015-03-15T08:43:21Z</time>
      </trkpt>
      <trkpt lat="48.00016" lon="7.02345">
        <ele>626.449951</ele>
        <time>2015-03-15T08:43:22Z</time>
      </trkpt>
      <trkpt lat="48.00004" lon="7.02326">
        <ele>629.993164</ele>
        <time>2015-03-15T08:43:35Z</time>
      </trkpt>
      <trkpt lat="48.00002" lon="7.02332">
        <ele>628.739746</ele>
        <time>2015-03-15T08:43:41Z</time>
      </trkpt>
      <trkpt lat="48.00001" lon="7.02326">
        <ele>623.630615</ele>
        <time>2015-03-15T08:43:45Z</time>
      </trkpt>
      <trkpt lat="47.99962" lon="7.02296">
        <ele>639.048584</ele>
        <time>2015-03-15T08:45:02Z</time>
      </trkpt>
      <trkpt lat="47.99955" lon="7.02297">
        <ele>640.498291</ele>
        <time>2015-03-15T08:45:10Z</time>
      </trkpt>
      <trkpt lat="47.99947" lon="7.02287">
        <ele>639.440552</ele>
        <time>2015-03-15T08:45:26Z</time>
      </trkpt>
      <trkpt lat="47.99944" lon="7.02275">
        <ele>637.365723</ele>
        <time>2015-03-15T08:45:38Z</time>
      </trkpt>
      <trkpt lat="47.99925" lon="7.02255">
        <ele>645.986572</ele>
        <time>2015-03-15T08:46:14Z</time>
      </trkpt>
      <trkpt lat="47.99921" lon="7.02255">
        <ele>647.273682</ele>
        <time>2015-03-15T08:46:18Z</time>
      </trkpt>
      <trkpt lat="47.99919" lon="7.0225">
        <ele>648.070679</ele>
        <time>2015-03-15T08:46:29Z</time>
      </trkpt>
      <trkpt lat="47.9996" lon="7.02243">
        <ele>661.555005</ele>
        <time>2015-03-15T08:47:28Z</time>
      </trkpt>
      <trkpt lat="47.99979" lon="7.02232">
        <ele>664.320435</ele>
        <time>2015-03-15T08:47:52Z</time>
      </trkpt>
      <trkpt lat="47.99981" lon="7.02226">
        <ele>658.064453</ele>
        <time>2015-03-15T08:48:26Z</time>
      </trkpt>
      <trkpt lat="47.9998" lon="7.02234">
        <ele>658.717041</ele>
        <time>2015-03-15T08:49:33Z</time>
      </trkpt>
      <trkpt lat="47.99962" lon="7.02226">
        <ele>665.769775</ele>
        <time>2015-03-15T08:50:33Z</time>
      </trkpt>
      <trkpt lat="47.99955" lon="7.02228">
        <ele>669.800781</ele>
        <time>2015-03-15T08:50:39Z</time>
      </trkpt>
      <trkpt lat="47.99944" lon="7.0221">
        <ele>672.282715</ele>
        <time>2015-03-15T08:50:55Z</time>
      </trkpt>
      <trkpt lat="47.99928" lon="7.02197">
        <ele>673.419678</ele>
        <time>2015-03-15T08:51:19Z</time>
      </trkpt>
      <trkpt lat="47.99926" lon="7.02192">
        <ele>673.819824</ele>
        <time>2015-03-15T08:51:35Z</time>
      </trkpt>
      <trkpt lat="47.99936" lon="7.02189">
        <ele>666.446777</ele>
        <time>2015-03-15T08:51:51Z</time>
      </trkpt>
      <trkpt lat="47.99961" lon="7.02189">
        <ele>671.394531</ele>
        <time>2015-03-15T08:52:23Z</time>
      </trkpt>
      <trkpt lat="47.99965" lon="7.02185">
        <ele>673.737793</ele>
        <time>2015-03-15T08:52:39Z</time>
      </trkpt>
      <trkpt lat="47.99963" lon="7.02182">
        <ele>676.456787</ele>
        <time>2015-03-15T08:52:55Z</time>
      </trkpt>
      <trkpt lat="47.99953" lon="7.02178">
        <ele>682.872192</ele>
        <time>2015-03-15T08:53:11Z</time>
      </trkpt>
      <trkpt lat="47.99949" lon="7.0217">
        <ele>686.26123</ele>
        <time>2015-03-15T08:53:19Z</time>
      </trkpt>
      <trkpt lat="47.99941" lon="7.0217">
        <ele>692.5896</ele>
        <time>2015-03-15T08:53:35Z</time>
      </trkpt>
      <trkpt lat="47.99932" lon="7.02154">
        <ele>687.721924</ele>
        <time>2015-03-15T08:53:51Z</time>
      </trkpt>
      <trkpt lat="47.99927" lon="7.02153">
        <ele>688.370728</ele>
        <time>2015-03-15T08:54:03Z</time>
      </trkpt>
      <trkpt lat="47.99915" lon="7.02138">
        <ele>691.755615</ele>
        <time>2015-03-15T08:54:27Z</time>
      </trkpt>
      <trkpt lat="47.99906" lon="7.0212">
        <ele>691.59375</ele>
        <time>2015-03-15T08:54:43Z</time>
      </trkpt>
      <trkpt lat="47.999" lon="7.02103">
        <ele>690.937012</ele>
        <time>2015-03-15T08:54:59Z</time>
      </trkpt>
      <trkpt lat="47.99889" lon="7.02095">
        <ele>689.082031</ele>
        <time>2015-03-15T08:55:16Z</time>
      </trkpt>
      <trkpt lat="47.99884" lon="7.02097">
        <ele>690.183594</ele>
        <time>2015-03-15T08:55:20Z</time>
      </trkpt>
      <trkpt lat="47.99882" lon="7.02087">
        <ele>690.148315</ele>
        <time>2015-03-15T08:55:28Z</time>
      </trkpt>
      <trkpt lat="47.99872" lon="7.02079">
        <ele>691.434204</ele>
        <time>2015-03-15T08:55:44Z</time>
      </trkpt>
      <trkpt lat="47.99867" lon="7.0207">
        <ele>692.88208</ele>
        <time>2015-03-15T08:55:52Z</time>
      </trkpt>
      <trkpt lat="47.99858" lon="7.02068">
        <ele>697.341431</ele>
        <time>2015-03-15T08:56:00Z</time>
      </trkpt>
      <trkpt lat="47.99853" lon="7.02062">
        <ele>698.621094</ele>
        <time>2015-03-15T08:56:08Z</time>
      </trkpt>
      <trkpt lat="47.99849" lon="7.02063">
        <ele>698.357178</ele>
        <time>2015-03-15T08:56:12Z</time>
      </trkpt>
      <trkpt lat="47.9984" lon="7.02051">
        <ele>703.081177</ele>
        <time>2015-03-15T08:56:36Z</time>
      </trkpt>
      <trkpt lat="47.99835" lon="7.0204">
        <ele>704.299316</ele>
        <time>2015-03-15T08:56:52Z</time>
      </trkpt>
      <trkpt lat="47.99829" lon="7.02034">
        <ele>704.100098</ele>
        <time>2015-03-15T08:57:08Z</time>
      </trkpt>
      <trkpt lat="47.99819" lon="7.02029">
        <ele>709.511475</ele>
        <time>2015-03-15T08:57:16Z</time>
      </trkpt>
      <trkpt lat="47.99809" lon="7.02005">
        <ele>713.463379</ele>
        <time>2015-03-15T08:57:40Z</time>
      </trkpt>
      <trkpt lat="47.99804" lon="7.01998">
        <ele>717.411377</ele>
        <time>2015-03-15T08:57:48Z</time>
      </trkpt>
      <trkpt lat="47.99796" lon="7.01978">
        <ele>715.499268</ele>
        <time>2015-03-15T08:58:04Z</time>
      </trkpt>
      <trkpt lat="47.99788" lon="7.01968">
        <ele>721.800781</ele>
        <time>2015-03-15T08:58:20Z</time>
      </trkpt>
      <trkpt lat="47.9978" lon="7.01947">
        <ele>721.663574</ele>
        <time>2015-03-15T08:58:58Z</time>
      </trkpt>
      <trkpt lat="47.9978" lon="7.01943">
        <ele>719.054321</ele>
        <time>2015-03-15T08:59:02Z</time>
      </trkpt>
      <trkpt lat="47.99768" lon="7.01934">
        <ele>725.810791</ele>
        <time>2015-03-15T08:59:18Z</time>
      </trkpt>
      <trkpt lat="47.99758" lon="7.0192">
        <ele>730.727661</ele>
        <time>2015-03-15T08:59:34Z</time>
      </trkpt>
      <trkpt lat="47.9975" lon="7.01905">
        <ele>733.86377</ele>
        <time>2015-03-15T08:59:46Z</time>
      </trkpt>
      <trkpt lat="47.99744" lon="7.01906">
        <ele>733.272461</ele>
        <time>2015-03-15T08:59:58Z</time>
      </trkpt>
      <trkpt lat="47.99742" lon="7.01901">
        <ele>733.307373</ele>
        <time>2015-03-15T09:00:06Z</time>
      </trkpt>
      <trkpt lat="47.99742" lon="7.01899">
        <ele>734.930664</ele>
        <time>2015-03-15T09:00:14Z</time>
      </trkpt>
      <trkpt lat="47.99757" lon="7.0189">
        <ele>734.350586</ele>
        <time>2015-03-15T09:00:32Z</time>
      </trkpt>
      <trkpt lat="47.99767" lon="7.0189">
        <ele>729.590088</ele>
        <time>2015-03-15T09:00:48Z</time>
      </trkpt>
      <trkpt lat="47.99764" lon="7.01882">
        <ele>730.355713</ele>
        <time>2015-03-15T09:00:56Z</time>
      </trkpt>
      <trkpt lat="47.9975" lon="7.01867">
        <ele>733.114868</ele>
        <time>2015-03-15T09:01:30Z</time>
      </trkpt>
      <trkpt lat="47.99747" lon="7.01858">
        <ele>739.550049</ele>
        <time>2015-03-15T09:03:42Z</time>
      </trkpt>
      <trkpt lat="47.99754" lon="7.01863">
        <ele>750.342773</ele>
        <time>2015-03-15T09:06:18Z</time>
      </trkpt>
      <trkpt lat="47.99754" lon="7.01865">
        <ele>748.469671</ele>
        <time>2015-03-15T09:07:40Z</time>
      </trkpt>
      <trkpt lat="47.99753" lon="7.01863">
        <ele>748.572299</ele>
        <time>2015-03-15T09:07:46Z</time>
      </trkpt>
      <trkpt lat="47.99752" lon="7.01866">
        <ele>751.036865</ele>
        <time>2015-03-15T09:08:32Z</time>
      </trkpt>
      <trkpt lat="47.99752" lon="7.01861">
        <ele>751.056641</ele>
        <time>2015-03-15T09:08:40Z</time>
      </trkpt>
      <trkpt lat="47.9976" lon="7.01854">
        <ele>750.911377</ele>
        <time>2015-03-15T09:08:56Z</time>
      </trkpt>
      <trkpt lat="47.99776" lon="7.01851">
        <ele>749.689697</ele>
        <time>2015-03-15T09:09:20Z</time>
      </trkpt>
      <trkpt lat="47.99787" lon="7.01854">
        <ele>752.592041</ele>
        <time>2015-03-15T09:09:28Z</time>
      </trkpt>
      <trkpt lat="47.99823" lon="7.0188">
        <ele>751.650635</ele>
        <time>2015-03-15T09:10:16Z</time>
      </trkpt>
      <trkpt lat="47.99837" lon="7.0188">
        <ele>753.588257</ele>
        <time>2015-03-15T09:10:24Z</time>
      </trkpt>
      <trkpt lat="47.99847" lon="7.01885">
        <ele>756.009888</ele>
        <time>2015-03-15T09:10:32Z</time>
      </trkpt>
      <trkpt lat="47.99854" lon="7.01895">
        <ele>760.955933</ele>
        <time>2015-03-15T09:10:40Z</time>
      </trkpt>
      <trkpt lat="47.99873" lon="7.01901">
        <ele>758.865234</ele>
        <time>2015-03-15T09:10:56Z</time>
      </trkpt>
      <trkpt lat="47.99886" lon="7.01908">
        <ele>758.498047</ele>
        <time>2015-03-15T09:11:12Z</time>
      </trkpt>
      <trkpt lat="47.99892" lon="7.01907">
        <ele>760.908447</ele>
        <time>2015-03-15T09:11:28Z</time>
      </trkpt>
      <trkpt lat="47.99899" lon="7.01912">
        <ele>760.3479</ele>
        <time>2015-03-15T09:11:36Z</time>
      </trkpt>
      <trkpt lat="47.999" lon="7.01911">
        <ele>760.457153</ele>
        <time>2015-03-15T09:11:44Z</time>
      </trkpt>
      <trkpt lat="47.999" lon="7.01901">
        <ele>764.478516</ele>
        <time>2015-03-15T09:11:56Z</time>
      </trkpt>
      <trkpt lat="47.99888" lon="7.01894">
        <ele>770.133057</ele>
        <time>2015-03-15T09:12:12Z</time>
      </trkpt>
      <trkpt lat="47.99878" lon="7.01884">
        <ele>775.567383</ele>
        <time>2015-03-15T09:12:28Z</time>
      </trkpt>
      <trkpt lat="47.99866" lon="7.01876">
        <ele>781.90271</ele>
        <time>2015-03-15T09:12:44Z</time>
      </trkpt>
      <trkpt lat="47.9986" lon="7.01862">
        <ele>785.099487</ele>
        <time>2015-03-15T09:13:00Z</time>
      </trkpt>
      <trkpt lat="47.9984" lon="7.01829">
        <ele>784.668701</ele>
        <time>2015-03-15T09:13:32Z</time>
      </trkpt>
      <trkpt lat="47.99835" lon="7.01824">
        <ele>783.096436</ele>
        <time>2015-03-15T09:13:40Z</time>
      </trkpt>
      <trkpt lat="47.99822" lon="7.01796">
        <ele>795.981271</ele>
        <time>2015-03-15T09:14:05Z</time>
      </trkpt>
      <trkpt lat="47.99814" lon="7.01795">
        <ele>797.056732</ele>
        <time>2015-03-15T09:14:18Z</time>
      </trkpt>
      <trkpt lat="47.99813" lon="7.01787">
        <ele>797.469644</ele>
        <time>2015-03-15T09:14:24Z</time>
      </trkpt>
      <trkpt lat="47.99809" lon="7.01785">
        <ele>797.843262</ele>
        <time>2015-03-15T09:14:28Z</time>
      </trkpt>
      <trkpt lat="47.99807" lon="7.01776">
        <ele>798.855102</ele>
        <time>2015-03-15T09:14:36Z</time>
      </trkpt>
      <trkpt lat="47.99808" lon="7.0177">
        <ele>799.156234</ele>
        <time>2015-03-15T09:14:40Z</time>
      </trkpt>
      <trkpt lat="47.99803" lon="7.01759">
        <ele>800.381658</ele>
        <time>2015-03-15T09:14:52Z</time>
      </trkpt>
      <trkpt lat="47.99801" lon="7.01759">
        <ele>800.84462</ele>
        <time>2015-03-15T09:14:56Z</time>
      </trkpt>
      <trkpt lat="47.99801" lon="7.01761">
        <ele>800.868423</ele>
        <time>2015-03-15T09:15:00Z</time>
      </trkpt>
      <trkpt lat="47.998" lon="7.01759">
        <ele>801.489147</ele>
        <time>2015-03-15T09:15:11Z</time>
      </trkpt>
      <trkpt lat="47.99791" lon="7.01756">
        <ele>802.357527</ele>
        <time>2015-03-15T09:15:19Z</time>
      </trkpt>
      <trkpt lat="47.99788" lon="7.01751">
        <ele>804.11571</ele>
        <time>2015-03-15T09:15:27Z</time>
      </trkpt>
      <trkpt lat="47.9979" lon="7.01753">
        <ele>804.981723</ele>
        <time>2015-03-15T09:15:32Z</time>
      </trkpt>
      <trkpt lat="47.99813" lon="7.01746">
        <ele>807.054996</ele>
        <time>2015-03-15T09:15:49Z</time>
      </trkpt>
      <trkpt lat="47.99823" lon="7.01747">
        <ele>808.413028</ele>
        <time>2015-03-15T09:16:02Z</time>
      </trkpt>
      <trkpt lat="47.99841" lon="7.01761">
        <ele>811.322996</ele>
        <time>2015-03-15T09:16:26Z</time>
      </trkpt>
      <trkpt lat="47.99846" lon="7.01762">
        <ele>812.093526</ele>
        <time>2015-03-15T09:16:34Z</time>
      </trkpt>
      <trkpt lat="47.99852" lon="7.01767">
        <ele>812.960825</ele>
        <time>2015-03-15T09:16:42Z</time>
      </trkpt>
      <trkpt lat="47.99862" lon="7.0177">
        <ele>814.372225</ele>
        <time>2015-03-15T09:16:50Z</time>
      </trkpt>
      <trkpt lat="47.99876" lon="7.0178">
        <ele>817.076902</ele>
        <time>2015-03-15T09:17:06Z</time>
      </trkpt>
      <trkpt lat="47.99877" lon="7.01785">
        <ele>817.781696</ele>
        <time>2015-03-15T09:17:10Z</time>
      </trkpt>
      <trkpt lat="47.99881" lon="7.01784">
        <ele>818.01595</ele>
        <time>2015-03-15T09:17:14Z</time>
      </trkpt>
      <trkpt lat="47.99903" lon="7.01802">
        <ele>820.971571</ele>
        <time>2015-03-15T09:17:43Z</time>
      </trkpt>
      <trkpt lat="47.99903" lon="7.0181">
        <ele>822.001223</ele>
        <time>2015-03-15T09:17:51Z</time>
      </trkpt>
      <trkpt lat="47.99921" lon="7.01812">
        <ele>823.942157</ele>
        <time>2015-03-15T09:18:07Z</time>
      </trkpt>
      <trkpt lat="47.99925" lon="7.0181">
        <ele>826.049853</ele>
        <time>2015-03-15T09:18:16Z</time>
      </trkpt>
      <trkpt lat="47.99923" lon="7.01804">
        <ele>826.903023</ele>
        <time>2015-03-15T09:18:24Z</time>
      </trkpt>
      <trkpt lat="47.9992" lon="7.018">
        <ele>827.818991</ele>
        <time>2015-03-15T09:18:32Z</time>
      </trkpt>
      <trkpt lat="47.99916" lon="7.01799">
        <ele>828.201126</ele>
        <time>2015-03-15T09:18:36Z</time>
      </trkpt>
      <trkpt lat="47.99911" lon="7.01791">
        <ele>829.053999</ele>
        <time>2015-03-15T09:18:44Z</time>
      </trkpt>
      <trkpt lat="47.99908" lon="7.01783">
        <ele>820.685059</ele>
        <time>2015-03-15T09:18:52Z</time>
      </trkpt>
      <trkpt lat="47.999" lon="7.01773">
        <ele>821.600586</ele>
        <time>2015-03-15T09:19:00Z</time>
      </trkpt>
      <trkpt lat="47.99894" lon="7.01761">
        <ele>821.265625</ele>
        <time>2015-03-15T09:19:08Z</time>
      </trkpt>
      <trkpt lat="47.99893" lon="7.01751">
        <ele>821.899902</ele>
        <time>2015-03-15T09:19:16Z</time>
      </trkpt>
      <trkpt lat="47.99884" lon="7.01734">
        <ele>828.987061</ele>
        <time>2015-03-15T09:19:32Z</time>
      </trkpt>
      <trkpt lat="47.99877" lon="7.01725">
        <ele>831.822754</ele>
        <time>2015-03-15T09:19:48Z</time>
      </trkpt>
      <trkpt lat="47.99873" lon="7.01725">
        <ele>833.064941</ele>
        <time>2015-03-15T09:19:52Z</time>
      </trkpt>
      <trkpt lat="47.99861" lon="7.01709">
        <ele>832.753174</ele>
        <time>2015-03-15T09:20:12Z</time>
      </trkpt>
      <trkpt lat="47.99861" lon="7.01704">
        <ele>832.616089</ele>
        <time>2015-03-15T09:20:16Z</time>
      </trkpt>
      <trkpt lat="47.99851" lon="7.01698">
        <ele>839.45752</ele>
        <time>2015-03-15T09:20:28Z</time>
      </trkpt>
      <trkpt lat="47.99843" lon="7.01697">
        <ele>843.282471</ele>
        <time>2015-03-15T09:20:36Z</time>
      </trkpt>
      <trkpt lat="47.99839" lon="7.01693">
        <ele>841.656006</ele>
        <time>2015-03-15T09:20:40Z</time>
      </trkpt>
      <trkpt lat="47.9982" lon="7.01653">
        <ele>837.440674</ele>
        <time>2015-03-15T09:21:20Z</time>
      </trkpt>
      <trkpt lat="47.99816" lon="7.0165">
        <ele>839.15332</ele>
        <time>2015-03-15T09:21:28Z</time>
      </trkpt>
      <trkpt lat="47.99816" lon="7.01646">
        <ele>839.483643</ele>
        <time>2015-03-15T09:21:36Z</time>
      </trkpt>
      <trkpt lat="47.99819" lon="7.01655">
        <ele>836.685059</ele>
        <time>2015-03-15T09:21:52Z</time>
      </trkpt>
      <trkpt lat="47.99815" lon="7.01648">
        <ele>838.462158</ele>
        <time>2015-03-15T09:22:08Z</time>
      </trkpt>
      <trkpt lat="47.99803" lon="7.01649">
        <ele>842.711182</ele>
        <time>2015-03-15T09:22:32Z</time>
      </trkpt>
      <trkpt lat="47.99796" lon="7.0164">
        <ele>840.804565</ele>
        <time>2015-03-15T09:22:48Z</time>
      </trkpt>
      <trkpt lat="47.99791" lon="7.01626">
        <ele>839.587158</ele>
        <time>2015-03-15T09:23:00Z</time>
      </trkpt>
      <trkpt lat="47.99789" lon="7.01624">
        <ele>839.242676</ele>
        <time>2015-03-15T09:23:04Z</time>
      </trkpt>
      <trkpt lat="47.99789" lon="7.01617">
        <ele>840.255005</ele>
        <time>2015-03-15T09:23:12Z</time>
      </trkpt>
      <trkpt lat="47.99787" lon="7.01613">
        <ele>840.812988</ele>
        <time>2015-03-15T09:23:16Z</time>
      </trkpt>
      <trkpt lat="47.99773" lon="7.016">
        <ele>847.95459</ele>
        <time>2015-03-15T09:24:25Z</time>
      </trkpt>
      <trkpt lat="47.99772" lon="7.01596">
        <ele>850.98938</ele>
        <time>2015-03-15T09:24:33Z</time>
      </trkpt>
      <trkpt lat="47.99764" lon="7.01591">
        <ele>851.776978</ele>
        <time>2015-03-15T09:25:13Z</time>
      </trkpt>
      <trkpt lat="47.99755" lon="7.01583">
        <ele>851.315674</ele>
        <time>2015-03-15T09:25:21Z</time>
      </trkpt>
      <trkpt lat="47.9974" lon="7.01578">
        <ele>853.411621</ele>
        <time>2015-03-15T09:25:37Z</time>
      </trkpt>
      <trkpt lat="47.99732" lon="7.01571">
        <ele>855.013184</ele>
        <time>2015-03-15T09:25:49Z</time>
      </trkpt>
      <trkpt lat="47.9972" lon="7.01571">
        <ele>860.194336</ele>
        <time>2015-03-15T09:26:01Z</time>
      </trkpt>
      <trkpt lat="47.99718" lon="7.01569">
        <ele>860.414673</ele>
        <time>2015-03-15T09:26:17Z</time>
      </trkpt>
      <trkpt lat="47.99711" lon="7.01569">
        <ele>863.388672</ele>
        <time>2015-03-15T09:26:33Z</time>
      </trkpt>
      <trkpt lat="47.99697" lon="7.01574">
        <ele>867.257202</ele>
        <time>2015-03-15T09:26:49Z</time>
      </trkpt>
      <trkpt lat="47.99685" lon="7.01564">
        <ele>867.251953</ele>
        <time>2015-03-15T09:27:05Z</time>
      </trkpt>
      <trkpt lat="47.99678" lon="7.01566">
        <ele>866.403076</ele>
        <time>2015-03-15T09:27:13Z</time>
      </trkpt>
      <trkpt lat="47.99676" lon="7.01562">
        <ele>868.367432</ele>
        <time>2015-03-15T09:27:17Z</time>
      </trkpt>
      <trkpt lat="47.99654" lon="7.01566">
        <ele>873.482422</ele>
        <time>2015-03-15T09:27:49Z</time>
      </trkpt>
      <trkpt lat="47.9964" lon="7.01561">
        <ele>876.610229</ele>
        <time>2015-03-15T09:28:05Z</time>
      </trkpt>
      <trkpt lat="47.99632" lon="7.01562">
        <ele>877.983643</ele>
        <time>2015-03-15T09:28:13Z</time>
      </trkpt>
      <trkpt lat="47.99625" lon="7.01567">
        <ele>880.990479</ele>
        <time>2015-03-15T09:28:29Z</time>
      </trkpt>
      <trkpt lat="47.99615" lon="7.01569">
        <ele>884.291382</ele>
        <time>2015-03-15T09:28:47Z</time>
      </trkpt>
      <trkpt lat="47.99605" lon="7.01565">
        <ele>883.175537</ele>
        <time>2015-03-15T09:29:03Z</time>
      </trkpt>
      <trkpt lat="47.99571" lon="7.01564">
        <ele>887.441772</ele>
        <time>2015-03-15T09:29:51Z</time>
      </trkpt>
      <trkpt lat="47.99549" lon="7.01568">
        <ele>891.922119</ele>
        <time>2015-03-15T09:30:15Z</time>
      </trkpt>
      <trkpt lat="47.99545" lon="7.01564">
        <ele>891.177734</ele>
        <time>2015-03-15T09:30:23Z</time>
      </trkpt>
      <trkpt lat="47.99539" lon="7.01565">
        <ele>894.359863</ele>
        <time>2015-03-15T09:30:31Z</time>
      </trkpt>
      <trkpt lat="47.99525" lon="7.01558">
        <ele>895.242432</ele>
        <time>2015-03-15T09:30:55Z</time>
      </trkpt>
      <trkpt lat="47.99511" lon="7.01544">
        <ele>893.578857</ele>
        <time>2015-03-15T09:31:11Z</time>
      </trkpt>
      <trkpt lat="47.9949" lon="7.01539">
        <ele>893.82666</ele>
        <time>2015-03-15T09:31:31Z</time>
      </trkpt>
      <trkpt lat="47.99484" lon="7.0153">
        <ele>894.94751</ele>
        <time>2015-03-15T09:31:38Z</time>
      </trkpt>
      <trkpt lat="47.99479" lon="7.01531">
        <ele>895.555664</ele>
        <time>2015-03-15T09:31:42Z</time>
      </trkpt>
      <trkpt lat="47.99478" lon="7.01525">
        <ele>897.013672</ele>
        <time>2015-03-15T09:31:46Z</time>
      </trkpt>
      <trkpt lat="47.99472" lon="7.01522">
        <ele>898.880493</ele>
        <time>2015-03-15T09:31:54Z</time>
      </trkpt>
      <trkpt lat="47.99445" lon="7.01519">
        <ele>892.655029</ele>
        <time>2015-03-15T09:32:26Z</time>
      </trkpt>
      <trkpt lat="47.99443" lon="7.01515">
        <ele>894.227051</ele>
        <time>2015-03-15T09:32:34Z</time>
      </trkpt>
      <trkpt lat="47.99421" lon="7.01512">
        <ele>896.977295</ele>
        <time>2015-03-15T09:33:06Z</time>
      </trkpt>
      <trkpt lat="47.99416" lon="7.01509">
        <ele>896.181641</ele>
        <time>2015-03-15T09:33:22Z</time>
      </trkpt>
      <trkpt lat="47.99423" lon="7.01502">
        <ele>897.089111</ele>
        <time>2015-03-15T09:33:49Z</time>
      </trkpt>
      <trkpt lat="47.99414" lon="7.01496">
        <ele>900.805786</ele>
        <time>2015-03-15T09:34:13Z</time>
      </trkpt>
      <trkpt lat="47.994" lon="7.01497">
        <ele>904.928467</ele>
        <time>2015-03-15T09:34:33Z</time>
      </trkpt>
      <trkpt lat="47.99404" lon="7.01494">
        <ele>903.85791</ele>
        <time>2015-03-15T09:34:48Z</time>
      </trkpt>
      <trkpt lat="47.99413" lon="7.01491">
        <ele>902.223145</ele>
        <time>2015-03-15T09:35:04Z</time>
      </trkpt>
      <trkpt lat="47.99414" lon="7.01489">
        <ele>901.086914</ele>
        <time>2015-03-15T09:35:08Z</time>
      </trkpt>
      <trkpt lat="47.9941" lon="7.01484">
        <ele>905.306396</ele>
        <time>2015-03-15T09:35:16Z</time>
      </trkpt>
      <trkpt lat="47.99404" lon="7.01488">
        <ele>903.341064</ele>
        <time>2015-03-15T09:35:24Z</time>
      </trkpt>
      <trkpt lat="47.9939" lon="7.01484">
        <ele>912.544189</ele>
        <time>2015-03-15T09:35:52Z</time>
      </trkpt>
      <trkpt lat="47.99403" lon="7.0146">
        <ele>911.437378</ele>
        <time>2015-03-15T09:36:56Z</time>
      </trkpt>
      <trkpt lat="47.99399" lon="7.01461">
        <ele>915.473877</ele>
        <time>2015-03-15T09:37:00Z</time>
      </trkpt>
      <trkpt lat="47.99393" lon="7.01459">
        <ele>914.198975</ele>
        <time>2015-03-15T09:37:08Z</time>
      </trkpt>
      <trkpt lat="47.99387" lon="7.01464">
        <ele>912.117188</ele>
        <time>2015-03-15T09:37:16Z</time>
      </trkpt>
      <trkpt lat="47.99378" lon="7.01461">
        <ele>926.778076</ele>
        <time>2015-03-15T09:37:32Z</time>
      </trkpt>
      <trkpt lat="47.99363" lon="7.01468">
        <ele>932.979492</ele>
        <time>2015-03-15T09:37:52Z</time>
      </trkpt>
      <trkpt lat="47.99357" lon="7.0146">
        <ele>933.781982</ele>
        <time>2015-03-15T09:38:08Z</time>
      </trkpt>
      <trkpt lat="47.9936" lon="7.01456">
        <ele>934.711548</ele>
        <time>2015-03-15T09:39:17Z</time>
      </trkpt>
      <trkpt lat="47.99356" lon="7.01456">
        <ele>936.071533</ele>
        <time>2015-03-15T09:40:36Z</time>
      </trkpt>
      <trkpt lat="47.99359" lon="7.01455">
        <ele>944.423473</ele>
        <time>2015-03-15T09:41:45Z</time>
      </trkpt>
      <trkpt lat="47.99353" lon="7.01454">
        <ele>941.816743</ele>
        <time>2015-03-15T09:42:36Z</time>
      </trkpt>
      <trkpt lat="47.9935" lon="7.01461">
        <ele>941.683398</ele>
        <time>2015-03-15T09:42:40Z</time>
      </trkpt>
      <trkpt lat="47.9935" lon="7.01468">
        <ele>940.834021</ele>
        <time>2015-03-15T09:42:49Z</time>
      </trkpt>
      <trkpt lat="47.99357" lon="7.01454">
        <ele>940.931481</ele>
        <time>2015-03-15T09:43:05Z</time>
      </trkpt>
      <trkpt lat="47.99355" lon="7.01451">
        <ele>940.184438</ele>
        <time>2015-03-15T09:43:31Z</time>
      </trkpt>
      <trkpt lat="47.99356" lon="7.01452">
        <ele>939.892024</ele>
        <time>2015-03-15T09:43:46Z</time>
      </trkpt>
      <trkpt lat="47.99356" lon="7.0145">
        <ele>939.761651</ele>
        <time>2015-03-15T09:43:58Z</time>
      </trkpt>
      <trkpt lat="47.99351" lon="7.01447">
        <ele>940.102539</ele>
        <time>2015-03-15T09:44:06Z</time>
      </trkpt>
      <trkpt lat="47.99346" lon="7.01449">
        <ele>940.182281</ele>
        <time>2015-03-15T09:44:10Z</time>
      </trkpt>
      <trkpt lat="47.9934" lon="7.01444">
        <ele>940.471265</ele>
        <time>2015-03-15T09:44:18Z</time>
      </trkpt>
      <trkpt lat="47.99332" lon="7.01443">
        <ele>940.704007</ele>
        <time>2015-03-15T09:44:26Z</time>
      </trkpt>
      <trkpt lat="47.99324" lon="7.01433">
        <ele>941.745563</ele>
        <time>2015-03-15T09:44:42Z</time>
      </trkpt>
      <trkpt lat="47.99315" lon="7.01424">
        <ele>942.719884</ele>
        <time>2015-03-15T09:44:58Z</time>
      </trkpt>
      <trkpt lat="47.99307" lon="7.01422">
        <ele>943.209741</ele>
        <time>2015-03-15T09:45:06Z</time>
      </trkpt>
      <trkpt lat="47.99299" lon="7.01413">
        <ele>943.86883</ele>
        <time>2015-03-15T09:45:22Z</time>
      </trkpt>
      <trkpt lat="47.99267" lon="7.01398">
        <ele>945.718247</ele>
        <time>2015-03-15T09:45:54Z</time>
      </trkpt>
      <trkpt lat="47.99241" lon="7.01371">
        <ele>947.581106</ele>
        <time>2015-03-15T09:46:30Z</time>
      </trkpt>
      <trkpt lat="47.99233" lon="7.01354">
        <ele>948.517733</ele>
        <time>2015-03-15T09:46:46Z</time>
      </trkpt>
      <trkpt lat="47.99223" lon="7.01339">
        <ele>949.569187</ele>
        <time>2015-03-15T09:47:02Z</time>
      </trkpt>
      <trkpt lat="47.9921" lon="7.01313">
        <ele>950.753835</ele>
        <time>2015-03-15T09:47:26Z</time>
      </trkpt>
      <trkpt lat="47.99192" lon="7.01292">
        <ele>952.558369</ele>
        <time>2015-03-15T09:47:54Z</time>
      </trkpt>
      <trkpt lat="47.99193" lon="7.01289">
        <ele>952.579919</ele>
        <time>2015-03-15T09:48:46Z</time>
      </trkpt>
      <trkpt lat="47.99183" lon="7.01283">
        <ele>953.164511</ele>
        <time>2015-03-15T09:49:02Z</time>
      </trkpt>
      <trkpt lat="47.99177" lon="7.01272">
        <ele>953.958005</ele>
        <time>2015-03-15T09:50:19Z</time>
      </trkpt>
      <trkpt lat="47.99174" lon="7.01274">
        <ele>954.123306</ele>
        <time>2015-03-15T09:50:34Z</time>
      </trkpt>
      <trkpt lat="47.99166" lon="7.01268">
        <ele>954.844376</ele>
        <time>2015-03-15T09:50:46Z</time>
      </trkpt>
      <trkpt lat="47.99163" lon="7.0126">
        <ele>955.538525</ele>
        <time>2015-03-15T09:50:54Z</time>
      </trkpt>
      <trkpt lat="47.99159" lon="7.01257">
        <ele>955.877105</ele>
        <time>2015-03-15T09:50:58Z</time>
      </trkpt>
      <trkpt lat="47.99154" lon="7.01256">
        <ele>956.085358</ele>
        <time>2015-03-15T09:51:02Z</time>
      </trkpt>
      <trkpt lat="47.99151" lon="7.01252">
        <ele>956.389086</ele>
        <time>2015-03-15T09:51:06Z</time>
      </trkpt>
      <trkpt lat="47.99151" lon="7.01245">
        <ele>956.658395</ele>
        <time>2015-03-15T09:51:10Z</time>
      </trkpt>
      <trkpt lat="47.99146" lon="7.0124">
        <ele>957.528236</ele>
        <time>2015-03-15T09:51:18Z</time>
      </trkpt>
      <trkpt lat="47.99132" lon="7.01235">
        <ele>959.265001</ele>
        <time>2015-03-15T09:51:34Z</time>
      </trkpt>
      <trkpt lat="47.99128" lon="7.0123">
        <ele>960.258797</ele>
        <time>2015-03-15T09:51:42Z</time>
      </trkpt>
      <trkpt lat="47.99117" lon="7.01225">
        <ele>962.109885</ele>
        <time>2015-03-15T09:51:58Z</time>
      </trkpt>
      <trkpt lat="47.99106" lon="7.01218">
        <ele>963.536749</ele>
        <time>2015-03-15T09:52:14Z</time>
      </trkpt>
      <trkpt lat="47.99103" lon="7.0121">
        <ele>964.097279</ele>
        <time>2015-03-15T09:52:22Z</time>
      </trkpt>
      <trkpt lat="47.99095" lon="7.01204">
        <ele>965.585879</ele>
        <time>2015-03-15T09:52:38Z</time>
      </trkpt>
      <trkpt lat="47.99093" lon="7.01195">
        <ele>966.582197</ele>
        <time>2015-03-15T09:52:46Z</time>
      </trkpt>
      <trkpt lat="47.99079" lon="7.01181">
        <ele>968.435329</ele>
        <time>2015-03-15T09:53:06Z</time>
      </trkpt>
      <trkpt lat="47.99075" lon="7.01174">
        <ele>969.180673</ele>
        <time>2015-03-15T09:53:14Z</time>
      </trkpt>
      <trkpt lat="47.99064" lon="7.0117">
        <ele>970.947408</ele>
        <time>2015-03-15T09:53:30Z</time>
      </trkpt>
      <trkpt lat="47.99061" lon="7.01166">
        <ele>971.493846</ele>
        <time>2015-03-15T09:53:34Z</time>
      </trkpt>
      <trkpt lat="47.99061" lon="7.0116">
        <ele>971.671557</ele>
        <time>2015-03-15T09:53:38Z</time>
      </trkpt>
      <trkpt lat="47.99031" lon="7.0116">
        <ele>976.034506</ele>
        <time>2015-03-15T09:54:18Z</time>
      </trkpt>
      <trkpt lat="47.99028" lon="7.01157">
        <ele>976.857499</ele>
        <time>2015-03-15T09:54:26Z</time>
      </trkpt>
      <trkpt lat="47.99023" lon="7.0116">
        <ele>977.544941</ele>
        <time>2015-03-15T09:54:34Z</time>
      </trkpt>
      <trkpt lat="47.9902" lon="7.01157">
        <ele>978.393394</ele>
        <time>2015-03-15T09:54:42Z</time>
      </trkpt>
      <trkpt lat="47.99015" lon="7.01157">
        <ele>979.255731</ele>
        <time>2015-03-15T09:54:51Z</time>
      </trkpt>
      <trkpt lat="47.98991" lon="7.01171">
        <ele>983.4021</ele>
        <time>2015-03-15T09:55:33Z</time>
      </trkpt>
      <trkpt lat="47.98989" lon="7.01174">
        <ele>984.320793</ele>
        <time>2015-03-15T09:55:42Z</time>
      </trkpt>
      <trkpt lat="47.98987" lon="7.01171">
        <ele>983.199815</ele>
        <time>2015-03-15T09:57:56Z</time>
      </trkpt>
      <trkpt lat="47.98984" lon="7.01174">
        <ele>983.250056</ele>
        <time>2015-03-15T09:58:06Z</time>
      </trkpt>
      <trkpt lat="47.98981" lon="7.01173">
        <ele>983.728253</ele>
        <time>2015-03-15T09:58:33Z</time>
      </trkpt>
      <trkpt lat="47.98985" lon="7.01173">
        <ele>983.471191</ele>
        <time>2015-03-15T09:58:38Z</time>
      </trkpt>
      <trkpt lat="47.98988" lon="7.01176">
        <ele>983.551125</ele>
        <time>2015-03-15T09:58:42Z</time>
      </trkpt>
      <trkpt lat="47.98993" lon="7.01166">
        <ele>983.414746</ele>
        <time>2015-03-15T09:59:01Z</time>
      </trkpt>
      <trkpt lat="47.98991" lon="7.01164">
        <ele>983.385129</ele>
        <time>2015-03-15T09:59:20Z</time>
      </trkpt>
      <trkpt lat="47.98988" lon="7.01165">
        <ele>984.280435</ele>
        <time>2015-03-15T09:59:40Z</time>
      </trkpt>
      <trkpt lat="47.98988" lon="7.01163">
        <ele>983.501959</ele>
        <time>2015-03-15T09:59:45Z</time>
      </trkpt>
      <trkpt lat="47.9899" lon="7.01164">
        <ele>983.884326</ele>
        <time>2015-03-15T10:01:09Z</time>
      </trkpt>
      <trkpt lat="47.98988" lon="7.01166">
        <ele>984.029891</ele>
        <time>2015-03-15T10:01:17Z</time>
      </trkpt>
      <trkpt lat="47.98991" lon="7.01172">
        <ele>987.300415</ele>
        <time>2015-03-15T10:02:45Z</time>
      </trkpt>
      <trkpt lat="47.98987" lon="7.01177">
        <ele>982.13269</ele>
        <time>2015-03-15T10:03:03Z</time>
      </trkpt>
      <trkpt lat="47.9898" lon="7.01196">
        <ele>985.056396</ele>
        <time>2015-03-15T10:03:19Z</time>
      </trkpt>
      <trkpt lat="47.98965" lon="7.0122">
        <ele>982.500122</ele>
        <time>2015-03-15T10:03:35Z</time>
      </trkpt>
      <trkpt lat="47.98956" lon="7.01238">
        <ele>982.835083</ele>
        <time>2015-03-15T10:03:59Z</time>
      </trkpt>
      <trkpt lat="47.98938" lon="7.01253">
        <ele>985.52063</ele>
        <time>2015-03-15T10:04:15Z</time>
      </trkpt>
      <trkpt lat="47.98926" lon="7.01258">
        <ele>986.638428</ele>
        <time>2015-03-15T10:04:27Z</time>
      </trkpt>
      <trkpt lat="47.98922" lon="7.01256">
        <ele>987.380981</ele>
        <time>2015-03-15T10:04:31Z</time>
      </trkpt>
      <trkpt lat="47.9891" lon="7.01259">
        <ele>992.068359</ele>
        <time>2015-03-15T10:04:39Z</time>
      </trkpt>
      <trkpt lat="47.98901" lon="7.01258">
        <ele>991.482666</ele>
        <time>2015-03-15T10:04:47Z</time>
      </trkpt>
      <trkpt lat="47.98889" lon="7.01248">
        <ele>995.190796</ele>
        <time>2015-03-15T10:05:03Z</time>
      </trkpt>
      <trkpt lat="47.98886" lon="7.01244">
        <ele>997.344604</ele>
        <time>2015-03-15T10:05:07Z</time>
      </trkpt>
      <trkpt lat="47.98883" lon="7.01243">
        <ele>997.875</ele>
        <time>2015-03-15T10:05:11Z</time>
      </trkpt>
      <trkpt lat="47.98867" lon="7.01223">
        <ele>998.911011</ele>
        <time>2015-03-15T10:05:35Z</time>
      </trkpt>
      <trkpt lat="47.9886" lon="7.01222">
        <ele>1000.696655</ele>
        <time>2015-03-15T10:06:45Z</time>
      </trkpt>
      <trkpt lat="47.98857" lon="7.01216">
        <ele>999.86438</ele>
        <time>2015-03-15T10:06:53Z</time>
      </trkpt>
      <trkpt lat="47.98852" lon="7.01216">
        <ele>1000.440796</ele>
        <time>2015-03-15T10:07:01Z</time>
      </trkpt>
      <trkpt lat="47.9885" lon="7.01211">
        <ele>999.2229</ele>
        <time>2015-03-15T10:07:05Z</time>
      </trkpt>
      <trkpt lat="47.98839" lon="7.01211">
        <ele>1001.397583</ele>
        <time>2015-03-15T10:07:15Z</time>
      </trkpt>
      <trkpt lat="47.98839" lon="7.01202">
        <ele>1002.628052</ele>
        <time>2015-03-15T10:07:19Z</time>
      </trkpt>
      <trkpt lat="47.98833" lon="7.01196">
        <ele>1007.049316</ele>
        <time>2015-03-15T10:07:27Z</time>
      </trkpt>
      <trkpt lat="47.98827" lon="7.01194">
        <ele>1011.308472</ele>
        <time>2015-03-15T10:07:35Z</time>
      </trkpt>
      <trkpt lat="47.98823" lon="7.0119">
        <ele>1012.946655</ele>
        <time>2015-03-15T10:07:39Z</time>
      </trkpt>
      <trkpt lat="47.98824" lon="7.01178">
        <ele>1014.120483</ele>
        <time>2015-03-15T10:07:43Z</time>
      </trkpt>
      <trkpt lat="47.98823" lon="7.01174">
        <ele>1013.982178</ele>
        <time>2015-03-15T10:07:47Z</time>
      </trkpt>
      <trkpt lat="47.98812" lon="7.01169">
        <ele>1015.251831</ele>
        <time>2015-03-15T10:07:55Z</time>
      </trkpt>
      <trkpt lat="47.98805" lon="7.01162">
        <ele>1014.120361</ele>
        <time>2015-03-15T10:08:07Z</time>
      </trkpt>
      <trkpt lat="47.98794" lon="7.01164">
        <ele>1014.059692</ele>
        <time>2015-03-15T10:08:15Z</time>
      </trkpt>
      <trkpt lat="47.98791" lon="7.01152">
        <ele>1017.080811</ele>
        <time>2015-03-15T10:08:27Z</time>
      </trkpt>
      <trkpt lat="47.98785" lon="7.01151">
        <ele>1018.18457</ele>
        <time>2015-03-15T10:08:35Z</time>
      </trkpt>
      <trkpt lat="47.98784" lon="7.01142">
        <ele>1017.164673</ele>
        <time>2015-03-15T10:08:43Z</time>
      </trkpt>
      <trkpt lat="47.98786" lon="7.01136">
        <ele>1015.705811</ele>
        <time>2015-03-15T10:08:47Z</time>
      </trkpt>
      <trkpt lat="47.98783" lon="7.01132">
        <ele>1013.090576</ele>
        <time>2015-03-15T10:08:51Z</time>
      </trkpt>
      <trkpt lat="47.98777" lon="7.01108">
        <ele>1017.078247</ele>
        <time>2015-03-15T10:09:07Z</time>
      </trkpt>
      <trkpt lat="47.98778" lon="7.01094">
        <ele>1016.816895</ele>
        <time>2015-03-15T10:09:23Z</time>
      </trkpt>
      <trkpt lat="47.98777" lon="7.01078">
        <ele>1018.45105</ele>
        <time>2015-03-15T10:09:39Z</time>
      </trkpt>
      <trkpt lat="47.98775" lon="7.01072">
        <ele>1019.726318</ele>
        <time>2015-03-15T10:09:43Z</time>
      </trkpt>
      <trkpt lat="47.98776" lon="7.01068">
        <ele>1020.032227</ele>
        <time>2015-03-15T10:09:47Z</time>
      </trkpt>
      <trkpt lat="47.98778" lon="7.01068">
        <ele>1020.008911</ele>
        <time>2015-03-15T10:10:04Z</time>
      </trkpt>
      <trkpt lat="47.98786" lon="7.01052">
        <ele>1021.483643</ele>
        <time>2015-03-15T10:10:16Z</time>
      </trkpt>
      <trkpt lat="47.98786" lon="7.01039">
        <ele>1025.734375</ele>
        <time>2015-03-15T10:10:22Z</time>
      </trkpt>
      <trkpt lat="47.9879" lon="7.01032">
        <ele>1029.299683</ele>
        <time>2015-03-15T10:10:26Z</time>
      </trkpt>
      <trkpt lat="47.98787" lon="7.0102">
        <ele>1026.628296</ele>
        <time>2015-03-15T10:10:34Z</time>
      </trkpt>
      <trkpt lat="47.9879" lon="7.01011">
        <ele>1028.826904</ele>
        <time>2015-03-15T10:10:42Z</time>
      </trkpt>
      <trkpt lat="47.98798" lon="7.00996">
        <ele>1032.647705</ele>
        <time>2015-03-15T10:10:54Z</time>
      </trkpt>
      <trkpt lat="47.98797" lon="7.00991">
        <ele>1033.217651</ele>
        <time>2015-03-15T10:10:58Z</time>
      </trkpt>
      <trkpt lat="47.98798" lon="7.00982">
        <ele>1031.799316</ele>
        <time>2015-03-15T10:11:06Z</time>
      </trkpt>
      <trkpt lat="47.98792" lon="7.00969">
        <ele>1032.793579</ele>
        <time>2015-03-15T10:11:22Z</time>
      </trkpt>
      <trkpt lat="47.98795" lon="7.0094">
        <ele>1037.532349</ele>
        <time>2015-03-15T10:11:46Z</time>
      </trkpt>
      <trkpt lat="47.98791" lon="7.00927">
        <ele>1039.611328</ele>
        <time>2015-03-15T10:11:54Z</time>
      </trkpt>
      <trkpt lat="47.98793" lon="7.00914">
        <ele>1041.816772</ele>
        <time>2015-03-15T10:12:02Z</time>
      </trkpt>
      <trkpt lat="47.98788" lon="7.00879">
        <ele>1051.854248</ele>
        <time>2015-03-15T10:12:22Z</time>
      </trkpt>
      <trkpt lat="47.98796" lon="7.00862">
        <ele>1051.571289</ele>
        <time>2015-03-15T10:12:38Z</time>
      </trkpt>
      <trkpt lat="47.98789" lon="7.00836">
        <ele>1056.746094</ele>
        <time>2015-03-15T10:12:58Z</time>
      </trkpt>
      <trkpt lat="47.98791" lon="7.00833">
        <ele>1056.824097</ele>
        <time>2015-03-15T10:13:02Z</time>
      </trkpt>
      <trkpt lat="47.98789" lon="7.00819">
        <ele>1063.853516</ele>
        <time>2015-03-15T10:13:14Z</time>
      </trkpt>
      <trkpt lat="47.98793" lon="7.00816">
        <ele>1064.94104</ele>
        <time>2015-03-15T10:13:18Z</time>
      </trkpt>
      <trkpt lat="47.98788" lon="7.00785">
        <ele>1058.118286</ele>
        <time>2015-03-15T10:13:50Z</time>
      </trkpt>
      <trkpt lat="47.98788" lon="7.00761">
        <ele>1062.112434</ele>
        <time>2015-03-15T10:14:06Z</time>
      </trkpt>
      <trkpt lat="47.98786" lon="7.00746">
        <ele>1063.494352</ele>
        <time>2015-03-15T10:14:18Z</time>
      </trkpt>
      <trkpt lat="47.98787" lon="7.00743">
        <ele>1064.064044</ele>
        <time>2015-03-15T10:14:22Z</time>
      </trkpt>
      <trkpt lat="47.98789" lon="7.00724">
        <ele>1065.954037</ele>
        <time>2015-03-15T10:14:38Z</time>
      </trkpt>
      <trkpt lat="47.98788" lon="7.00705">
        <ele>1067.971135</ele>
        <time>2015-03-15T10:14:54Z</time>
      </trkpt>
      <trkpt lat="47.98793" lon="7.00686">
        <ele>1069.745845</ele>
        <time>2015-03-15T10:15:10Z</time>
      </trkpt>
      <trkpt lat="47.98791" lon="7.00675">
        <ele>1070.58485</ele>
        <time>2015-03-15T10:15:20Z</time>
      </trkpt>
      <trkpt lat="47.98793" lon="7.00674">
        <ele>1070.765608</ele>
        <time>2015-03-15T10:15:22Z</time>
      </trkpt>
      <trkpt lat="47.98793" lon="7.0067">
        <ele>1071.267536</ele>
        <time>2015-03-15T10:16:14Z</time>
      </trkpt>
      <trkpt lat="47.98796" lon="7.0067">
        <ele>1071.315153</ele>
        <time>2015-03-15T10:16:25Z</time>
      </trkpt>
      <trkpt lat="47.98795" lon="7.00664">
        <ele>1071.969794</ele>
        <time>2015-03-15T10:16:33Z</time>
      </trkpt>
      <trkpt lat="47.98796" lon="7.00663">
        <ele>1072.357013</ele>
        <time>2015-03-15T10:16:35Z</time>
      </trkpt>
      <trkpt lat="47.98791" lon="7.00652">
        <ele>1071.567871</ele>
        <time>2015-03-15T10:16:43Z</time>
      </trkpt>
      <trkpt lat="47.98788" lon="7.00642">
        <ele>1071.608398</ele>
        <time>2015-03-15T10:16:51Z</time>
      </trkpt>
      <trkpt lat="47.98791" lon="7.00638">
        <ele>1074.480465</ele>
        <time>2015-03-15T10:16:55Z</time>
      </trkpt>
      <trkpt lat="47.98787" lon="7.00619">
        <ele>1076.639398</ele>
        <time>2015-03-15T10:17:11Z</time>
      </trkpt>
      <trkpt lat="47.98787" lon="7.00614">
        <ele>1077.199518</ele>
        <time>2015-03-15T10:17:15Z</time>
      </trkpt>
      <trkpt lat="47.98774" lon="7.00572">
        <ele>1077.40332</ele>
        <time>2015-03-15T10:17:55Z</time>
      </trkpt>
      <trkpt lat="47.98766" lon="7.00565">
        <ele>1076.498291</ele>
        <time>2015-03-15T10:18:11Z</time>
      </trkpt>
      <trkpt lat="47.98766" lon="7.00567">
        <ele>1076.132202</ele>
        <time>2015-03-15T10:18:15Z</time>
      </trkpt>
      <trkpt lat="47.98763" lon="7.00566">
        <ele>1074.936768</ele>
        <time>2015-03-15T10:18:19Z</time>
      </trkpt>
      <trkpt lat="47.98762" lon="7.00554">
        <ele>1073.523315</ele>
        <time>2015-03-15T10:18:27Z</time>
      </trkpt>
      <trkpt lat="47.98752" lon="7.00545">
        <ele>1077.477539</ele>
        <time>2015-03-15T10:18:39Z</time>
      </trkpt>
      <trkpt lat="47.98719" lon="7.00496">
        <ele>1090.727173</ele>
        <time>2015-03-15T10:19:31Z</time>
      </trkpt>
      <trkpt lat="47.98717" lon="7.00489">
        <ele>1088.226929</ele>
        <time>2015-03-15T10:19:39Z</time>
      </trkpt>
      <trkpt lat="47.98708" lon="7.0048">
        <ele>1086.139404</ele>
        <time>2015-03-15T10:19:55Z</time>
      </trkpt>
      <trkpt lat="47.98706" lon="7.00475">
        <ele>1085.473267</ele>
        <time>2015-03-15T10:19:59Z</time>
      </trkpt>
      <trkpt lat="47.98703" lon="7.00476">
        <ele>1084.568481</ele>
        <time>2015-03-15T10:20:03Z</time>
      </trkpt>
      <trkpt lat="47.98702" lon="7.00465">
        <ele>1085.88269</ele>
        <time>2015-03-15T10:20:11Z</time>
      </trkpt>
      <trkpt lat="47.98706" lon="7.00453">
        <ele>1083.062866</ele>
        <time>2015-03-15T10:20:27Z</time>
      </trkpt>
      <trkpt lat="47.98698" lon="7.00429">
        <ele>1087.68335</ele>
        <time>2015-03-15T10:20:43Z</time>
      </trkpt>
      <trkpt lat="47.98691" lon="7.00416">
        <ele>1087.549683</ele>
        <time>2015-03-15T10:20:55Z</time>
      </trkpt>
      <trkpt lat="47.9869" lon="7.00411">
        <ele>1087.769409</ele>
        <time>2015-03-15T10:20:59Z</time>
      </trkpt>
      <trkpt lat="47.98688" lon="7.00408">
        <ele>1088.631592</ele>
        <time>2015-03-15T10:21:03Z</time>
      </trkpt>
      <trkpt lat="47.98686" lon="7.00402">
        <ele>1089.483154</ele>
        <time>2015-03-15T10:21:07Z</time>
      </trkpt>
      <trkpt lat="47.98683" lon="7.004">
        <ele>1087.652832</ele>
        <time>2015-03-15T10:21:24Z</time>
      </trkpt>
      <trkpt lat="47.98679" lon="7.0039">
        <ele>1091.802612</ele>
        <time>2015-03-15T10:21:32Z</time>
      </trkpt>
      <trkpt lat="47.98679" lon="7.00386">
        <ele>1092.65979</ele>
        <time>2015-03-15T10:21:40Z</time>
      </trkpt>
      <trkpt lat="47.98673" lon="7.00363">
        <ele>1095.709595</ele>
        <time>2015-03-15T10:21:56Z</time>
      </trkpt>
      <trkpt lat="47.98666" lon="7.00345">
        <ele>1097.302612</ele>
        <time>2015-03-15T10:22:08Z</time>
      </trkpt>
      <trkpt lat="47.98666" lon="7.00342">
        <ele>1094.674438</ele>
        <time>2015-03-15T10:22:12Z</time>
      </trkpt>
      <trkpt lat="47.98656" lon="7.00327">
        <ele>1096.882202</ele>
        <time>2015-03-15T10:22:28Z</time>
      </trkpt>
      <trkpt lat="47.98646" lon="7.00305">
        <ele>1105.618896</ele>
        <time>2015-03-15T10:24:47Z</time>
      </trkpt>
      <trkpt lat="47.98647" lon="7.00303">
        <ele>1106.260498</ele>
        <time>2015-03-15T10:27:51Z</time>
      </trkpt>
      <trkpt lat="47.98649" lon="7.00302">
        <ele>1105.681396</ele>
        <time>2015-03-15T10:28:31Z</time>
      </trkpt>
      <trkpt lat="47.98645" lon="7.00286">
        <ele>1103.998779</ele>
        <time>2015-03-15T10:29:28Z</time>
      </trkpt>
      <trkpt lat="47.98644" lon="7.00283">
        <ele>1107.422241</ele>
        <time>2015-03-15T10:29:32Z</time>
      </trkpt>
      <trkpt lat="47.98644" lon="7.00264">
        <ele>1111.804077</ele>
        <time>2015-03-15T10:30:04Z</time>
      </trkpt>
      <trkpt lat="47.9864" lon="7.00258">
        <ele>1111.368652</ele>
        <time>2015-03-15T10:30:20Z</time>
      </trkpt>
      <trkpt lat="47.98639" lon="7.00247">
        <ele>1110.158691</ele>
        <time>2015-03-15T10:30:28Z</time>
      </trkpt>
      <trkpt lat="47.98637" lon="7.00244">
        <ele>1109.667603</ele>
        <time>2015-03-15T10:30:32Z</time>
      </trkpt>
      <trkpt lat="47.98637" lon="7.00239">
        <ele>1110.368164</ele>
        <time>2015-03-15T10:30:36Z</time>
      </trkpt>
      <trkpt lat="47.98639" lon="7.00238">
        <ele>1110.08374</ele>
        <time>2015-03-15T10:30:40Z</time>
      </trkpt>
      <trkpt lat="47.98638" lon="7.00234">
        <ele>1111.580566</ele>
        <time>2015-03-15T10:30:48Z</time>
      </trkpt>
      <trkpt lat="47.98628" lon="7.00228">
        <ele>1114.532227</ele>
        <time>2015-03-15T10:31:04Z</time>
      </trkpt>
      <trkpt lat="47.98624" lon="7.0022">
        <ele>1115.400879</ele>
        <time>2015-03-15T10:31:12Z</time>
      </trkpt>
      <trkpt lat="47.98619" lon="7.00218">
        <ele>1116.635254</ele>
        <time>2015-03-15T10:31:20Z</time>
      </trkpt>
      <trkpt lat="47.98613" lon="7.00205">
        <ele>1120.186035</ele>
        <time>2015-03-15T10:31:36Z</time>
      </trkpt>
      <trkpt lat="47.98608" lon="7.002">
        <ele>1120.370728</ele>
        <time>2015-03-15T10:31:44Z</time>
      </trkpt>
      <trkpt lat="47.98606" lon="7.00192">
        <ele>1120.520752</ele>
        <time>2015-03-15T10:31:52Z</time>
      </trkpt>
      <trkpt lat="47.98596" lon="7.00182">
        <ele>1123.564941</ele>
        <time>2015-03-15T10:32:08Z</time>
      </trkpt>
      <trkpt lat="47.98588" lon="7.0018">
        <ele>1130.255859</ele>
        <time>2015-03-15T10:32:16Z</time>
      </trkpt>
      <trkpt lat="47.98579" lon="7.00172">
        <ele>1128.947632</ele>
        <time>2015-03-15T10:32:32Z</time>
      </trkpt>
      <trkpt lat="47.98536" lon="7.00163">
        <ele>1136.958984</ele>
        <time>2015-03-15T10:33:24Z</time>
      </trkpt>
      <trkpt lat="47.98529" lon="7.00166">
        <ele>1139.706787</ele>
        <time>2015-03-15T10:33:32Z</time>
      </trkpt>
      <trkpt lat="47.98519" lon="7.00165">
        <ele>1141.793091</ele>
        <time>2015-03-15T10:33:48Z</time>
      </trkpt>
      <trkpt lat="47.98504" lon="7.0017">
        <ele>1140.011841</ele>
        <time>2015-03-15T10:34:12Z</time>
      </trkpt>
      <trkpt lat="47.98492" lon="7.00166">
        <ele>1144.162354</ele>
        <time>2015-03-15T10:34:28Z</time>
      </trkpt>
      <trkpt lat="47.98486" lon="7.00168">
        <ele>1143.225342</ele>
        <time>2015-03-15T10:34:36Z</time>
      </trkpt>
      <trkpt lat="47.98471" lon="7.00165">
        <ele>1144.095947</ele>
        <time>2015-03-15T10:35:00Z</time>
      </trkpt>
      <trkpt lat="47.9846" lon="7.00157">
        <ele>1149.116333</ele>
        <time>2015-03-15T10:35:16Z</time>
      </trkpt>
      <trkpt lat="47.98446" lon="7.00124">
        <ele>1152.237305</ele>
        <time>2015-03-15T10:35:56Z</time>
      </trkpt>
      <trkpt lat="47.98441" lon="7.00097">
        <ele>1156.060181</ele>
        <time>2015-03-15T10:36:20Z</time>
      </trkpt>
      <trkpt lat="47.98441" lon="7.0009">
        <ele>1156.701172</ele>
        <time>2015-03-15T10:36:28Z</time>
      </trkpt>
      <trkpt lat="47.98436" lon="7.0008">
        <ele>1159.275269</ele>
        <time>2015-03-15T10:36:40Z</time>
      </trkpt>
      <trkpt lat="47.98436" lon="7.00071">
        <ele>1156.230103</ele>
        <time>2015-03-15T10:36:48Z</time>
      </trkpt>
      <trkpt lat="47.98432" lon="7.00063">
        <ele>1157.518066</ele>
        <time>2015-03-15T10:36:56Z</time>
      </trkpt>
      <trkpt lat="47.98425" lon="7.00028">
        <ele>1161.617432</ele>
        <time>2015-03-15T10:37:28Z</time>
      </trkpt>
      <trkpt lat="47.98406" lon="6.99979">
        <ele>1165.31897</ele>
        <time>2015-03-15T10:38:24Z</time>
      </trkpt>
      <trkpt lat="47.98404" lon="6.99956">
        <ele>1166.370239</ele>
        <time>2015-03-15T10:38:40Z</time>
      </trkpt>
      <trkpt lat="47.98398" lon="6.99941">
        <ele>1167.909668</ele>
        <time>2015-03-15T10:38:56Z</time>
      </trkpt>
      <trkpt lat="47.98395" lon="6.99928">
        <ele>1168.650879</ele>
        <time>2015-03-15T10:39:12Z</time>
      </trkpt>
      <trkpt lat="47.98394" lon="6.99906">
        <ele>1170.665649</ele>
        <time>2015-03-15T10:39:28Z</time>
      </trkpt>
      <trkpt lat="47.98396" lon="6.99899">
        <ele>1171.055908</ele>
        <time>2015-03-15T10:39:36Z</time>
      </trkpt>
      <trkpt lat="47.98391" lon="6.9988">
        <ele>1171.863281</ele>
        <time>2015-03-15T10:39:52Z</time>
      </trkpt>
      <trkpt lat="47.98384" lon="6.99864">
        <ele>1173.540405</ele>
        <time>2015-03-15T10:40:08Z</time>
      </trkpt>
      <trkpt lat="47.98382" lon="6.99843">
        <ele>1180.334961</ele>
        <time>2015-03-15T10:40:24Z</time>
      </trkpt>
      <trkpt lat="47.98376" lon="6.99829">
        <ele>1183.253052</ele>
        <time>2015-03-15T10:40:32Z</time>
      </trkpt>
      <trkpt lat="47.98377" lon="6.99825">
        <ele>1183.81189</ele>
        <time>2015-03-15T10:40:36Z</time>
      </trkpt>
      <trkpt lat="47.98371" lon="6.99814">
        <ele>1178.03064</ele>
        <time>2015-03-15T10:40:44Z</time>
      </trkpt>
      <trkpt lat="47.98371" lon="6.99807">
        <ele>1179.421631</ele>
        <time>2015-03-15T10:40:52Z</time>
      </trkpt>
      <trkpt lat="47.98359" lon="6.99783">
        <ele>1175.333618</ele>
        <time>2015-03-15T10:41:08Z</time>
      </trkpt>
      <trkpt lat="47.98355" lon="6.99777">
        <ele>1175.352661</ele>
        <time>2015-03-15T10:41:12Z</time>
      </trkpt>
      <trkpt lat="47.98356" lon="6.99763">
        <ele>1174.654541</ele>
        <time>2015-03-15T10:41:24Z</time>
      </trkpt>
      <trkpt lat="47.9836" lon="6.99757">
        <ele>1174.949585</ele>
        <time>2015-03-15T10:41:32Z</time>
      </trkpt>
      <trkpt lat="47.98361" lon="6.9974">
        <ele>1179.50647</ele>
        <time>2015-03-15T10:41:48Z</time>
      </trkpt>
      <trkpt lat="47.98359" lon="6.99709">
        <ele>1185.142456</ele>
        <time>2015-03-15T10:42:23Z</time>
      </trkpt>
      <trkpt lat="47.9836" lon="6.9971">
        <ele>1183.916382</ele>
        <time>2015-03-15T10:43:03Z</time>
      </trkpt>
      <trkpt lat="47.9836" lon="6.99707">
        <ele>1182.430298</ele>
        <time>2015-03-15T10:43:30Z</time>
      </trkpt>
      <trkpt lat="47.98362" lon="6.99707">
        <ele>1181.830811</ele>
        <time>2015-03-15T10:46:17Z</time>
      </trkpt>
      <trkpt lat="47.98358" lon="6.99693">
        <ele>1186.178711</ele>
        <time>2015-03-15T10:46:52Z</time>
      </trkpt>
      <trkpt lat="47.98348" lon="6.99673">
        <ele>1186.315552</ele>
        <time>2015-03-15T10:47:16Z</time>
      </trkpt>
      <trkpt lat="47.98325" lon="6.99633">
        <ele>1188.441528</ele>
        <time>2015-03-15T10:47:48Z</time>
      </trkpt>
      <trkpt lat="47.98323" lon="6.99623">
        <ele>1187.004883</ele>
        <time>2015-03-15T10:47:56Z</time>
      </trkpt>
      <trkpt lat="47.98318" lon="6.99613">
        <ele>1188.452881</ele>
        <time>2015-03-15T10:48:04Z</time>
      </trkpt>
      <trkpt lat="47.98294" lon="6.99596">
        <ele>1186.315918</ele>
        <time>2015-03-15T10:48:29Z</time>
      </trkpt>
      <trkpt lat="47.98286" lon="6.99593">
        <ele>1185.239014</ele>
        <time>2015-03-15T10:48:37Z</time>
      </trkpt>
      <trkpt lat="47.98255" lon="6.99553">
        <ele>1184.251099</ele>
        <time>2015-03-15T10:49:09Z</time>
      </trkpt>
      <trkpt lat="47.9822" lon="6.99525">
        <ele>1190.889282</ele>
        <time>2015-03-15T10:49:41Z</time>
      </trkpt>
      <trkpt lat="47.98213" lon="6.99517">
        <ele>1191.19104</ele>
        <time>2015-03-15T10:49:49Z</time>
      </trkpt>
      <trkpt lat="47.982" lon="6.99497">
        <ele>1193.718628</ele>
        <time>2015-03-15T10:50:05Z</time>
      </trkpt>
      <trkpt lat="47.98169" lon="6.99462">
        <ele>1189.774658</ele>
        <time>2015-03-15T10:50:37Z</time>
      </trkpt>
      <trkpt lat="47.98164" lon="6.99454">
        <ele>1191.583496</ele>
        <time>2015-03-15T10:50:45Z</time>
      </trkpt>
      <trkpt lat="47.98155" lon="6.99448">
        <ele>1187.422241</ele>
        <time>2015-03-15T10:51:41Z</time>
      </trkpt>
      <trkpt lat="47.98151" lon="6.99452">
        <ele>1184.802124</ele>
        <time>2015-03-15T10:52:45Z</time>
      </trkpt>
      <trkpt lat="47.98147" lon="6.99448">
        <ele>1183.008667</ele>
        <time>2015-03-15T10:52:53Z</time>
      </trkpt>
      <trkpt lat="47.98142" lon="6.99437">
        <ele>1183.963867</ele>
        <time>2015-03-15T10:53:01Z</time>
      </trkpt>
      <trkpt lat="47.98137" lon="6.99432">
        <ele>1184.880737</ele>
        <time>2015-03-15T10:53:05Z</time>
      </trkpt>
      <trkpt lat="47.98126" lon="6.99399">
        <ele>1184.171631</ele>
        <time>2015-03-15T10:53:25Z</time>
      </trkpt>
      <trkpt lat="47.98119" lon="6.99397">
        <ele>1183.493042</ele>
        <time>2015-03-15T10:53:33Z</time>
      </trkpt>
      <trkpt lat="47.9811" lon="6.99389">
        <ele>1183.283325</ele>
        <time>2015-03-15T10:53:42Z</time>
      </trkpt>
      <trkpt lat="47.98099" lon="6.9936">
        <ele>1186.449219</ele>
        <time>2015-03-15T10:53:58Z</time>
      </trkpt>
      <trkpt lat="47.98086" lon="6.99335">
        <ele>1189.048096</ele>
        <time>2015-03-15T10:54:15Z</time>
      </trkpt>
      <trkpt lat="47.98076" lon="6.99312">
        <ele>1189.525146</ele>
        <time>2015-03-15T10:54:31Z</time>
      </trkpt>
      <trkpt lat="47.98077" lon="6.99297">
        <ele>1188.469116</ele>
        <time>2015-03-15T10:54:39Z</time>
      </trkpt>
      <trkpt lat="47.98075" lon="6.99289">
        <ele>1187.048706</ele>
        <time>2015-03-15T10:54:43Z</time>
      </trkpt>
      <trkpt lat="47.98077" lon="6.99283">
        <ele>1185.816406</ele>
        <time>2015-03-15T10:54:47Z</time>
      </trkpt>
      <trkpt lat="47.98076" lon="6.99267">
        <ele>1185.264282</ele>
        <time>2015-03-15T10:55:06Z</time>
      </trkpt>
      <trkpt lat="47.98078" lon="6.99262">
        <ele>1185.375</ele>
        <time>2015-03-15T10:55:10Z</time>
      </trkpt>
      <trkpt lat="47.98078" lon="6.99258">
        <ele>1185.549194</ele>
        <time>2015-03-15T10:55:15Z</time>
      </trkpt>
      <trkpt lat="47.98071" lon="6.99249">
        <ele>1183.166748</ele>
        <time>2015-03-15T10:55:27Z</time>
      </trkpt>
      <trkpt lat="47.98071" lon="6.99245">
        <ele>1183.801636</ele>
        <time>2015-03-15T10:55:32Z</time>
      </trkpt>
      <trkpt lat="47.98063" lon="6.99233">
        <ele>1182.616943</ele>
        <time>2015-03-15T10:55:48Z</time>
      </trkpt>
      <trkpt lat="47.98035" lon="6.992">
        <ele>1182.797119</ele>
        <time>2015-03-15T10:56:20Z</time>
      </trkpt>
      <trkpt lat="47.98028" lon="6.99185">
        <ele>1183.544678</ele>
        <time>2015-03-15T10:56:28Z</time>
      </trkpt>
      <trkpt lat="47.98021" lon="6.9918">
        <ele>1184.497192</ele>
        <time>2015-03-15T10:56:36Z</time>
      </trkpt>
      <trkpt lat="47.98006" lon="6.99157">
        <ele>1189.970825</ele>
        <time>2015-03-15T10:56:52Z</time>
      </trkpt>
      <trkpt lat="47.98004" lon="6.99147">
        <ele>1190.794312</ele>
        <time>2015-03-15T10:57:16Z</time>
      </trkpt>
      <trkpt lat="47.98005" lon="6.99147">
        <ele>1190.11084</ele>
        <time>2015-03-15T10:57:28Z</time>
      </trkpt>
      <trkpt lat="47.97994" lon="6.99124">
        <ele>1190.919312</ele>
        <time>2015-03-15T10:58:08Z</time>
      </trkpt>
      <trkpt lat="47.97993" lon="6.99117">
        <ele>1193.023193</ele>
        <time>2015-03-15T10:58:12Z</time>
      </trkpt>
      <trkpt lat="47.97983" lon="6.99099">
        <ele>1195.896851</ele>
        <time>2015-03-15T10:58:28Z</time>
      </trkpt>
      <trkpt lat="47.97973" lon="6.99063">
        <ele>1189.261108</ele>
        <time>2015-03-15T10:58:52Z</time>
      </trkpt>
      <trkpt lat="47.9796" lon="6.99047">
        <ele>1187.416138</ele>
        <time>2015-03-15T10:59:08Z</time>
      </trkpt>
      <trkpt lat="47.97947" lon="6.99021">
        <ele>1187.061401</ele>
        <time>2015-03-15T10:59:24Z</time>
      </trkpt>
      <trkpt lat="47.97927" lon="6.98998">
        <ele>1186.949829</ele>
        <time>2015-03-15T10:59:48Z</time>
      </trkpt>
      <trkpt lat="47.97906" lon="6.98982">
        <ele>1187.399048</ele>
        <time>2015-03-15T11:00:08Z</time>
      </trkpt>
      <trkpt lat="47.97901" lon="6.98974">
        <ele>1186.308228</ele>
        <time>2015-03-15T11:00:16Z</time>
      </trkpt>
      <trkpt lat="47.97893" lon="6.98968">
        <ele>1183.98645</ele>
        <time>2015-03-15T11:00:26Z</time>
      </trkpt>
      <trkpt lat="47.97879" lon="6.98961">
        <ele>1181.391113</ele>
        <time>2015-03-15T11:00:42Z</time>
      </trkpt>
      <trkpt lat="47.97872" lon="6.98951">
        <ele>1183.695679</ele>
        <time>2015-03-15T11:00:50Z</time>
      </trkpt>
      <trkpt lat="47.97863" lon="6.98946">
        <ele>1184.457642</ele>
        <time>2015-03-15T11:00:59Z</time>
      </trkpt>
      <trkpt lat="47.97856" lon="6.98937">
        <ele>1186.599487</ele>
        <time>2015-03-15T11:01:10Z</time>
      </trkpt>
      <trkpt lat="47.97856" lon="6.98932">
        <ele>1187.206055</ele>
        <time>2015-03-15T11:02:01Z</time>
      </trkpt>
      <trkpt lat="47.97854" lon="6.98932">
        <ele>1187.634644</ele>
        <time>2015-03-15T11:02:21Z</time>
      </trkpt>
      <trkpt lat="47.97854" lon="6.98935">
        <ele>1188.409058</ele>
        <time>2015-03-15T11:02:43Z</time>
      </trkpt>
      <trkpt lat="47.97855" lon="6.98933">
        <ele>1188.678345</ele>
        <time>2015-03-15T11:03:04Z</time>
      </trkpt>
      <trkpt lat="47.97848" lon="6.98926">
        <ele>1188.907715</ele>
        <time>2015-03-15T11:03:20Z</time>
      </trkpt>
      <trkpt lat="47.9785" lon="6.98917">
        <ele>1182.308228</ele>
        <time>2015-03-15T11:03:28Z</time>
      </trkpt>
      <trkpt lat="47.97846" lon="6.98901">
        <ele>1182.23999</ele>
        <time>2015-03-15T11:03:40Z</time>
      </trkpt>
      <trkpt lat="47.97855" lon="6.98892">
        <ele>1180.286133</ele>
        <time>2015-03-15T11:03:48Z</time>
      </trkpt>
      <trkpt lat="47.97856" lon="6.98886">
        <ele>1181.797852</ele>
        <time>2015-03-15T11:03:52Z</time>
      </trkpt>
      <trkpt lat="47.9787" lon="6.98868">
        <ele>1180.349976</ele>
        <time>2015-03-15T11:04:12Z</time>
      </trkpt>
      <trkpt lat="47.97875" lon="6.98854">
        <ele>1180.000732</ele>
        <time>2015-03-15T11:04:24Z</time>
      </trkpt>
      <trkpt lat="47.97879" lon="6.98854">
        <ele>1180.732422</ele>
        <time>2015-03-15T11:04:28Z</time>
      </trkpt>
      <trkpt lat="47.97884" lon="6.98846">
        <ele>1181.156982</ele>
        <time>2015-03-15T11:04:36Z</time>
      </trkpt>
      <trkpt lat="47.97888" lon="6.9883">
        <ele>1182.471558</ele>
        <time>2015-03-15T11:04:48Z</time>
      </trkpt>
      <trkpt lat="47.97896" lon="6.98825">
        <ele>1179.724365</ele>
        <time>2015-03-15T11:04:56Z</time>
      </trkpt>
      <trkpt lat="47.979" lon="6.98819">
        <ele>1180.156372</ele>
        <time>2015-03-15T11:05:04Z</time>
      </trkpt>
      <trkpt lat="47.97902" lon="6.98812">
        <ele>1180.828735</ele>
        <time>2015-03-15T11:05:12Z</time>
      </trkpt>
      <trkpt lat="47.97908" lon="6.98803">
        <ele>1180.990601</ele>
        <time>2015-03-15T11:05:20Z</time>
      </trkpt>
      <trkpt lat="47.97915" lon="6.98782">
        <ele>1176.570435</ele>
        <time>2015-03-15T11:05:36Z</time>
      </trkpt>
      <trkpt lat="47.9792" lon="6.98777">
        <ele>1197.514748</ele>
        <time>2015-03-15T11:05:44Z</time>
      </trkpt>
      <trkpt lat="47.97925" lon="6.98766">
        <ele>1198.515972</ele>
        <time>2015-03-15T11:06:01Z</time>
      </trkpt>
      <trkpt lat="47.97928" lon="6.98763">
        <ele>1193.708607</ele>
        <time>2015-03-15T11:06:17Z</time>
      </trkpt>
      <trkpt lat="47.97928" lon="6.98755">
        <ele>1199.090605</ele>
        <time>2015-03-15T11:06:31Z</time>
      </trkpt>
      <trkpt lat="47.97926" lon="6.98758">
        <ele>1180.879639</ele>
        <time>2015-03-15T11:09:19Z</time>
      </trkpt>
      <trkpt lat="47.97928" lon="6.98757">
        <ele>1181.76001</ele>
        <time>2015-03-15T11:10:44Z</time>
      </trkpt>
      <trkpt lat="47.97937" lon="6.9874">
        <ele>1189.166077</ele>
        <time>2015-03-15T11:11:24Z</time>
      </trkpt>
      <trkpt lat="47.9797" lon="6.98705">
        <ele>1186.169029</ele>
        <time>2015-03-15T11:11:56Z</time>
      </trkpt>
      <trkpt lat="47.97997" lon="6.98671">
        <ele>1189.175293</ele>
        <time>2015-03-15T11:12:28Z</time>
      </trkpt>
      <trkpt lat="47.98014" lon="6.98656">
        <ele>1190.682007</ele>
        <time>2015-03-15T11:12:44Z</time>
      </trkpt>
      <trkpt lat="47.98029" lon="6.9864">
        <ele>1191.867554</ele>
        <time>2015-03-15T11:13:00Z</time>
      </trkpt>
      <trkpt lat="47.98045" lon="6.98627">
        <ele>1194.678955</ele>
        <time>2015-03-15T11:13:16Z</time>
      </trkpt>
      <trkpt lat="47.98067" lon="6.98614">
        <ele>1193.756714</ele>
        <time>2015-03-15T11:13:48Z</time>
      </trkpt>
      <trkpt lat="47.98072" lon="6.98613">
        <ele>1192.446533</ele>
        <time>2015-03-15T11:13:56Z</time>
      </trkpt>
      <trkpt lat="47.98087" lon="6.98585">
        <ele>1192.814355</ele>
        <time>2015-03-15T11:14:20Z</time>
      </trkpt>
      <trkpt lat="47.98097" lon="6.98575">
        <ele>1194.626357</ele>
        <time>2015-03-15T11:14:32Z</time>
      </trkpt>
      <trkpt lat="47.98103" lon="6.98573">
        <ele>1195.414437</ele>
        <time>2015-03-15T11:14:36Z</time>
      </trkpt>
      <trkpt lat="47.98113" lon="6.98577">
        <ele>1196.275638</ele>
        <time>2015-03-15T11:14:44Z</time>
      </trkpt>
      <trkpt lat="47.98122" lon="6.98559">
        <ele>1197.50354</ele>
        <time>2015-03-15T11:15:04Z</time>
      </trkpt>
      <trkpt lat="47.98137" lon="6.98548">
        <ele>1198.188599</ele>
        <time>2015-03-15T11:15:20Z</time>
      </trkpt>
      <trkpt lat="47.98151" lon="6.98526">
        <ele>1201.825562</ele>
        <time>2015-03-15T11:15:36Z</time>
      </trkpt>
      <trkpt lat="47.98157" lon="6.98506">
        <ele>1203.761038</ele>
        <time>2015-03-15T11:15:52Z</time>
      </trkpt>
      <trkpt lat="47.98168" lon="6.98486">
        <ele>1207.715848</ele>
        <time>2015-03-15T11:16:43Z</time>
      </trkpt>
      <trkpt lat="47.98177" lon="6.98475">
        <ele>1209.265427</ele>
        <time>2015-03-15T11:17:08Z</time>
      </trkpt>
      <trkpt lat="47.98197" lon="6.98438">
        <ele>1218.361816</ele>
        <time>2015-03-15T11:17:40Z</time>
      </trkpt>
      <trkpt lat="47.9821" lon="6.98423">
        <ele>1220.592773</ele>
        <time>2015-03-15T11:17:56Z</time>
      </trkpt>
      <trkpt lat="47.98221" lon="6.98405">
        <ele>1222.104126</ele>
        <time>2015-03-15T11:18:12Z</time>
      </trkpt>
      <trkpt lat="47.98234" lon="6.9839">
        <ele>1220.998535</ele>
        <time>2015-03-15T11:18:28Z</time>
      </trkpt>
      <trkpt lat="47.98235" lon="6.98387">
        <ele>1220.092407</ele>
        <time>2015-03-15T11:18:44Z</time>
      </trkpt>
      <trkpt lat="47.98248" lon="6.9838">
        <ele>1217.30127</ele>
        <time>2015-03-15T11:19:00Z</time>
      </trkpt>
      <trkpt lat="47.98255" lon="6.98373">
        <ele>1218.671753</ele>
        <time>2015-03-15T11:19:08Z</time>
      </trkpt>
      <trkpt lat="47.98265" lon="6.98355">
        <ele>1222.584717</ele>
        <time>2015-03-15T11:19:24Z</time>
      </trkpt>
      <trkpt lat="47.98281" lon="6.98337">
        <ele>1225.234741</ele>
        <time>2015-03-15T11:19:40Z</time>
      </trkpt>
      <trkpt lat="47.9829" lon="6.98334">
        <ele>1223.977905</ele>
        <time>2015-03-15T11:19:48Z</time>
      </trkpt>
      <trkpt lat="47.98327" lon="6.9833">
        <ele>1229.551268</ele>
        <time>2015-03-15T11:20:20Z</time>
      </trkpt>
      <trkpt lat="47.98355" lon="6.9831">
        <ele>1235.577026</ele>
        <time>2015-03-15T11:20:52Z</time>
      </trkpt>
      <trkpt lat="47.98365" lon="6.98274">
        <ele>1233.45451</ele>
        <time>2015-03-15T11:21:20Z</time>
      </trkpt>
      <trkpt lat="47.98364" lon="6.98267">
        <ele>1233.634074</ele>
        <time>2015-03-15T11:21:41Z</time>
      </trkpt>
      <trkpt lat="47.98364" lon="6.98262">
        <ele>1233.7744</ele>
        <time>2015-03-15T11:22:02Z</time>
      </trkpt>
      <trkpt lat="47.98367" lon="6.98261">
        <ele>1233.161958</ele>
        <time>2015-03-15T11:22:14Z</time>
      </trkpt>
      <trkpt lat="47.98367" lon="6.98251">
        <ele>1233.117876</ele>
        <time>2015-03-15T11:22:27Z</time>
      </trkpt>
      <trkpt lat="47.9836" lon="6.98259">
        <ele>1232.834256</ele>
        <time>2015-03-15T11:22:31Z</time>
      </trkpt>
      <trkpt lat="47.98355" lon="6.98262">
        <ele>1233.011662</ele>
        <time>2015-03-15T11:22:35Z</time>
      </trkpt>
      <trkpt lat="47.98359" lon="6.98277">
        <ele>1233.38028</ele>
        <time>2015-03-15T11:22:55Z</time>
      </trkpt>
      <trkpt lat="47.98363" lon="6.98277">
        <ele>1233.064217</ele>
        <time>2015-03-15T11:22:57Z</time>
      </trkpt>
      <trkpt lat="47.98365" lon="6.98275">
        <ele>1233.381398</ele>
        <time>2015-03-15T11:22:59Z</time>
      </trkpt>
      <trkpt lat="47.98365" lon="6.9827">
        <ele>1235.811768</ele>
        <time>2015-03-15T11:23:07Z</time>
      </trkpt>
      <trkpt lat="47.98363" lon="6.98273">
        <ele>1233.828491</ele>
        <time>2015-03-15T11:23:11Z</time>
      </trkpt>
      <trkpt lat="47.98364" lon="6.98267">
        <ele>1230.747803</ele>
        <time>2015-03-15T11:23:28Z</time>
      </trkpt>
      <trkpt lat="47.9836" lon="6.98263">
        <ele>1230.290283</ele>
        <time>2015-03-15T11:23:51Z</time>
      </trkpt>
      <trkpt lat="47.98359" lon="6.98268">
        <ele>1231.014648</ele>
        <time>2015-03-15T11:24:32Z</time>
      </trkpt>
      <trkpt lat="47.98364" lon="6.98274">
        <ele>1233.097534</ele>
        <time>2015-03-15T11:25:03Z</time>
      </trkpt>
      <trkpt lat="47.9837" lon="6.98268">
        <ele>1233.781006</ele>
        <time>2015-03-15T11:25:11Z</time>
      </trkpt>
      <trkpt lat="47.98374" lon="6.9826">
        <ele>1234.849243</ele>
        <time>2015-03-15T11:25:27Z</time>
      </trkpt>
      <trkpt lat="47.98371" lon="6.98266">
        <ele>1234.302856</ele>
        <time>2015-03-15T11:25:35Z</time>
      </trkpt>
      <trkpt lat="47.98367" lon="6.98267">
        <ele>1233.529175</ele>
        <time>2015-03-15T11:25:39Z</time>
      </trkpt>
      <trkpt lat="47.98359" lon="6.98264">
        <ele>1234.122803</ele>
        <time>2015-03-15T11:26:03Z</time>
      </trkpt>
      <trkpt lat="47.98358" lon="6.9827">
        <ele>1233.544067</ele>
        <time>2015-03-15T11:26:11Z</time>
      </trkpt>
      <trkpt lat="47.98368" lon="6.98265">
        <ele>1234.401245</ele>
        <time>2015-03-15T11:26:31Z</time>
      </trkpt>
      <trkpt lat="47.98365" lon="6.98269">
        <ele>1235.355103</ele>
        <time>2015-03-15T11:27:08Z</time>
      </trkpt>
      <trkpt lat="47.98366" lon="6.98272">
        <ele>1235.963501</ele>
        <time>2015-03-15T11:27:16Z</time>
      </trkpt>
      <trkpt lat="47.98363" lon="6.98274">
        <ele>1237.041992</ele>
        <time>2015-03-15T11:27:20Z</time>
      </trkpt>
      <trkpt lat="47.98376" lon="6.98277">
        <ele>1232.495605</ele>
        <time>2015-03-15T11:27:47Z</time>
      </trkpt>
      <trkpt lat="47.98375" lon="6.98274">
        <ele>1231.036499</ele>
        <time>2015-03-15T11:27:51Z</time>
      </trkpt>
      <trkpt lat="47.98368" lon="6.98273">
        <ele>1223.979736</ele>
        <time>2015-03-15T11:27:59Z</time>
      </trkpt>
      <trkpt lat="47.98369" lon="6.98263">
        <ele>1227.286621</ele>
        <time>2015-03-15T11:28:58Z</time>
      </trkpt>
      <trkpt lat="47.98367" lon="6.98267">
        <ele>1229.348022</ele>
        <time>2015-03-15T11:29:28Z</time>
      </trkpt>
      <trkpt lat="47.98365" lon="6.98265">
        <ele>1228.525024</ele>
        <time>2015-03-15T11:29:45Z</time>
      </trkpt>
      <trkpt lat="47.98367" lon="6.9826">
        <ele>1227.450195</ele>
        <time>2015-03-15T11:30:01Z</time>
      </trkpt>
      <trkpt lat="47.98365" lon="6.9826">
        <ele>1227.125732</ele>
        <time>2015-03-15T11:30:03Z</time>
      </trkpt>
      <trkpt lat="47.98364" lon="6.98263">
        <ele>1229.235962</ele>
        <time>2015-03-15T11:43:40Z</time>
      </trkpt>
      <trkpt lat="47.98364" lon="6.98259">
        <ele>1227.338989</ele>
        <time>2015-03-15T11:46:00Z</time>
      </trkpt>
      <trkpt lat="47.98362" lon="6.98255">
        <ele>1233.640195</ele>
        <time>2015-03-15T11:46:08Z</time>
      </trkpt>
      <trkpt lat="47.98361" lon="6.98257">
        <ele>1226.300415</ele>
        <time>2015-03-15T11:46:51Z</time>
      </trkpt>
      <trkpt lat="47.98362" lon="6.98258">
        <ele>1229.438721</ele>
        <time>2015-03-15T11:47:08Z</time>
      </trkpt>
      <trkpt lat="47.98363" lon="6.98252">
        <ele>1226.55188</ele>
        <time>2015-03-15T11:47:16Z</time>
      </trkpt>
      <trkpt lat="47.98364" lon="6.98251">
        <ele>1225.770142</ele>
        <time>2015-03-15T11:52:31Z</time>
      </trkpt>
      <trkpt lat="47.98369" lon="6.98273">
        <ele>1234.598028</ele>
        <time>2015-03-15T12:07:30Z</time>
      </trkpt>
      <trkpt lat="47.98366" lon="6.9827">
        <ele>1234.368617</ele>
        <time>2015-03-15T12:11:48Z</time>
      </trkpt>
      <trkpt lat="47.98367" lon="6.98268">
        <ele>1233.11145</ele>
        <time>2015-03-15T12:12:12Z</time>
      </trkpt>
      <trkpt lat="47.98373" lon="6.9827">
        <ele>1233.679077</ele>
        <time>2015-03-15T12:12:36Z</time>
      </trkpt>
      <trkpt lat="47.9841" lon="6.98259">
        <ele>1230.146118</ele>
        <time>2015-03-15T12:13:16Z</time>
      </trkpt>
      <trkpt lat="47.98439" lon="6.9824">
        <ele>1225.763916</ele>
        <time>2015-03-15T12:13:48Z</time>
      </trkpt>
      <trkpt lat="47.98484" lon="6.98218">
        <ele>1225.957764</ele>
        <time>2015-03-15T12:14:36Z</time>
      </trkpt>
      <trkpt lat="47.98524" lon="6.98192">
        <ele>1223.708984</ele>
        <time>2015-03-15T12:15:16Z</time>
      </trkpt>
      <trkpt lat="47.98535" lon="6.98178">
        <ele>1221.907227</ele>
        <time>2015-03-15T12:15:32Z</time>
      </trkpt>
      <trkpt lat="47.98576" lon="6.98144">
        <ele>1222.069214</ele>
        <time>2015-03-15T12:16:20Z</time>
      </trkpt>
      <trkpt lat="47.98599" lon="6.98119">
        <ele>1226.724609</ele>
        <time>2015-03-15T12:16:52Z</time>
      </trkpt>
      <trkpt lat="47.98645" lon="6.98078">
        <ele>1231.931641</ele>
        <time>2015-03-15T12:17:56Z</time>
      </trkpt>
      <trkpt lat="47.98693" lon="6.9805">
        <ele>1241.112305</ele>
        <time>2015-03-15T12:19:00Z</time>
      </trkpt>
      <trkpt lat="47.98699" lon="6.98056">
        <ele>1239.253662</ele>
        <time>2015-03-15T12:19:16Z</time>
      </trkpt>
      <trkpt lat="47.98717" lon="6.98063">
        <ele>1236.753052</ele>
        <time>2015-03-15T12:19:40Z</time>
      </trkpt>
      <trkpt lat="47.98725" lon="6.98062">
        <ele>1238.754272</ele>
        <time>2015-03-15T12:19:44Z</time>
      </trkpt>
      <trkpt lat="47.98733" lon="6.98067">
        <ele>1236.400024</ele>
        <time>2015-03-15T12:19:52Z</time>
      </trkpt>
      <trkpt lat="47.98741" lon="6.98082">
        <ele>1240.26123</ele>
        <time>2015-03-15T12:20:08Z</time>
      </trkpt>
      <trkpt lat="47.98743" lon="6.9809">
        <ele>1245.314605</ele>
        <time>2015-03-15T12:20:16Z</time>
      </trkpt>
      <trkpt lat="47.98748" lon="6.98094">
        <ele>1245.859042</ele>
        <time>2015-03-15T12:20:24Z</time>
      </trkpt>
      <trkpt lat="47.98802" lon="6.98102">
        <ele>1244.552856</ele>
        <time>2015-03-15T12:21:43Z</time>
      </trkpt>
      <trkpt lat="47.98829" lon="6.9812">
        <ele>1243.355957</ele>
        <time>2015-03-15T12:22:15Z</time>
      </trkpt>
      <trkpt lat="47.98895" lon="6.98135">
        <ele>1246.631714</ele>
        <time>2015-03-15T12:23:19Z</time>
      </trkpt>
      <trkpt lat="47.98926" lon="6.98146">
        <ele>1240.342529</ele>
        <time>2015-03-15T12:23:51Z</time>
      </trkpt>
      <trkpt lat="47.98959" lon="6.98156">
        <ele>1247.014282</ele>
        <time>2015-03-15T12:24:15Z</time>
      </trkpt>
      <trkpt lat="47.98967" lon="6.98161">
        <ele>1246.787109</ele>
        <time>2015-03-15T12:24:23Z</time>
      </trkpt>
      <trkpt lat="47.98986" lon="6.98166">
        <ele>1244.396729</ele>
        <time>2015-03-15T12:24:39Z</time>
      </trkpt>
      <trkpt lat="47.98995" lon="6.98176">
        <ele>1242.414917</ele>
        <time>2015-03-15T12:24:59Z</time>
      </trkpt>
      <trkpt lat="47.99005" lon="6.98178">
        <ele>1243.936279</ele>
        <time>2015-03-15T12:25:07Z</time>
      </trkpt>
      <trkpt lat="47.99005" lon="6.9818">
        <ele>1242.65271</ele>
        <time>2015-03-15T12:25:11Z</time>
      </trkpt>
      <trkpt lat="47.99012" lon="6.98184">
        <ele>1245.491821</ele>
        <time>2015-03-15T12:25:19Z</time>
      </trkpt>
      <trkpt lat="47.99017" lon="6.98181">
        <ele>1252.81087</ele>
        <time>2015-03-15T12:25:31Z</time>
      </trkpt>
      <trkpt lat="47.99031" lon="6.98178">
        <ele>1246.898193</ele>
        <time>2015-03-15T12:25:47Z</time>
      </trkpt>
      <trkpt lat="47.9904" lon="6.98171">
        <ele>1251.799927</ele>
        <time>2015-03-15T12:26:29Z</time>
      </trkpt>
      <trkpt lat="47.99054" lon="6.98168">
        <ele>1256.246622</ele>
        <time>2015-03-15T12:26:45Z</time>
      </trkpt>
      <trkpt lat="47.99093" lon="6.98177">
        <ele>1249.73645</ele>
        <time>2015-03-15T12:27:17Z</time>
      </trkpt>
      <trkpt lat="47.99105" lon="6.98172">
        <ele>1253.231689</ele>
        <time>2015-03-15T12:27:33Z</time>
      </trkpt>
      <trkpt lat="47.99127" lon="6.98173">
        <ele>1257.312378</ele>
        <time>2015-03-15T12:28:06Z</time>
      </trkpt>
      <trkpt lat="47.99141" lon="6.98158">
        <ele>1265.375941</ele>
        <time>2015-03-15T12:28:32Z</time>
      </trkpt>
      <trkpt lat="47.99143" lon="6.9815">
        <ele>1267.098881</ele>
        <time>2015-03-15T12:28:40Z</time>
      </trkpt>
      <trkpt lat="47.99147" lon="6.98146">
        <ele>1267.462355</ele>
        <time>2015-03-15T12:28:44Z</time>
      </trkpt>
      <trkpt lat="47.99155" lon="6.98142">
        <ele>1269.302395</ele>
        <time>2015-03-15T12:29:00Z</time>
      </trkpt>
      <trkpt lat="47.99168" lon="6.98141">
        <ele>1270.155319</ele>
        <time>2015-03-15T12:29:16Z</time>
      </trkpt>
      <trkpt lat="47.99205" lon="6.98153">
        <ele>1271.085938</ele>
        <time>2015-03-15T12:30:18Z</time>
      </trkpt>
      <trkpt lat="47.99209" lon="6.98153">
        <ele>1271.316772</ele>
        <time>2015-03-15T12:30:35Z</time>
      </trkpt>
      <trkpt lat="47.99214" lon="6.9815">
        <ele>1275.381714</ele>
        <time>2015-03-15T12:30:51Z</time>
      </trkpt>
      <trkpt lat="47.99225" lon="6.9815">
        <ele>1273.675415</ele>
        <time>2015-03-15T12:31:07Z</time>
      </trkpt>
      <trkpt lat="47.99235" lon="6.9814">
        <ele>1276.613403</ele>
        <time>2015-03-15T12:31:23Z</time>
      </trkpt>
      <trkpt lat="47.99244" lon="6.98137">
        <ele>1280.044312</ele>
        <time>2015-03-15T12:31:39Z</time>
      </trkpt>
      <trkpt lat="47.99256" lon="6.98129">
        <ele>1282.065186</ele>
        <time>2015-03-15T12:32:03Z</time>
      </trkpt>
      <trkpt lat="47.99279" lon="6.9812">
        <ele>1287.907959</ele>
        <time>2015-03-15T12:32:35Z</time>
      </trkpt>
      <trkpt lat="47.99287" lon="6.98111">
        <ele>1291.353027</ele>
        <time>2015-03-15T12:33:07Z</time>
      </trkpt>
      <trkpt lat="47.99292" lon="6.98109">
        <ele>1288.969971</ele>
        <time>2015-03-15T12:33:19Z</time>
      </trkpt>
      <trkpt lat="47.99296" lon="6.981">
        <ele>1292.22876</ele>
        <time>2015-03-15T12:33:27Z</time>
      </trkpt>
      <trkpt lat="47.99339" lon="6.98083">
        <ele>1302.502957</ele>
        <time>2015-03-15T12:34:27Z</time>
      </trkpt>
      <trkpt lat="47.99365" lon="6.98079">
        <ele>1301.274708</ele>
        <time>2015-03-15T12:35:10Z</time>
      </trkpt>
      <trkpt lat="47.99369" lon="6.98075">
        <ele>1302.624317</ele>
        <time>2015-03-15T12:35:25Z</time>
      </trkpt>
      <trkpt lat="47.99385" lon="6.98073">
        <ele>1307.82793</ele>
        <time>2015-03-15T12:35:49Z</time>
      </trkpt>
      <trkpt lat="47.99385" lon="6.98065">
        <ele>1310.733326</ele>
        <time>2015-03-15T12:35:57Z</time>
      </trkpt>
      <trkpt lat="47.99388" lon="6.98065">
        <ele>1311.839283</ele>
        <time>2015-03-15T12:37:03Z</time>
      </trkpt>
      <trkpt lat="47.99396" lon="6.98078">
        <ele>1311.797535</ele>
        <time>2015-03-15T12:41:24Z</time>
      </trkpt>
      <trkpt lat="47.99403" lon="6.98082">
        <ele>1310.785938</ele>
        <time>2015-03-15T12:41:32Z</time>
      </trkpt>
      <trkpt lat="47.99405" lon="6.98088">
        <ele>1309.153004</ele>
        <time>2015-03-15T12:41:40Z</time>
      </trkpt>
      <trkpt lat="47.99418" lon="6.98086">
        <ele>1308.582325</ele>
        <time>2015-03-15T12:42:00Z</time>
      </trkpt>
      <trkpt lat="47.99434" lon="6.98088">
        <ele>1307.088917</ele>
        <time>2015-03-15T12:42:16Z</time>
      </trkpt>
      <trkpt lat="47.99448" lon="6.98096">
        <ele>1299.065357</ele>
        <time>2015-03-15T12:42:32Z</time>
      </trkpt>
      <trkpt lat="47.99454" lon="6.98104">
        <ele>1296.737843</ele>
        <time>2015-03-15T12:42:40Z</time>
      </trkpt>
      <trkpt lat="47.99471" lon="6.98116">
        <ele>1292.860889</ele>
        <time>2015-03-15T12:42:56Z</time>
      </trkpt>
      <trkpt lat="47.99486" lon="6.9813">
        <ele>1291.915089</ele>
        <time>2015-03-15T12:43:12Z</time>
      </trkpt>
      <trkpt lat="47.99529" lon="6.9813">
        <ele>1294.917164</ele>
        <time>2015-03-15T12:43:44Z</time>
      </trkpt>
      <trkpt lat="47.99539" lon="6.98133">
        <ele>1287.732227</ele>
        <time>2015-03-15T12:44:00Z</time>
      </trkpt>
      <trkpt lat="47.99603" lon="6.98129">
        <ele>1287.222706</ele>
        <time>2015-03-15T12:44:48Z</time>
      </trkpt>
      <trkpt lat="47.99606" lon="6.98132">
        <ele>1288.162281</ele>
        <time>2015-03-15T12:44:52Z</time>
      </trkpt>
      <trkpt lat="47.99671" lon="6.98145">
        <ele>1280.40044</ele>
        <time>2015-03-15T12:45:56Z</time>
      </trkpt>
      <trkpt lat="47.99701" lon="6.98145">
        <ele>1278.67721</ele>
        <time>2015-03-15T12:46:28Z</time>
      </trkpt>
      <trkpt lat="47.99708" lon="6.98148">
        <ele>1279.260485</ele>
        <time>2015-03-15T12:46:36Z</time>
      </trkpt>
      <trkpt lat="47.99706" lon="6.98145">
        <ele>1279.351872</ele>
        <time>2015-03-15T12:46:40Z</time>
      </trkpt>
      <trkpt lat="47.99725" lon="6.98151">
        <ele>1280.532868</ele>
        <time>2015-03-15T12:46:56Z</time>
      </trkpt>
      <trkpt lat="47.99746" lon="6.98149">
        <ele>1278.341724</ele>
        <time>2015-03-15T12:47:16Z</time>
      </trkpt>
      <trkpt lat="47.99746" lon="6.98151">
        <ele>1274.952442</ele>
        <time>2015-03-15T12:47:20Z</time>
      </trkpt>
      <trkpt lat="47.99757" lon="6.98155">
        <ele>1272.82671</ele>
        <time>2015-03-15T12:47:36Z</time>
      </trkpt>
      <trkpt lat="47.99789" lon="6.98139">
        <ele>1283.833546</ele>
        <time>2015-03-15T12:48:08Z</time>
      </trkpt>
      <trkpt lat="47.99812" lon="6.98133">
        <ele>1284.779835</ele>
        <time>2015-03-15T12:48:40Z</time>
      </trkpt>
      <trkpt lat="47.99854" lon="6.98113">
        <ele>1287.298878</ele>
        <time>2015-03-15T12:49:28Z</time>
      </trkpt>
      <trkpt lat="47.99862" lon="6.98112">
        <ele>1286.664845</ele>
        <time>2015-03-15T12:49:36Z</time>
      </trkpt>
      <trkpt lat="47.99868" lon="6.98108">
        <ele>1287.921803</ele>
        <time>2015-03-15T12:49:44Z</time>
      </trkpt>
      <trkpt lat="47.99873" lon="6.98109">
        <ele>1287.106495</ele>
        <time>2015-03-15T12:49:50Z</time>
      </trkpt>
      <trkpt lat="47.99895" lon="6.98095">
        <ele>1290.995167</ele>
        <time>2015-03-15T12:50:14Z</time>
      </trkpt>
      <trkpt lat="47.999" lon="6.98089">
        <ele>1290.53606</ele>
        <time>2015-03-15T12:50:22Z</time>
      </trkpt>
      <trkpt lat="47.99906" lon="6.98086">
        <ele>1295.852222</ele>
        <time>2015-03-15T12:50:30Z</time>
      </trkpt>
      <trkpt lat="47.99956" lon="6.98093">
        <ele>1299.527393</ele>
        <time>2015-03-15T12:51:50Z</time>
      </trkpt>
      <trkpt lat="47.9997" lon="6.98098">
        <ele>1298.589405</ele>
        <time>2015-03-15T12:52:06Z</time>
      </trkpt>
      <trkpt lat="47.9999" lon="6.98102">
        <ele>1298.983448</ele>
        <time>2015-03-15T12:52:26Z</time>
      </trkpt>
      <trkpt lat="47.99994" lon="6.98107">
        <ele>1295.084522</ele>
        <time>2015-03-15T12:52:34Z</time>
      </trkpt>
      <trkpt lat="48.00012" lon="6.9811">
        <ele>1296.3521</ele>
        <time>2015-03-15T12:52:58Z</time>
      </trkpt>
      <trkpt lat="48.00015" lon="6.98114">
        <ele>1295.573902</ele>
        <time>2015-03-15T12:53:06Z</time>
      </trkpt>
      <trkpt lat="48.00034" lon="6.98112">
        <ele>1302.416431</ele>
        <time>2015-03-15T12:53:41Z</time>
      </trkpt>
      <trkpt lat="48.00041" lon="6.98117">
        <ele>1299.177906</ele>
        <time>2015-03-15T12:53:57Z</time>
      </trkpt>
      <trkpt lat="48.00055" lon="6.98113">
        <ele>1303.513721</ele>
        <time>2015-03-15T12:55:03Z</time>
      </trkpt>
      <trkpt lat="48.00057" lon="6.98108">
        <ele>1307.39336</ele>
        <time>2015-03-15T12:55:11Z</time>
      </trkpt>
      <trkpt lat="48.00061" lon="6.98104">
        <ele>1307.476612</ele>
        <time>2015-03-15T12:55:21Z</time>
      </trkpt>
      <trkpt lat="48.00064" lon="6.98097">
        <ele>1309.697681</ele>
        <time>2015-03-15T12:55:29Z</time>
      </trkpt>
      <trkpt lat="48.00071" lon="6.98103">
        <ele>1312.674</ele>
        <time>2015-03-15T12:55:45Z</time>
      </trkpt>
      <trkpt lat="48.00073" lon="6.98106">
        <ele>1311.61565</ele>
        <time>2015-03-15T12:57:19Z</time>
      </trkpt>
      <trkpt lat="48.00077" lon="6.98105">
        <ele>1316.577564</ele>
        <time>2015-03-15T13:00:47Z</time>
      </trkpt>
      <trkpt lat="48.00074" lon="6.98103">
        <ele>1315.485157</ele>
        <time>2015-03-15T13:03:27Z</time>
      </trkpt>
      <trkpt lat="48.00077" lon="6.98105">
        <ele>1316.852467</ele>
        <time>2015-03-15T13:03:42Z</time>
      </trkpt>
      <trkpt lat="48.00077" lon="6.98093">
        <ele>1314.905689</ele>
        <time>2015-03-15T13:04:19Z</time>
      </trkpt>
      <trkpt lat="48.00086" lon="6.98088">
        <ele>1317.096973</ele>
        <time>2015-03-15T13:04:27Z</time>
      </trkpt>
      <trkpt lat="48.00096" lon="6.9809">
        <ele>1313.887135</ele>
        <time>2015-03-15T13:04:35Z</time>
      </trkpt>
      <trkpt lat="48.00099" lon="6.98085">
        <ele>1312.62772</ele>
        <time>2015-03-15T13:04:39Z</time>
      </trkpt>
      <trkpt lat="48.00102" lon="6.98089">
        <ele>1312.208012</ele>
        <time>2015-03-15T13:04:43Z</time>
      </trkpt>
      <trkpt lat="48.00101" lon="6.98093">
        <ele>1310.257862</ele>
        <time>2015-03-15T13:05:23Z</time>
      </trkpt>
      <trkpt lat="48.00102" lon="6.9808">
        <ele>1311.003712</ele>
        <time>2015-03-15T13:07:10Z</time>
      </trkpt>
      <trkpt lat="48.00103" lon="6.98081">
        <ele>1312.225025</ele>
        <time>2015-03-15T13:07:15Z</time>
      </trkpt>
      <trkpt lat="48.00106" lon="6.98048">
        <ele>1308.974781</ele>
        <time>2015-03-15T13:07:39Z</time>
      </trkpt>
      <trkpt lat="48.00115" lon="6.98032">
        <ele>1304.90691</ele>
        <time>2015-03-15T13:07:55Z</time>
      </trkpt>
      <trkpt lat="48.00121" lon="6.9803">
        <ele>1303.210011</ele>
        <time>2015-03-15T13:08:03Z</time>
      </trkpt>
      <trkpt lat="48.00123" lon="6.98025">
        <ele>1301.211353</ele>
        <time>2015-03-15T13:08:07Z</time>
      </trkpt>
      <trkpt lat="48.00124" lon="6.98004">
        <ele>1302.517017</ele>
        <time>2015-03-15T13:08:19Z</time>
      </trkpt>
      <trkpt lat="48.00126" lon="6.97989">
        <ele>1303.389576</ele>
        <time>2015-03-15T13:08:27Z</time>
      </trkpt>
      <trkpt lat="48.00131" lon="6.97983">
        <ele>1299.675343</ele>
        <time>2015-03-15T13:08:35Z</time>
      </trkpt>
      <trkpt lat="48.00137" lon="6.97965">
        <ele>1298.794727</ele>
        <time>2015-03-15T13:08:51Z</time>
      </trkpt>
      <trkpt lat="48.00148" lon="6.97972">
        <ele>1293.76897</ele>
        <time>2015-03-15T13:08:59Z</time>
      </trkpt>
      <trkpt lat="48.00148" lon="6.97975">
        <ele>1294.057911</ele>
        <time>2015-03-15T13:09:03Z</time>
      </trkpt>
      <trkpt lat="48.00187" lon="6.97967">
        <ele>1283.864063</ele>
        <time>2015-03-15T13:09:51Z</time>
      </trkpt>
      <trkpt lat="48.00238" lon="6.97978">
        <ele>1267.274097</ele>
        <time>2015-03-15T13:10:47Z</time>
      </trkpt>
      <trkpt lat="48.00249" lon="6.97977">
        <ele>1271.967213</ele>
        <time>2015-03-15T13:10:55Z</time>
      </trkpt>
      <trkpt lat="48.00254" lon="6.97979">
        <ele>1268.697437</ele>
        <time>2015-03-15T13:11:03Z</time>
      </trkpt>
      <trkpt lat="48.00267" lon="6.97976">
        <ele>1271.539478</ele>
        <time>2015-03-15T13:11:11Z</time>
      </trkpt>
      <trkpt lat="48.00281" lon="6.97983">
        <ele>1262.583179</ele>
        <time>2015-03-15T13:11:27Z</time>
      </trkpt>
      <trkpt lat="48.00303" lon="6.98005">
        <ele>1258.41338</ele>
        <time>2015-03-15T13:11:55Z</time>
      </trkpt>
      <trkpt lat="48.00312" lon="6.98004">
        <ele>1257.082935</ele>
        <time>2015-03-15T13:12:03Z</time>
      </trkpt>
      <trkpt lat="48.00324" lon="6.98008">
        <ele>1249.781422</ele>
        <time>2015-03-15T13:12:19Z</time>
      </trkpt>
      <trkpt lat="48.00331" lon="6.98004">
        <ele>1246.625172</ele>
        <time>2015-03-15T13:12:27Z</time>
      </trkpt>
      <trkpt lat="48.00333" lon="6.98008">
        <ele>1244.250538</ele>
        <time>2015-03-15T13:12:31Z</time>
      </trkpt>
      <trkpt lat="48.00356" lon="6.98019">
        <ele>1241.669605</ele>
        <time>2015-03-15T13:12:55Z</time>
      </trkpt>
      <trkpt lat="48.00357" lon="6.98028">
        <ele>1239.381275</ele>
        <time>2015-03-15T13:13:11Z</time>
      </trkpt>
      <trkpt lat="48.00369" lon="6.98033">
        <ele>1235.987232</ele>
        <time>2015-03-15T13:13:31Z</time>
      </trkpt>
      <trkpt lat="48.00379" lon="6.98028">
        <ele>1232.992481</ele>
        <time>2015-03-15T13:13:47Z</time>
      </trkpt>
      <trkpt lat="48.00387" lon="6.98033">
        <ele>1229.76421</ele>
        <time>2015-03-15T13:13:59Z</time>
      </trkpt>
      <trkpt lat="48.00395" lon="6.98034">
        <ele>1227.80669</ele>
        <time>2015-03-15T13:14:07Z</time>
      </trkpt>
      <trkpt lat="48.00402" lon="6.9804">
        <ele>1225.61211</ele>
        <time>2015-03-15T13:14:15Z</time>
      </trkpt>
      <trkpt lat="48.00411" lon="6.9804">
        <ele>1226.383106</ele>
        <time>2015-03-15T13:14:23Z</time>
      </trkpt>
      <trkpt lat="48.00419" lon="6.98043">
        <ele>1227.009693</ele>
        <time>2015-03-15T13:14:39Z</time>
      </trkpt>
      <trkpt lat="48.00435" lon="6.98042">
        <ele>1222.863697</ele>
        <time>2015-03-15T13:14:55Z</time>
      </trkpt>
      <trkpt lat="48.00476" lon="6.98054">
        <ele>1214.371265</ele>
        <time>2015-03-15T13:15:35Z</time>
      </trkpt>
      <trkpt lat="48.0048" lon="6.98051">
        <ele>1213.782642</ele>
        <time>2015-03-15T13:15:43Z</time>
      </trkpt>
      <trkpt lat="48.00481" lon="6.98062">
        <ele>1209.049407</ele>
        <time>2015-03-15T13:20:10Z</time>
      </trkpt>
      <trkpt lat="48.00478" lon="6.98061">
        <ele>1210.057161</ele>
        <time>2015-03-15T13:21:03Z</time>
      </trkpt>
      <trkpt lat="48.00481" lon="6.98064">
        <ele>1209.014059</ele>
        <time>2015-03-15T13:22:37Z</time>
      </trkpt>
      <trkpt lat="48.0048" lon="6.98061">
        <ele>1209.643205</ele>
        <time>2015-03-15T13:22:41Z</time>
      </trkpt>
      <trkpt lat="48.00482" lon="6.98055">
        <ele>1209.848362</ele>
        <time>2015-03-15T13:23:23Z</time>
      </trkpt>
      <trkpt lat="48.0048" lon="6.98058">
        <ele>1210.344204</ele>
        <time>2015-03-15T13:23:34Z</time>
      </trkpt>
      <trkpt lat="48.00481" lon="6.9806">
        <ele>1211.226244</ele>
        <time>2015-03-15T13:23:46Z</time>
      </trkpt>
      <trkpt lat="48.00486" lon="6.98048">
        <ele>1211.504115</ele>
        <time>2015-03-15T13:25:41Z</time>
      </trkpt>
      <trkpt lat="48.00494" lon="6.98044">
        <ele>1210.22049</ele>
        <time>2015-03-15T13:25:49Z</time>
      </trkpt>
      <trkpt lat="48.00501" lon="6.98037">
        <ele>1208.935198</ele>
        <time>2015-03-15T13:25:57Z</time>
      </trkpt>
      <trkpt lat="48.00518" lon="6.98036">
        <ele>1207.06409</ele>
        <time>2015-03-15T13:26:13Z</time>
      </trkpt>
      <trkpt lat="48.00546" lon="6.98038">
        <ele>1206.226371</ele>
        <time>2015-03-15T13:26:49Z</time>
      </trkpt>
      <trkpt lat="48.00563" lon="6.98025">
        <ele>1208.4693</ele>
        <time>2015-03-15T13:27:26Z</time>
      </trkpt>
      <trkpt lat="48.0057" lon="6.98024">
        <ele>1208.88291</ele>
        <time>2015-03-15T13:27:34Z</time>
      </trkpt>
      <trkpt lat="48.00572" lon="6.98021">
        <ele>1209.167646</ele>
        <time>2015-03-15T13:27:38Z</time>
      </trkpt>
      <trkpt lat="48.00582" lon="6.98023">
        <ele>1210.018846</ele>
        <time>2015-03-15T13:27:54Z</time>
      </trkpt>
      <trkpt lat="48.00585" lon="6.98026">
        <ele>1210.849026</ele>
        <time>2015-03-15T13:27:58Z</time>
      </trkpt>
      <trkpt lat="48.00615" lon="6.98031">
        <ele>1216.100467</ele>
        <time>2015-03-15T13:28:47Z</time>
      </trkpt>
      <trkpt lat="48.00624" lon="6.98037">
        <ele>1218.823079</ele>
        <time>2015-03-15T13:29:03Z</time>
      </trkpt>
      <trkpt lat="48.0064" lon="6.98037">
        <ele>1221.84308</ele>
        <time>2015-03-15T13:29:27Z</time>
      </trkpt>
      <trkpt lat="48.00655" lon="6.98044">
        <ele>1227.488941</ele>
        <time>2015-03-15T13:30:11Z</time>
      </trkpt>
      <trkpt lat="48.0067" lon="6.98054">
        <ele>1232.185338</ele>
        <time>2015-03-15T13:30:44Z</time>
      </trkpt>
      <trkpt lat="48.00683" lon="6.98056">
        <ele>1236.123776</ele>
        <time>2015-03-15T13:31:19Z</time>
      </trkpt>
      <trkpt lat="48.00694" lon="6.98055">
        <ele>1238.042888</ele>
        <time>2015-03-15T13:31:43Z</time>
      </trkpt>
      <trkpt lat="48.00736" lon="6.98068">
        <ele>1249.788224</ele>
        <time>2015-03-15T13:33:14Z</time>
      </trkpt>
      <trkpt lat="48.00757" lon="6.98071">
        <ele>1256.479299</ele>
        <time>2015-03-15T13:34:02Z</time>
      </trkpt>
      <trkpt lat="48.00788" lon="6.98087">
        <ele>1265.284326</ele>
        <time>2015-03-15T13:35:19Z</time>
      </trkpt>
      <trkpt lat="48.00842" lon="6.98107">
        <ele>1279.393637</ele>
        <time>2015-03-15T13:36:57Z</time>
      </trkpt>
      <trkpt lat="48.009" lon="6.98144">
        <ele>1292.248956</ele>
        <time>2015-03-15T13:38:55Z</time>
      </trkpt>
      <trkpt lat="48.00924" lon="6.98162">
        <ele>1296.771661</ele>
        <time>2015-03-15T13:39:36Z</time>
      </trkpt>
      <trkpt lat="48.00942" lon="6.98164">
        <ele>1298.579966</ele>
        <time>2015-03-15T13:40:00Z</time>
      </trkpt>
      <trkpt lat="48.00946" lon="6.9817">
        <ele>1298.780504</ele>
        <time>2015-03-15T13:40:08Z</time>
      </trkpt>
      <trkpt lat="48.00949" lon="6.98179">
        <ele>1299.580846</ele>
        <time>2015-03-15T13:40:16Z</time>
      </trkpt>
      <trkpt lat="48.00958" lon="6.98194">
        <ele>1300.939864</ele>
        <time>2015-03-15T13:40:48Z</time>
      </trkpt>
      <trkpt lat="48.0096" lon="6.98194">
        <ele>1301.023407</ele>
        <time>2015-03-15T13:40:52Z</time>
      </trkpt>
      <trkpt lat="48.00963" lon="6.98201">
        <ele>1301.67604</ele>
        <time>2015-03-15T13:41:02Z</time>
      </trkpt>
      <trkpt lat="48.00967" lon="6.98222">
        <ele>1302.748038</ele>
        <time>2015-03-15T13:41:18Z</time>
      </trkpt>
      <trkpt lat="48.0097" lon="6.98223">
        <ele>1303.20073</ele>
        <time>2015-03-15T13:41:26Z</time>
      </trkpt>
      <trkpt lat="48.00973" lon="6.9823">
        <ele>1303.766394</ele>
        <time>2015-03-15T13:41:34Z</time>
      </trkpt>
      <trkpt lat="48.00973" lon="6.98244">
        <ele>1303.579493</ele>
        <time>2015-03-15T13:41:42Z</time>
      </trkpt>
      <trkpt lat="48.00979" lon="6.98273">
        <ele>1303.635938</ele>
        <time>2015-03-15T13:42:10Z</time>
      </trkpt>
      <trkpt lat="48.00978" lon="6.98277">
        <ele>1304.024699</ele>
        <time>2015-03-15T13:42:23Z</time>
      </trkpt>
      <trkpt lat="48.0097" lon="6.98281">
        <ele>1303.371671</ele>
        <time>2015-03-15T13:45:21Z</time>
      </trkpt>
      <trkpt lat="48.00939" lon="6.98328">
        <ele>1299.246859</ele>
        <time>2015-03-15T13:46:01Z</time>
      </trkpt>
      <trkpt lat="48.00947" lon="6.98343">
        <ele>1297.54472</ele>
        <time>2015-03-15T13:46:16Z</time>
      </trkpt>
      <trkpt lat="48.00947" lon="6.98351">
        <ele>1296.482563</ele>
        <time>2015-03-15T13:46:26Z</time>
      </trkpt>
      <trkpt lat="48.00946" lon="6.98352">
        <ele>1295.610284</ele>
        <time>2015-03-15T13:47:45Z</time>
      </trkpt>
      <trkpt lat="48.00948" lon="6.98349">
        <ele>1295.96546</ele>
        <time>2015-03-15T13:49:14Z</time>
      </trkpt>
      <trkpt lat="48.00943" lon="6.98354">
        <ele>1295.854094</ele>
        <time>2015-03-15T13:49:24Z</time>
      </trkpt>
      <trkpt lat="48.00943" lon="6.9835">
        <ele>1296.206715</ele>
        <time>2015-03-15T13:49:37Z</time>
      </trkpt>
      <trkpt lat="48.00944" lon="6.98351">
        <ele>1296.637614</ele>
        <time>2015-03-15T13:50:00Z</time>
      </trkpt>
      <trkpt lat="48.00941" lon="6.98352">
        <ele>1297.054092</ele>
        <time>2015-03-15T13:50:16Z</time>
      </trkpt>
      <trkpt lat="48.00946" lon="6.98347">
        <ele>1299.495733</ele>
        <time>2015-03-15T13:50:40Z</time>
      </trkpt>
      <trkpt lat="48.00956" lon="6.98327">
        <ele>1301.016783</ele>
        <time>2015-03-15T13:50:56Z</time>
      </trkpt>
      <trkpt lat="48.00965" lon="6.98298">
        <ele>1303.840315</ele>
        <time>2015-03-15T13:51:16Z</time>
      </trkpt>
      <trkpt lat="48.00966" lon="6.98301">
        <ele>1304.81272</ele>
        <time>2015-03-15T13:51:32Z</time>
      </trkpt>
      <trkpt lat="48.00973" lon="6.98275">
        <ele>1305.885606</ele>
        <time>2015-03-15T13:52:00Z</time>
      </trkpt>
      <trkpt lat="48.00975" lon="6.98279">
        <ele>1306.921861</ele>
        <time>2015-03-15T13:54:16Z</time>
      </trkpt>
      <trkpt lat="48.00972" lon="6.98278">
        <ele>1306.648358</ele>
        <time>2015-03-15T13:55:11Z</time>
      </trkpt>
      <trkpt lat="48.00975" lon="6.98279">
        <ele>1307.330813</ele>
        <time>2015-03-15T13:55:44Z</time>
      </trkpt>
      <trkpt lat="48.00975" lon="6.98277">
        <ele>1307.139665</ele>
        <time>2015-03-15T13:55:54Z</time>
      </trkpt>
      <trkpt lat="48.00982" lon="6.98275">
        <ele>1306.898531</ele>
        <time>2015-03-15T13:56:32Z</time>
      </trkpt>
      <trkpt lat="48.0098" lon="6.98274">
        <ele>1306.521995</ele>
        <time>2015-03-15T13:57:09Z</time>
      </trkpt>
      <trkpt lat="48.00982" lon="6.98279">
        <ele>1306.970034</ele>
        <time>2015-03-15T13:57:17Z</time>
      </trkpt>
      <trkpt lat="48.00979" lon="6.98278">
        <ele>1302.128468</ele>
        <time>2015-03-15T13:57:52Z</time>
      </trkpt>
      <trkpt lat="48.0098" lon="6.9828">
        <ele>1302.000294</ele>
        <time>2015-03-15T13:57:58Z</time>
      </trkpt>
      <trkpt lat="48.0098" lon="6.98277">
        <ele>1304.850025</ele>
        <time>2015-03-15T13:59:17Z</time>
      </trkpt>
      <trkpt lat="48.00992" lon="6.98282">
        <ele>1307.088428</ele>
        <time>2015-03-15T13:59:33Z</time>
      </trkpt>
      <trkpt lat="48.00998" lon="6.98288">
        <ele>1305.824146</ele>
        <time>2015-03-15T13:59:41Z</time>
      </trkpt>
      <trkpt lat="48.01009" lon="6.9829">
        <ele>1302.376026</ele>
        <time>2015-03-15T13:59:57Z</time>
      </trkpt>
      <trkpt lat="48.01035" lon="6.9828">
        <ele>1297.228443</ele>
        <time>2015-03-15T14:00:29Z</time>
      </trkpt>
      <trkpt lat="48.01042" lon="6.98281">
        <ele>1296.939137</ele>
        <time>2015-03-15T14:00:37Z</time>
      </trkpt>
      <trkpt lat="48.01064" lon="6.98294">
        <ele>1286.875416</ele>
        <time>2015-03-15T14:01:09Z</time>
      </trkpt>
      <trkpt lat="48.01094" lon="6.98303">
        <ele>1281.502369</ele>
        <time>2015-03-15T14:01:49Z</time>
      </trkpt>
      <trkpt lat="48.01105" lon="6.98313">
        <ele>1278.146534</ele>
        <time>2015-03-15T14:02:09Z</time>
      </trkpt>
      <trkpt lat="48.01111" lon="6.98309">
        <ele>1274.821095</ele>
        <time>2015-03-15T14:02:21Z</time>
      </trkpt>
      <trkpt lat="48.01116" lon="6.98311">
        <ele>1270.461964</ele>
        <time>2015-03-15T14:02:29Z</time>
      </trkpt>
      <trkpt lat="48.01122" lon="6.98318">
        <ele>1266.018482</ele>
        <time>2015-03-15T14:02:37Z</time>
      </trkpt>
      <trkpt lat="48.01125" lon="6.98326">
        <ele>1262.944508</ele>
        <time>2015-03-15T14:02:45Z</time>
      </trkpt>
      <trkpt lat="48.01134" lon="6.9833">
        <ele>1258.927906</ele>
        <time>2015-03-15T14:02:57Z</time>
      </trkpt>
      <trkpt lat="48.01142" lon="6.98347">
        <ele>1253.168873</ele>
        <time>2015-03-15T14:03:13Z</time>
      </trkpt>
      <trkpt lat="48.01145" lon="6.9836">
        <ele>1250.166065</ele>
        <time>2015-03-15T14:03:21Z</time>
      </trkpt>
      <trkpt lat="48.01144" lon="6.98371">
        <ele>1247.281178</ele>
        <time>2015-03-15T14:03:29Z</time>
      </trkpt>
      <trkpt lat="48.01147" lon="6.98371">
        <ele>1245.657764</ele>
        <time>2015-03-15T14:03:33Z</time>
      </trkpt>
      <trkpt lat="48.01154" lon="6.98383">
        <ele>1242.818043</ele>
        <time>2015-03-15T14:04:16Z</time>
      </trkpt>
      <trkpt lat="48.01155" lon="6.9839">
        <ele>1243.800343</ele>
        <time>2015-03-15T14:04:52Z</time>
      </trkpt>
      <trkpt lat="48.01161" lon="6.98389">
        <ele>1247.777529</ele>
        <time>2015-03-15T14:05:41Z</time>
      </trkpt>
      <trkpt lat="48.01164" lon="6.98391">
        <ele>1242.98418</ele>
        <time>2015-03-15T14:05:45Z</time>
      </trkpt>
      <trkpt lat="48.01169" lon="6.98388">
        <ele>1243.541553</ele>
        <time>2015-03-15T14:05:49Z</time>
      </trkpt>
      <trkpt lat="48.01173" lon="6.98382">
        <ele>1242.82793</ele>
        <time>2015-03-15T14:05:53Z</time>
      </trkpt>
      <trkpt lat="48.01178" lon="6.98378">
        <ele>1243.942066</ele>
        <time>2015-03-15T14:05:57Z</time>
      </trkpt>
      <trkpt lat="48.012" lon="6.98384">
        <ele>1242.944874</ele>
        <time>2015-03-15T14:06:13Z</time>
      </trkpt>
      <trkpt lat="48.01209" lon="6.98395">
        <ele>1237.114918</ele>
        <time>2015-03-15T14:07:00Z</time>
      </trkpt>
      <trkpt lat="48.01215" lon="6.98399">
        <ele>1235.856495</ele>
        <time>2015-03-15T14:07:04Z</time>
      </trkpt>
      <trkpt lat="48.01219" lon="6.98407">
        <ele>1233.273487</ele>
        <time>2015-03-15T14:07:08Z</time>
      </trkpt>
      <trkpt lat="48.01223" lon="6.98427">
        <ele>1226.968922</ele>
        <time>2015-03-15T14:07:24Z</time>
      </trkpt>
      <trkpt lat="48.01241" lon="6.98446">
        <ele>1221.229176</ele>
        <time>2015-03-15T14:07:40Z</time>
      </trkpt>
      <trkpt lat="48.01249" lon="6.98457">
        <ele>1219.063038</ele>
        <time>2015-03-15T14:07:52Z</time>
      </trkpt>
      <trkpt lat="48.01262" lon="6.98484">
        <ele>1226.006275</ele>
        <time>2015-03-15T14:08:08Z</time>
      </trkpt>
      <trkpt lat="48.01268" lon="6.9849">
        <ele>1221.151173</ele>
        <time>2015-03-15T14:08:16Z</time>
      </trkpt>
      <trkpt lat="48.01268" lon="6.98493">
        <ele>1219.786304</ele>
        <time>2015-03-15T14:08:20Z</time>
      </trkpt>
      <trkpt lat="48.0127" lon="6.98491">
        <ele>1216.920216</ele>
        <time>2015-03-15T14:08:24Z</time>
      </trkpt>
      <trkpt lat="48.01281" lon="6.98491">
        <ele>1222.74651</ele>
        <time>2015-03-15T14:08:32Z</time>
      </trkpt>
      <trkpt lat="48.01317" lon="6.9852">
        <ele>1215.179737</ele>
        <time>2015-03-15T14:09:20Z</time>
      </trkpt>
      <trkpt lat="48.01325" lon="6.9853">
        <ele>1213.258717</ele>
        <time>2015-03-15T14:09:28Z</time>
      </trkpt>
      <trkpt lat="48.01327" lon="6.98536">
        <ele>1212.04668</ele>
        <time>2015-03-15T14:09:32Z</time>
      </trkpt>
      <trkpt lat="48.01341" lon="6.98558">
        <ele>1206.681446</ele>
        <time>2015-03-15T14:10:07Z</time>
      </trkpt>
      <trkpt lat="48.01364" lon="6.9856">
        <ele>1205.250904</ele>
        <time>2015-03-15T14:10:23Z</time>
      </trkpt>
      <trkpt lat="48.01379" lon="6.9857">
        <ele>1204.283375</ele>
        <time>2015-03-15T14:10:31Z</time>
      </trkpt>
      <trkpt lat="48.01379" lon="6.98574">
        <ele>1204.181446</ele>
        <time>2015-03-15T14:10:33Z</time>
      </trkpt>
      <trkpt lat="48.01372" lon="6.98581">
        <ele>1204.982838</ele>
        <time>2015-03-15T14:11:37Z</time>
      </trkpt>
      <trkpt lat="48.01374" lon="6.98573">
        <ele>1205.437672</ele>
        <time>2015-03-15T14:13:01Z</time>
      </trkpt>
      <trkpt lat="48.01381" lon="6.98588">
        <ele>1193.033131</ele>
        <time>2015-03-15T14:13:28Z</time>
      </trkpt>
      <trkpt lat="48.01382" lon="6.98594">
        <ele>1190.969776</ele>
        <time>2015-03-15T14:13:32Z</time>
      </trkpt>
      <trkpt lat="48.01376" lon="6.98601">
        <ele>1189.246998</ele>
        <time>2015-03-15T14:13:40Z</time>
      </trkpt>
      <trkpt lat="48.01372" lon="6.98612">
        <ele>1191.759571</ele>
        <time>2015-03-15T14:13:48Z</time>
      </trkpt>
      <trkpt lat="48.01373" lon="6.98621">
        <ele>1189.729542</ele>
        <time>2015-03-15T14:13:52Z</time>
      </trkpt>
      <trkpt lat="48.01371" lon="6.98626">
        <ele>1189.32732</ele>
        <time>2015-03-15T14:13:56Z</time>
      </trkpt>
      <trkpt lat="48.01345" lon="6.98622">
        <ele>1187.743824</ele>
        <time>2015-03-15T14:14:25Z</time>
      </trkpt>
      <trkpt lat="48.01343" lon="6.98618">
        <ele>1186.147999</ele>
        <time>2015-03-15T14:14:29Z</time>
      </trkpt>
      <trkpt lat="48.01326" lon="6.98613">
        <ele>1189.450611</ele>
        <time>2015-03-15T14:14:41Z</time>
      </trkpt>
      <trkpt lat="48.0132" lon="6.98602">
        <ele>1188.703907</ele>
        <time>2015-03-15T14:14:49Z</time>
      </trkpt>
      <trkpt lat="48.01308" lon="6.98593">
        <ele>1188.731861</ele>
        <time>2015-03-15T14:15:01Z</time>
      </trkpt>
      <trkpt lat="48.01298" lon="6.98592">
        <ele>1191.121265</ele>
        <time>2015-03-15T14:15:09Z</time>
      </trkpt>
      <trkpt lat="48.0129" lon="6.98587">
        <ele>1188.865528</ele>
        <time>2015-03-15T14:15:17Z</time>
      </trkpt>
      <trkpt lat="48.0129" lon="6.98582">
        <ele>1186.818287</ele>
        <time>2015-03-15T14:15:21Z</time>
      </trkpt>
      <trkpt lat="48.01272" lon="6.9858">
        <ele>1192.073292</ele>
        <time>2015-03-15T14:15:33Z</time>
      </trkpt>
      <trkpt lat="48.01268" lon="6.98569">
        <ele>1188.358448</ele>
        <time>2015-03-15T14:15:49Z</time>
      </trkpt>
      <trkpt lat="48.01262" lon="6.98565">
        <ele>1188.053516</ele>
        <time>2015-03-15T14:16:01Z</time>
      </trkpt>
      <trkpt lat="48.01261" lon="6.98558">
        <ele>1188.607594</ele>
        <time>2015-03-15T14:16:05Z</time>
      </trkpt>
      <trkpt lat="48.01257" lon="6.98553">
        <ele>1187.903492</ele>
        <time>2015-03-15T14:16:09Z</time>
      </trkpt>
      <trkpt lat="48.01249" lon="6.9855">
        <ele>1185.725391</ele>
        <time>2015-03-15T14:16:17Z</time>
      </trkpt>
      <trkpt lat="48.01244" lon="6.98544">
        <ele>1187.739063</ele>
        <time>2015-03-15T14:16:25Z</time>
      </trkpt>
      <trkpt lat="48.01228" lon="6.98538">
        <ele>1186.659473</ele>
        <time>2015-03-15T14:16:41Z</time>
      </trkpt>
      <trkpt lat="48.01188" lon="6.98509">
        <ele>1182.781616</ele>
        <time>2015-03-15T14:17:29Z</time>
      </trkpt>
      <trkpt lat="48.01166" lon="6.98478">
        <ele>1180.43811</ele>
        <time>2015-03-15T14:18:01Z</time>
      </trkpt>
      <trkpt lat="48.01161" lon="6.98473">
        <ele>1183.988403</ele>
        <time>2015-03-15T14:18:09Z</time>
      </trkpt>
      <trkpt lat="48.01153" lon="6.98471">
        <ele>1183.501221</ele>
        <time>2015-03-15T14:18:17Z</time>
      </trkpt>
      <trkpt lat="48.01139" lon="6.98474">
        <ele>1184.560303</ele>
        <time>2015-03-15T14:18:33Z</time>
      </trkpt>
      <trkpt lat="48.0113" lon="6.98485">
        <ele>1184.417603</ele>
        <time>2015-03-15T14:19:24Z</time>
      </trkpt>
      <trkpt lat="48.01127" lon="6.98486">
        <ele>1184.364746</ele>
        <time>2015-03-15T14:19:28Z</time>
      </trkpt>
      <trkpt lat="48.01096" lon="6.98488">
        <ele>1180.708374</ele>
        <time>2015-03-15T14:20:04Z</time>
      </trkpt>
      <trkpt lat="48.01081" lon="6.98495">
        <ele>1186.862671</ele>
        <time>2015-03-15T14:20:20Z</time>
      </trkpt>
      <trkpt lat="48.01068" lon="6.9851">
        <ele>1192.371338</ele>
        <time>2015-03-15T14:20:36Z</time>
      </trkpt>
      <trkpt lat="48.01071" lon="6.98528">
        <ele>1193.351929</ele>
        <time>2015-03-15T14:21:07Z</time>
      </trkpt>
      <trkpt lat="48.01071" lon="6.98545">
        <ele>1192.697632</ele>
        <time>2015-03-15T14:21:19Z</time>
      </trkpt>
      <trkpt lat="48.01078" lon="6.98549">
        <ele>1191.265991</ele>
        <time>2015-03-15T14:21:32Z</time>
      </trkpt>
      <trkpt lat="48.0108" lon="6.98554">
        <ele>1191.431152</ele>
        <time>2015-03-15T14:21:36Z</time>
      </trkpt>
      <trkpt lat="48.01079" lon="6.98558">
        <ele>1189.952637</ele>
        <time>2015-03-15T14:22:04Z</time>
      </trkpt>
      <trkpt lat="48.01067" lon="6.98545">
        <ele>1187.834229</ele>
        <time>2015-03-15T14:22:26Z</time>
      </trkpt>
      <trkpt lat="48.01064" lon="6.98547">
        <ele>1187.502686</ele>
        <time>2015-03-15T14:22:44Z</time>
      </trkpt>
      <trkpt lat="48.01054" lon="6.98571">
        <ele>1190.272705</ele>
        <time>2015-03-15T14:23:08Z</time>
      </trkpt>
      <trkpt lat="48.01051" lon="6.98564">
        <ele>1191.528442</ele>
        <time>2015-03-15T14:23:39Z</time>
      </trkpt>
      <trkpt lat="48.01039" lon="6.98566">
        <ele>1193.157593</ele>
        <time>2015-03-15T14:23:55Z</time>
      </trkpt>
      <trkpt lat="48.01037" lon="6.98568">
        <ele>1192.838623</ele>
        <time>2015-03-15T14:24:11Z</time>
      </trkpt>
      <trkpt lat="48.01034" lon="6.98557">
        <ele>1197.167114</ele>
        <time>2015-03-15T14:24:19Z</time>
      </trkpt>
      <trkpt lat="48.01034" lon="6.98545">
        <ele>1199.684692</ele>
        <time>2015-03-15T14:24:27Z</time>
      </trkpt>
      <trkpt lat="48.01036" lon="6.98538">
        <ele>1202.963135</ele>
        <time>2015-03-15T14:25:01Z</time>
      </trkpt>
      <trkpt lat="48.01034" lon="6.98539">
        <ele>1203.217163</ele>
        <time>2015-03-15T14:26:16Z</time>
      </trkpt>
      <trkpt lat="48.01032" lon="6.98548">
        <ele>1209.776509</ele>
        <time>2015-03-15T14:27:40Z</time>
      </trkpt>
      <trkpt lat="48.01032" lon="6.9857">
        <ele>1200.319946</ele>
        <time>2015-03-15T14:27:52Z</time>
      </trkpt>
      <trkpt lat="48.01031" lon="6.98574">
        <ele>1202.264038</ele>
        <time>2015-03-15T14:27:56Z</time>
      </trkpt>
      <trkpt lat="48.01013" lon="6.98586">
        <ele>1197.557373</ele>
        <time>2015-03-15T14:28:23Z</time>
      </trkpt>
      <trkpt lat="48.01013" lon="6.98589">
        <ele>1203.110109</ele>
        <time>2015-03-15T14:28:36Z</time>
      </trkpt>
      <trkpt lat="48.01001" lon="6.98603">
        <ele>1199.591726</ele>
        <time>2015-03-15T14:28:59Z</time>
      </trkpt>
      <trkpt lat="48.00998" lon="6.98602">
        <ele>1199.052119</ele>
        <time>2015-03-15T14:29:03Z</time>
      </trkpt>
      <trkpt lat="48.0099" lon="6.98612">
        <ele>1196.076379</ele>
        <time>2015-03-15T14:29:11Z</time>
      </trkpt>
      <trkpt lat="48.00987" lon="6.98627">
        <ele>1195.326726</ele>
        <time>2015-03-15T14:29:40Z</time>
      </trkpt>
      <trkpt lat="48.00985" lon="6.98623">
        <ele>1195.189634</ele>
        <time>2015-03-15T14:29:51Z</time>
      </trkpt>
      <trkpt lat="48.0098" lon="6.98626">
        <ele>1195.153248</ele>
        <time>2015-03-15T14:29:55Z</time>
      </trkpt>
      <trkpt lat="48.00974" lon="6.98646">
        <ele>1194.742172</ele>
        <time>2015-03-15T14:30:11Z</time>
      </trkpt>
      <trkpt lat="48.00969" lon="6.98657">
        <ele>1194.685263</ele>
        <time>2015-03-15T14:30:19Z</time>
      </trkpt>
      <trkpt lat="48.00957" lon="6.98671">
        <ele>1195.129715</ele>
        <time>2015-03-15T14:30:35Z</time>
      </trkpt>
      <trkpt lat="48.00956" lon="6.9867">
        <ele>1195.602939</ele>
        <time>2015-03-15T14:31:14Z</time>
      </trkpt>
      <trkpt lat="48.00956" lon="6.98668">
        <ele>1195.700369</ele>
        <time>2015-03-15T14:31:19Z</time>
      </trkpt>
      <trkpt lat="48.00954" lon="6.98664">
        <ele>1195.572609</ele>
        <time>2015-03-15T14:31:27Z</time>
      </trkpt>
      <trkpt lat="48.00955" lon="6.98663">
        <ele>1195.834701</ele>
        <time>2015-03-15T14:31:29Z</time>
      </trkpt>
      <trkpt lat="48.00949" lon="6.98658">
        <ele>1195.757012</ele>
        <time>2015-03-15T14:31:45Z</time>
      </trkpt>
      <trkpt lat="48.00945" lon="6.98652">
        <ele>1195.457269</ele>
        <time>2015-03-15T14:31:53Z</time>
      </trkpt>
      <trkpt lat="48.0094" lon="6.98657">
        <ele>1195.375129</ele>
        <time>2015-03-15T14:32:14Z</time>
      </trkpt>
      <trkpt lat="48.00945" lon="6.98657">
        <ele>1195.018651</ele>
        <time>2015-03-15T14:32:26Z</time>
      </trkpt>
      <trkpt lat="48.00942" lon="6.9866">
        <ele>1192.425654</ele>
        <time>2015-03-15T14:32:34Z</time>
      </trkpt>
      <trkpt lat="48.00938" lon="6.98686">
        <ele>1184.66718</ele>
        <time>2015-03-15T14:33:10Z</time>
      </trkpt>
      <trkpt lat="48.00941" lon="6.9869">
        <ele>1183.024965</ele>
        <time>2015-03-15T14:33:18Z</time>
      </trkpt>
      <trkpt lat="48.00936" lon="6.98698">
        <ele>1181.879061</ele>
        <time>2015-03-15T14:33:24Z</time>
      </trkpt>
      <trkpt lat="48.00936" lon="6.98706">
        <ele>1181.076562</ele>
        <time>2015-03-15T14:34:04Z</time>
      </trkpt>
      <trkpt lat="48.00934" lon="6.98712">
        <ele>1192.895386</ele>
        <time>2015-03-15T14:34:08Z</time>
      </trkpt>
      <trkpt lat="48.00936" lon="6.98714">
        <ele>1192.204468</ele>
        <time>2015-03-15T14:34:16Z</time>
      </trkpt>
      <trkpt lat="48.00932" lon="6.98721">
        <ele>1195.758301</ele>
        <time>2015-03-15T14:34:33Z</time>
      </trkpt>
      <trkpt lat="48.00934" lon="6.98719">
        <ele>1193.810181</ele>
        <time>2015-03-15T14:35:05Z</time>
      </trkpt>
      <trkpt lat="48.00928" lon="6.98731">
        <ele>1193.668579</ele>
        <time>2015-03-15T14:35:21Z</time>
      </trkpt>
      <trkpt lat="48.00921" lon="6.98764">
        <ele>1172.32875</ele>
        <time>2015-03-15T14:36:38Z</time>
      </trkpt>
      <trkpt lat="48.00924" lon="6.98767">
        <ele>1172.946214</ele>
        <time>2015-03-15T14:36:43Z</time>
      </trkpt>
      <trkpt lat="48.00924" lon="6.98771">
        <ele>1172.892951</ele>
        <time>2015-03-15T14:36:47Z</time>
      </trkpt>
      <trkpt lat="48.00919" lon="6.98757">
        <ele>1173.088397</ele>
        <time>2015-03-15T14:37:07Z</time>
      </trkpt>
      <trkpt lat="48.00918" lon="6.98764">
        <ele>1172.141627</ele>
        <time>2015-03-15T14:37:15Z</time>
      </trkpt>
      <trkpt lat="48.00921" lon="6.98765">
        <ele>1171.946264</ele>
        <time>2015-03-15T14:37:23Z</time>
      </trkpt>
      <trkpt lat="48.00921" lon="6.98762">
        <ele>1171.972885</ele>
        <time>2015-03-15T14:37:27Z</time>
      </trkpt>
      <trkpt lat="48.00923" lon="6.9876">
        <ele>1171.942289</ele>
        <time>2015-03-15T14:37:32Z</time>
      </trkpt>
      <trkpt lat="48.0092" lon="6.98748">
        <ele>1182.60083</ele>
        <time>2015-03-15T14:41:25Z</time>
      </trkpt>
      <trkpt lat="48.009" lon="6.98735">
        <ele>1185.492282</ele>
        <time>2015-03-15T14:45:00Z</time>
      </trkpt>
      <trkpt lat="48.00896" lon="6.98729">
        <ele>1186.117915</ele>
        <time>2015-03-15T14:45:11Z</time>
      </trkpt>
      <trkpt lat="48.00897" lon="6.98726">
        <ele>1186.176089</ele>
        <time>2015-03-15T14:45:16Z</time>
      </trkpt>
      <trkpt lat="48.00896" lon="6.98723">
        <ele>1186.55387</ele>
        <time>2015-03-15T14:45:27Z</time>
      </trkpt>
      <trkpt lat="48.009" lon="6.98729">
        <ele>1187.704218</ele>
        <time>2015-03-15T14:45:40Z</time>
      </trkpt>
      <trkpt lat="48.009" lon="6.98734">
        <ele>1188.187097</ele>
        <time>2015-03-15T14:45:48Z</time>
      </trkpt>
      <trkpt lat="48.00898" lon="6.98737">
        <ele>1188.876939</ele>
        <time>2015-03-15T14:45:52Z</time>
      </trkpt>
      <trkpt lat="48.00898" lon="6.98752">
        <ele>1190.051169</ele>
        <time>2015-03-15T14:46:08Z</time>
      </trkpt>
      <trkpt lat="48.00895" lon="6.98758">
        <ele>1192.95898</ele>
        <time>2015-03-15T14:46:47Z</time>
      </trkpt>
      <trkpt lat="48.00889" lon="6.98759">
        <ele>1194.629047</ele>
        <time>2015-03-15T14:47:14Z</time>
      </trkpt>
      <trkpt lat="48.00883" lon="6.98767">
        <ele>1195.805709</ele>
        <time>2015-03-15T14:47:34Z</time>
      </trkpt>
      <trkpt lat="48.0088" lon="6.98766">
        <ele>1196.345193</ele>
        <time>2015-03-15T14:47:42Z</time>
      </trkpt>
      <trkpt lat="48.00872" lon="6.98759">
        <ele>1197.368591</ele>
        <time>2015-03-15T14:47:54Z</time>
      </trkpt>
      <trkpt lat="48.0088" lon="6.98752">
        <ele>1196.462855</ele>
        <time>2015-03-15T14:48:24Z</time>
      </trkpt>
      <trkpt lat="48.00882" lon="6.98748">
        <ele>1196.256573</ele>
        <time>2015-03-15T14:48:35Z</time>
      </trkpt>
      <trkpt lat="48.00873" lon="6.9876">
        <ele>1197.771137</ele>
        <time>2015-03-15T14:48:49Z</time>
      </trkpt>
      <trkpt lat="48.00874" lon="6.98765">
        <ele>1197.311634</ele>
        <time>2015-03-15T14:49:17Z</time>
      </trkpt>
      <trkpt lat="48.00872" lon="6.98764">
        <ele>1197.152963</ele>
        <time>2015-03-15T14:49:30Z</time>
      </trkpt>
      <trkpt lat="48.00873" lon="6.98769">
        <ele>1197.47296</ele>
        <time>2015-03-15T14:50:29Z</time>
      </trkpt>
      <trkpt lat="48.00872" lon="6.98775">
        <ele>1198.580059</ele>
        <time>2015-03-15T14:51:20Z</time>
      </trkpt>
      <trkpt lat="48.0087" lon="6.98777">
        <ele>1198.351912</ele>
        <time>2015-03-15T14:51:29Z</time>
      </trkpt>
      <trkpt lat="48.00872" lon="6.98767">
        <ele>1196.299975</ele>
        <time>2015-03-15T14:51:45Z</time>
      </trkpt>
      <trkpt lat="48.00874" lon="6.98774">
        <ele>1196.435098</ele>
        <time>2015-03-15T14:52:20Z</time>
      </trkpt>
      <trkpt lat="48.00872" lon="6.98767">
        <ele>1193.848267</ele>
        <time>2015-03-15T14:52:30Z</time>
      </trkpt>
      <trkpt lat="48.00873" lon="6.98762">
        <ele>1192.780273</ele>
        <time>2015-03-15T14:53:08Z</time>
      </trkpt>
      <trkpt lat="48.00871" lon="6.98766">
        <ele>1191.490967</ele>
        <time>2015-03-15T14:53:24Z</time>
      </trkpt>
      <trkpt lat="48.00873" lon="6.98779">
        <ele>1188.626953</ele>
        <time>2015-03-15T14:53:56Z</time>
      </trkpt>
      <trkpt lat="48.00868" lon="6.98789">
        <ele>1185.776245</ele>
        <time>2015-03-15T14:54:36Z</time>
      </trkpt>
      <trkpt lat="48.00867" lon="6.98802">
        <ele>1186.081177</ele>
        <time>2015-03-15T14:54:52Z</time>
      </trkpt>
      <trkpt lat="48.00864" lon="6.98815">
        <ele>1180.648804</ele>
        <time>2015-03-15T14:55:04Z</time>
      </trkpt>
      <trkpt lat="48.00861" lon="6.98818">
        <ele>1179.839233</ele>
        <time>2015-03-15T14:55:08Z</time>
      </trkpt>
      <trkpt lat="48.00855" lon="6.98845">
        <ele>1176.866699</ele>
        <time>2015-03-15T14:56:10Z</time>
      </trkpt>
      <trkpt lat="48.00858" lon="6.98854">
        <ele>1176.268433</ele>
        <time>2015-03-15T14:56:18Z</time>
      </trkpt>
      <trkpt lat="48.00857" lon="6.98872">
        <ele>1173.928101</ele>
        <time>2015-03-15T14:56:50Z</time>
      </trkpt>
      <trkpt lat="48.00859" lon="6.98889">
        <ele>1169.266602</ele>
        <time>2015-03-15T14:57:06Z</time>
      </trkpt>
      <trkpt lat="48.00859" lon="6.989">
        <ele>1164.075046</ele>
        <time>2015-03-15T14:57:52Z</time>
      </trkpt>
      <trkpt lat="48.00862" lon="6.98911">
        <ele>1159.524974</ele>
        <time>2015-03-15T14:58:08Z</time>
      </trkpt>
      <trkpt lat="48.00863" lon="6.98951">
        <ele>1152.590376</ele>
        <time>2015-03-15T14:58:46Z</time>
      </trkpt>
      <trkpt lat="48.00865" lon="6.98948">
        <ele>1151.428316</ele>
        <time>2015-03-15T14:59:44Z</time>
      </trkpt>
      <trkpt lat="48.00864" lon="6.98948">
        <ele>1151.723197</ele>
        <time>2015-03-15T14:59:58Z</time>
      </trkpt>
      <trkpt lat="48.00866" lon="6.98941">
        <ele>1152.971164</ele>
        <time>2015-03-15T15:00:10Z</time>
      </trkpt>
      <trkpt lat="48.00862" lon="6.98941">
        <ele>1152.884831</ele>
        <time>2015-03-15T15:00:27Z</time>
      </trkpt>
      <trkpt lat="48.00866" lon="6.98938">
        <ele>1152.8108</ele>
        <time>2015-03-15T15:00:43Z</time>
      </trkpt>
      <trkpt lat="48.00872" lon="6.98947">
        <ele>1150.407826</ele>
        <time>2015-03-15T15:00:51Z</time>
      </trkpt>
      <trkpt lat="48.00873" lon="6.98952">
        <ele>1149.230669</ele>
        <time>2015-03-15T15:00:57Z</time>
      </trkpt>
      <trkpt lat="48.00872" lon="6.98954">
        <ele>1149.024512</ele>
        <time>2015-03-15T15:01:05Z</time>
      </trkpt>
      <trkpt lat="48.00872" lon="6.98947">
        <ele>1150.299152</ele>
        <time>2015-03-15T15:01:32Z</time>
      </trkpt>
      <trkpt lat="48.00871" lon="6.98941">
        <ele>1150.079384</ele>
        <time>2015-03-15T15:02:20Z</time>
      </trkpt>
      <trkpt lat="48.00869" lon="6.98943">
        <ele>1150.048022</ele>
        <time>2015-03-15T15:02:47Z</time>
      </trkpt>
      <trkpt lat="48.00897" lon="6.98982">
        <ele>1134.036808</ele>
        <time>2015-03-15T15:03:37Z</time>
      </trkpt>
      <trkpt lat="48.00902" lon="6.98992">
        <ele>1131.608438</ele>
        <time>2015-03-15T15:03:45Z</time>
      </trkpt>
      <trkpt lat="48.00908" lon="6.98995">
        <ele>1129.34677</ele>
        <time>2015-03-15T15:03:53Z</time>
      </trkpt>
      <trkpt lat="48.00908" lon="6.98998">
        <ele>1128.332403</ele>
        <time>2015-03-15T15:03:57Z</time>
      </trkpt>
      <trkpt lat="48.00927" lon="6.99016">
        <ele>1118.595577</ele>
        <time>2015-03-15T15:04:26Z</time>
      </trkpt>
      <trkpt lat="48.0093" lon="6.99015">
        <ele>1117.699218</ele>
        <time>2015-03-15T15:04:36Z</time>
      </trkpt>
      <trkpt lat="48.00938" lon="6.99024">
        <ele>1112.51195</ele>
        <time>2015-03-15T15:05:33Z</time>
      </trkpt>
      <trkpt lat="48.00936" lon="6.9903">
        <ele>1134.374512</ele>
        <time>2015-03-15T15:05:53Z</time>
      </trkpt>
      <trkpt lat="48.0094" lon="6.99029">
        <ele>1128.7323</ele>
        <time>2015-03-15T15:06:01Z</time>
      </trkpt>
      <trkpt lat="48.00942" lon="6.99025">
        <ele>1123.559814</ele>
        <time>2015-03-15T15:06:17Z</time>
      </trkpt>
      <trkpt lat="48.00946" lon="6.99029">
        <ele>1124.465576</ele>
        <time>2015-03-15T15:06:33Z</time>
      </trkpt>
      <trkpt lat="48.00958" lon="6.99029">
        <ele>1121.863892</ele>
        <time>2015-03-15T15:07:05Z</time>
      </trkpt>
      <trkpt lat="48.00956" lon="6.99041">
        <ele>1115.375366</ele>
        <time>2015-03-15T15:07:37Z</time>
      </trkpt>
      <trkpt lat="48.00958" lon="6.99041">
        <ele>1113.312744</ele>
        <time>2015-03-15T15:07:59Z</time>
      </trkpt>
      <trkpt lat="48.00961" lon="6.99045">
        <ele>1113.107422</ele>
        <time>2015-03-15T15:08:15Z</time>
      </trkpt>
      <trkpt lat="48.00965" lon="6.99046">
        <ele>1108.480835</ele>
        <time>2015-03-15T15:08:31Z</time>
      </trkpt>
      <trkpt lat="48.00974" lon="6.99059">
        <ele>1100.598999</ele>
        <time>2015-03-15T15:08:57Z</time>
      </trkpt>
      <trkpt lat="48.0098" lon="6.99055">
        <ele>1073.224552</ele>
        <time>2015-03-15T15:09:17Z</time>
      </trkpt>
      <trkpt lat="48.00985" lon="6.9905">
        <ele>1071.267557</ele>
        <time>2015-03-15T15:09:25Z</time>
      </trkpt>
      <trkpt lat="48.00988" lon="6.99044">
        <ele>1070.452846</ele>
        <time>2015-03-15T15:09:29Z</time>
      </trkpt>
      <trkpt lat="48.00998" lon="6.99032">
        <ele>1068.136127</ele>
        <time>2015-03-15T15:09:41Z</time>
      </trkpt>
      <trkpt lat="48.01002" lon="6.99034">
        <ele>1085.422607</ele>
        <time>2015-03-15T15:09:49Z</time>
      </trkpt>
      <trkpt lat="48.01002" lon="6.99032">
        <ele>1068.562045</ele>
        <time>2015-03-15T15:10:06Z</time>
      </trkpt>
      <trkpt lat="48.01004" lon="6.99041">
        <ele>1082.0979</ele>
        <time>2015-03-15T15:10:33Z</time>
      </trkpt>
      <trkpt lat="48.01004" lon="6.99048">
        <ele>1079.229614</ele>
        <time>2015-03-15T15:10:50Z</time>
      </trkpt>
      <trkpt lat="48.01015" lon="6.99064">
        <ele>1059.329631</ele>
        <time>2015-03-15T15:11:06Z</time>
      </trkpt>
      <trkpt lat="48.01023" lon="6.99088">
        <ele>1055.170374</ele>
        <time>2015-03-15T15:11:22Z</time>
      </trkpt>
      <trkpt lat="48.01028" lon="6.99095">
        <ele>1053.689353</ele>
        <time>2015-03-15T15:11:26Z</time>
      </trkpt>
      <trkpt lat="48.01034" lon="6.99099">
        <ele>1052.800392</ele>
        <time>2015-03-15T15:11:34Z</time>
      </trkpt>
      <trkpt lat="48.01034" lon="6.99103">
        <ele>1052.698475</ele>
        <time>2015-03-15T15:11:38Z</time>
      </trkpt>
      <trkpt lat="48.01032" lon="6.99111">
        <ele>1053.019803</ele>
        <time>2015-03-15T15:11:42Z</time>
      </trkpt>
      <trkpt lat="48.01026" lon="6.99117">
        <ele>1053.675756</ele>
        <time>2015-03-15T15:13:03Z</time>
      </trkpt>
      <trkpt lat="48.01027" lon="6.99109">
        <ele>1053.574209</ele>
        <time>2015-03-15T15:14:44Z</time>
      </trkpt>
      <trkpt lat="48.01026" lon="6.99111">
        <ele>1054.094272</ele>
        <time>2015-03-15T15:14:56Z</time>
      </trkpt>
      <trkpt lat="48.01024" lon="6.9911">
        <ele>1054.87977</ele>
        <time>2015-03-15T15:15:19Z</time>
      </trkpt>
      <trkpt lat="48.01028" lon="6.99098">
        <ele>1051.839361</ele>
        <time>2015-03-15T15:15:32Z</time>
      </trkpt>
      <trkpt lat="48.01027" lon="6.99078">
        <ele>1050.541902</ele>
        <time>2015-03-15T15:15:40Z</time>
      </trkpt>
      <trkpt lat="48.01025" lon="6.99057">
        <ele>1049.411288</ele>
        <time>2015-03-15T15:15:55Z</time>
      </trkpt>
      <trkpt lat="48.01025" lon="6.99035">
        <ele>1042.733956</ele>
        <time>2015-03-15T15:16:27Z</time>
      </trkpt>
      <trkpt lat="48.01024" lon="6.99028">
        <ele>1042.755094</ele>
        <time>2015-03-15T15:16:31Z</time>
      </trkpt>
      <trkpt lat="48.01029" lon="6.99027">
        <ele>1042.012815</ele>
        <time>2015-03-15T15:16:46Z</time>
      </trkpt>
      <trkpt lat="48.0103" lon="6.99014">
        <ele>1040.624132</ele>
        <time>2015-03-15T15:17:01Z</time>
      </trkpt>
      <trkpt lat="48.01025" lon="6.99015">
        <ele>1040.622559</ele>
        <time>2015-03-15T15:17:05Z</time>
      </trkpt>
      <trkpt lat="48.01024" lon="6.99009">
        <ele>1040.090711</ele>
        <time>2015-03-15T15:17:09Z</time>
      </trkpt>
      <trkpt lat="48.01028" lon="6.98993">
        <ele>1038.058914</ele>
        <time>2015-03-15T15:17:21Z</time>
      </trkpt>
      <trkpt lat="48.01025" lon="6.98989">
        <ele>1037.672698</ele>
        <time>2015-03-15T15:17:23Z</time>
      </trkpt>
      <trkpt lat="48.01024" lon="6.98995">
        <ele>1037.473735</ele>
        <time>2015-03-15T15:17:28Z</time>
      </trkpt>
      <trkpt lat="48.01023" lon="6.98991">
        <ele>1037.157434</ele>
        <time>2015-03-15T15:17:30Z</time>
      </trkpt>
      <trkpt lat="48.01028" lon="6.98991">
        <ele>1035.861185</ele>
        <time>2015-03-15T15:17:34Z</time>
      </trkpt>
      <trkpt lat="48.01023" lon="6.98983">
        <ele>1046.680664</ele>
        <time>2015-03-15T15:17:50Z</time>
      </trkpt>
      <trkpt lat="48.01025" lon="6.98978">
        <ele>1048.283691</ele>
        <time>2015-03-15T15:17:59Z</time>
      </trkpt>
      <trkpt lat="48.01029" lon="6.98979">
        <ele>1047.677979</ele>
        <time>2015-03-15T15:18:03Z</time>
      </trkpt>
      <trkpt lat="48.01035" lon="6.98983">
        <ele>1047.179077</ele>
        <time>2015-03-15T15:18:06Z</time>
      </trkpt>
      <trkpt lat="48.01033" lon="6.98969">
        <ele>1045.49646</ele>
        <time>2015-03-15T15:18:10Z</time>
      </trkpt>
      <trkpt lat="48.01042" lon="6.98964">
        <ele>1043.464111</ele>
        <time>2015-03-15T15:18:26Z</time>
      </trkpt>
      <trkpt lat="48.01037" lon="6.98941">
        <ele>1043.400024</ele>
        <time>2015-03-15T15:18:38Z</time>
      </trkpt>
      <trkpt lat="48.01048" lon="6.98976">
        <ele>1037.625244</ele>
        <time>2015-03-15T15:19:14Z</time>
      </trkpt>
      <trkpt lat="48.01057" lon="6.98982">
        <ele>1036.497437</ele>
        <time>2015-03-15T15:19:56Z</time>
      </trkpt>
      <trkpt lat="48.01054" lon="6.98985">
        <ele>1034.771606</ele>
        <time>2015-03-15T15:20:00Z</time>
      </trkpt>
      <trkpt lat="48.01056" lon="6.98995">
        <ele>1030.64856</ele>
        <time>2015-03-15T15:20:08Z</time>
      </trkpt>
      <trkpt lat="48.0106" lon="6.99006">
        <ele>1027.846558</ele>
        <time>2015-03-15T15:20:12Z</time>
      </trkpt>
      <trkpt lat="48.0106" lon="6.99011">
        <ele>1027.071533</ele>
        <time>2015-03-15T15:20:14Z</time>
      </trkpt>
      <trkpt lat="48.01057" lon="6.99018">
        <ele>1026.3361</ele>
        <time>2015-03-15T15:23:19Z</time>
      </trkpt>
      <trkpt lat="48.01052" lon="6.99021">
        <ele>1026.631548</ele>
        <time>2015-03-15T15:23:25Z</time>
      </trkpt>
      <trkpt lat="48.01065" lon="6.99026">
        <ele>1026.423621</ele>
        <time>2015-03-15T15:23:56Z</time>
      </trkpt>
      <trkpt lat="48.01068" lon="6.99031">
        <ele>1045.822144</ele>
        <time>2015-03-15T15:24:12Z</time>
      </trkpt>
      <trkpt lat="48.01068" lon="6.99025">
        <ele>1046.561279</ele>
        <time>2015-03-15T15:24:37Z</time>
      </trkpt>
      <trkpt lat="48.01069" lon="6.99022">
        <ele>1045.417969</ele>
        <time>2015-03-15T15:24:41Z</time>
      </trkpt>
      <trkpt lat="48.01067" lon="6.99018">
        <ele>1045.365479</ele>
        <time>2015-03-15T15:25:20Z</time>
      </trkpt>
      <trkpt lat="48.01056" lon="6.99011">
        <ele>1029.794189</ele>
        <time>2015-03-15T15:25:36Z</time>
      </trkpt>
      <trkpt lat="48.01057" lon="6.99006">
        <ele>1031.437866</ele>
        <time>2015-03-15T15:25:40Z</time>
      </trkpt>
      <trkpt lat="48.01054" lon="6.98987">
        <ele>1029.954102</ele>
        <time>2015-03-15T15:25:48Z</time>
      </trkpt>
      <trkpt lat="48.01054" lon="6.98976">
        <ele>1033.906494</ele>
        <time>2015-03-15T15:25:54Z</time>
      </trkpt>
      <trkpt lat="48.01057" lon="6.98977">
        <ele>1031.578735</ele>
        <time>2015-03-15T15:25:58Z</time>
      </trkpt>
      <trkpt lat="48.01059" lon="6.98993">
        <ele>1031.12146</ele>
        <time>2015-03-15T15:26:06Z</time>
      </trkpt>
      <trkpt lat="48.01066" lon="6.99011">
        <ele>1031.28772</ele>
        <time>2015-03-15T15:26:14Z</time>
      </trkpt>
      <trkpt lat="48.01071" lon="6.99019">
        <ele>1027.016968</ele>
        <time>2015-03-15T15:26:22Z</time>
      </trkpt>
      <trkpt lat="48.01072" lon="6.99026">
        <ele>1025.505737</ele>
        <time>2015-03-15T15:26:26Z</time>
      </trkpt>
      <trkpt lat="48.01075" lon="6.99031">
        <ele>1027.57373</ele>
        <time>2015-03-15T15:26:30Z</time>
      </trkpt>
      <trkpt lat="48.01077" lon="6.9903">
        <ele>1028.905518</ele>
        <time>2015-03-15T15:26:34Z</time>
      </trkpt>
      <trkpt lat="48.01077" lon="6.99028">
        <ele>1028.290039</ele>
        <time>2015-03-15T15:26:51Z</time>
      </trkpt>
      <trkpt lat="48.01086" lon="6.99029">
        <ele>1033.481934</ele>
        <time>2015-03-15T15:26:59Z</time>
      </trkpt>
      <trkpt lat="48.01099" lon="6.99036">
        <ele>1033.842773</ele>
        <time>2015-03-15T15:27:07Z</time>
      </trkpt>
      <trkpt lat="48.01097" lon="6.99048">
        <ele>1030.38501</ele>
        <time>2015-03-15T15:27:15Z</time>
      </trkpt>
      <trkpt lat="48.01097" lon="6.99062">
        <ele>1021.784424</ele>
        <time>2015-03-15T15:27:27Z</time>
      </trkpt>
      <trkpt lat="48.01095" lon="6.99061">
        <ele>1021.62854</ele>
        <time>2015-03-15T15:27:43Z</time>
      </trkpt>
      <trkpt lat="48.01098" lon="6.99064">
        <ele>1020.670166</ele>
        <time>2015-03-15T15:27:51Z</time>
      </trkpt>
      <trkpt lat="48.01102" lon="6.99075">
        <ele>1019.996948</ele>
        <time>2015-03-15T15:27:55Z</time>
      </trkpt>
      <trkpt lat="48.01104" lon="6.99085">
        <ele>1008.056885</ele>
        <time>2015-03-15T15:28:03Z</time>
      </trkpt>
      <trkpt lat="48.01105" lon="6.99069">
        <ele>993.080322</ele>
        <time>2015-03-15T15:28:13Z</time>
      </trkpt>
      <trkpt lat="48.01113" lon="6.99073">
        <ele>993.261963</ele>
        <time>2015-03-15T15:28:19Z</time>
      </trkpt>
      <trkpt lat="48.01121" lon="6.99069">
        <ele>990.82019</ele>
        <time>2015-03-15T15:28:31Z</time>
      </trkpt>
      <trkpt lat="48.0113" lon="6.99079">
        <ele>991.298462</ele>
        <time>2015-03-15T15:28:39Z</time>
      </trkpt>
      <trkpt lat="48.01145" lon="6.99084">
        <ele>991.171997</ele>
        <time>2015-03-15T15:28:47Z</time>
      </trkpt>
      <trkpt lat="48.01145" lon="6.99087">
        <ele>991.93396</ele>
        <time>2015-03-15T15:28:59Z</time>
      </trkpt>
      <trkpt lat="48.01156" lon="6.99107">
        <ele>990.119751</ele>
        <time>2015-03-15T15:29:23Z</time>
      </trkpt>
      <trkpt lat="48.01175" lon="6.99127">
        <ele>995.028809</ele>
        <time>2015-03-15T15:29:47Z</time>
      </trkpt>
      <trkpt lat="48.01185" lon="6.9913">
        <ele>983.981445</ele>
        <time>2015-03-15T15:30:11Z</time>
      </trkpt>
      <trkpt lat="48.01197" lon="6.99156">
        <ele>975.913574</ele>
        <time>2015-03-15T15:30:27Z</time>
      </trkpt>
      <trkpt lat="48.01208" lon="6.99171">
        <ele>974.030762</ele>
        <time>2015-03-15T15:30:43Z</time>
      </trkpt>
      <trkpt lat="48.01206" lon="6.99173">
        <ele>974.811768</ele>
        <time>2015-03-15T15:31:00Z</time>
      </trkpt>
      <trkpt lat="48.0121" lon="6.99174">
        <ele>974.435547</ele>
        <time>2015-03-15T15:31:09Z</time>
      </trkpt>
      <trkpt lat="48.0122" lon="6.99181">
        <ele>970.611816</ele>
        <time>2015-03-15T15:31:17Z</time>
      </trkpt>
      <trkpt lat="48.01225" lon="6.99189">
        <ele>971.698975</ele>
        <time>2015-03-15T15:31:21Z</time>
      </trkpt>
      <trkpt lat="48.01241" lon="6.99196">
        <ele>971.631836</ele>
        <time>2015-03-15T15:32:25Z</time>
      </trkpt>
      <trkpt lat="48.01243" lon="6.99188">
        <ele>965.865723</ele>
        <time>2015-03-15T15:32:35Z</time>
      </trkpt>
      <trkpt lat="48.0125" lon="6.99192">
        <ele>958.226318</ele>
        <time>2015-03-15T15:32:40Z</time>
      </trkpt>
      <trkpt lat="48.01246" lon="6.99193">
        <ele>957.820801</ele>
        <time>2015-03-15T15:32:56Z</time>
      </trkpt>
      <trkpt lat="48.01251" lon="6.99198">
        <ele>955.691772</ele>
        <time>2015-03-15T15:33:04Z</time>
      </trkpt>
      <trkpt lat="48.01274" lon="6.99205">
        <ele>947.713257</ele>
        <time>2015-03-15T15:33:50Z</time>
      </trkpt>
      <trkpt lat="48.01275" lon="6.99209">
        <ele>946.91748</ele>
        <time>2015-03-15T15:33:52Z</time>
      </trkpt>
      <trkpt lat="48.01272" lon="6.99214">
        <ele>943.725342</ele>
        <time>2015-03-15T15:33:56Z</time>
      </trkpt>
      <trkpt lat="48.01261" lon="6.99219">
        <ele>935.466553</ele>
        <time>2015-03-15T15:35:00Z</time>
      </trkpt>
      <trkpt lat="48.01257" lon="6.99229">
        <ele>933.115601</ele>
        <time>2015-03-15T15:35:08Z</time>
      </trkpt>
      <trkpt lat="48.0125" lon="6.99239">
        <ele>927.255615</ele>
        <time>2015-03-15T15:35:16Z</time>
      </trkpt>
      <trkpt lat="48.01249" lon="6.99237">
        <ele>927.172607</ele>
        <time>2015-03-15T15:35:20Z</time>
      </trkpt>
      <trkpt lat="48.01237" lon="6.9926">
        <ele>920.35376</ele>
        <time>2015-03-15T15:35:36Z</time>
      </trkpt>
      <trkpt lat="48.01214" lon="6.99276">
        <ele>924.135254</ele>
        <time>2015-03-15T15:36:00Z</time>
      </trkpt>
      <trkpt lat="48.01203" lon="6.99292">
        <ele>929.207886</ele>
        <time>2015-03-15T15:36:16Z</time>
      </trkpt>
      <trkpt lat="48.01197" lon="6.99298">
        <ele>932.513428</ele>
        <time>2015-03-15T15:36:24Z</time>
      </trkpt>
      <trkpt lat="48.01173" lon="6.99337">
        <ele>946.284668</ele>
        <time>2015-03-15T15:37:12Z</time>
      </trkpt>
      <trkpt lat="48.01169" lon="6.99375">
        <ele>946.822021</ele>
        <time>2015-03-15T15:37:52Z</time>
      </trkpt>
      <trkpt lat="48.01148" lon="6.99406">
        <ele>942.69458</ele>
        <time>2015-03-15T15:38:24Z</time>
      </trkpt>
      <trkpt lat="48.01139" lon="6.99427">
        <ele>943.273438</ele>
        <time>2015-03-15T15:38:40Z</time>
      </trkpt>
      <trkpt lat="48.01135" lon="6.9943">
        <ele>942.535645</ele>
        <time>2015-03-15T15:38:44Z</time>
      </trkpt>
      <trkpt lat="48.01131" lon="6.99429">
        <ele>939.581299</ele>
        <time>2015-03-15T15:38:48Z</time>
      </trkpt>
      <trkpt lat="48.01127" lon="6.99425">
        <ele>939.196777</ele>
        <time>2015-03-15T15:38:52Z</time>
      </trkpt>
      <trkpt lat="48.01123" lon="6.99424">
        <ele>939.341309</ele>
        <time>2015-03-15T15:38:56Z</time>
      </trkpt>
      <trkpt lat="48.01115" lon="6.9943">
        <ele>925.665271</ele>
        <time>2015-03-15T15:39:04Z</time>
      </trkpt>
      <trkpt lat="48.01096" lon="6.99454">
        <ele>926.277374</ele>
        <time>2015-03-15T15:39:20Z</time>
      </trkpt>
      <trkpt lat="48.01099" lon="6.99459">
        <ele>925.701776</ele>
        <time>2015-03-15T15:39:28Z</time>
      </trkpt>
      <trkpt lat="48.01102" lon="6.99461">
        <ele>925.806862</ele>
        <time>2015-03-15T15:39:30Z</time>
      </trkpt>
      <trkpt lat="48.01099" lon="6.99484">
        <ele>925.900311</ele>
        <time>2015-03-15T15:39:40Z</time>
      </trkpt>
      <trkpt lat="48.01093" lon="6.99483">
        <ele>925.800142</ele>
        <time>2015-03-15T15:39:48Z</time>
      </trkpt>
      <trkpt lat="48.01093" lon="6.99489">
        <ele>925.697966</ele>
        <time>2015-03-15T15:39:56Z</time>
      </trkpt>
      <trkpt lat="48.01089" lon="6.995">
        <ele>925.702053</ele>
        <time>2015-03-15T15:40:04Z</time>
      </trkpt>
      <trkpt lat="48.01088" lon="6.99512">
        <ele>925.750336</ele>
        <time>2015-03-15T15:40:10Z</time>
      </trkpt>
      <trkpt lat="48.01085" lon="6.99524">
        <ele>926.163696</ele>
        <time>2015-03-15T15:40:18Z</time>
      </trkpt>
      <trkpt lat="48.0108" lon="6.99534">
        <ele>926.797026</ele>
        <time>2015-03-15T15:40:26Z</time>
      </trkpt>
      <trkpt lat="48.01078" lon="6.99544">
        <ele>926.95928</ele>
        <time>2015-03-15T15:40:36Z</time>
      </trkpt>
      <trkpt lat="48.01078" lon="6.99553">
        <ele>927.27943</ele>
        <time>2015-03-15T15:40:40Z</time>
      </trkpt>
      <trkpt lat="48.01083" lon="6.99569">
        <ele>927.442038</ele>
        <time>2015-03-15T15:40:48Z</time>
      </trkpt>
      <trkpt lat="48.01082" lon="6.99577">
        <ele>927.576036</ele>
        <time>2015-03-15T15:40:52Z</time>
      </trkpt>
      <trkpt lat="48.01073" lon="6.99583">
        <ele>927.863917</ele>
        <time>2015-03-15T15:41:00Z</time>
      </trkpt>
      <trkpt lat="48.01069" lon="6.99597">
        <ele>928.274864</ele>
        <time>2015-03-15T15:41:10Z</time>
      </trkpt>
      <trkpt lat="48.01065" lon="6.99598">
        <ele>928.101573</ele>
        <time>2015-03-15T15:41:14Z</time>
      </trkpt>
      <trkpt lat="48.01056" lon="6.99613">
        <ele>927.933828</ele>
        <time>2015-03-15T15:41:22Z</time>
      </trkpt>
      <trkpt lat="48.01058" lon="6.99617">
        <ele>927.887198</ele>
        <time>2015-03-15T15:41:26Z</time>
      </trkpt>
      <trkpt lat="48.01058" lon="6.99625">
        <ele>927.850475</ele>
        <time>2015-03-15T15:41:34Z</time>
      </trkpt>
      <trkpt lat="48.01052" lon="6.99637">
        <ele>925.796194</ele>
        <time>2015-03-15T15:41:50Z</time>
      </trkpt>
      <trkpt lat="48.01052" lon="6.99647">
        <ele>925.317738</ele>
        <time>2015-03-15T15:41:58Z</time>
      </trkpt>
      <trkpt lat="48.01068" lon="6.99698">
        <ele>923.934553</ele>
        <time>2015-03-15T15:42:30Z</time>
      </trkpt>
      <trkpt lat="48.01066" lon="6.99715">
        <ele>924.015943</ele>
        <time>2015-03-15T15:42:40Z</time>
      </trkpt>
      <trkpt lat="48.01078" lon="6.99728">
        <ele>924.117005</ele>
        <time>2015-03-15T15:42:48Z</time>
      </trkpt>
      <trkpt lat="48.01076" lon="6.99735">
        <ele>924.183779</ele>
        <time>2015-03-15T15:42:52Z</time>
      </trkpt>
      <trkpt lat="48.01083" lon="6.99747">
        <ele>924.291983</ele>
        <time>2015-03-15T15:43:00Z</time>
      </trkpt>
      <trkpt lat="48.01086" lon="6.99769">
        <ele>925.413626</ele>
        <time>2015-03-15T15:43:17Z</time>
      </trkpt>
      <trkpt lat="48.0109" lon="6.99776">
        <ele>925.10753</ele>
        <time>2015-03-15T15:43:35Z</time>
      </trkpt>
      <trkpt lat="48.01104" lon="6.99778">
        <ele>925.550404</ele>
        <time>2015-03-15T15:43:46Z</time>
      </trkpt>
      <trkpt lat="48.01107" lon="6.99783">
        <ele>925.664142</ele>
        <time>2015-03-15T15:43:58Z</time>
      </trkpt>
      <trkpt lat="48.0112" lon="6.99762">
        <ele>926.181747</ele>
        <time>2015-03-15T15:44:18Z</time>
      </trkpt>
      <trkpt lat="48.01126" lon="6.99764">
        <ele>926.422164</ele>
        <time>2015-03-15T15:44:30Z</time>
      </trkpt>
      <trkpt lat="48.01128" lon="6.99768">
        <ele>926.139736</ele>
        <time>2015-03-15T15:44:32Z</time>
      </trkpt>
      <trkpt lat="48.01127" lon="6.99773">
        <ele>925.8187</ele>
        <time>2015-03-15T15:44:37Z</time>
      </trkpt>
      <trkpt lat="48.01121" lon="6.99771">
        <ele>925.249137</ele>
        <time>2015-03-15T15:45:21Z</time>
      </trkpt>
      <trkpt lat="48.0111" lon="6.99772">
        <ele>925.562973</ele>
        <time>2015-03-15T15:45:29Z</time>
      </trkpt>
      <trkpt lat="48.01107" lon="6.99775">
        <ele>925.577547</ele>
        <time>2015-03-15T15:45:34Z</time>
      </trkpt>
      <trkpt lat="48.01106" lon="6.99782">
        <ele>925.980936</ele>
        <time>2015-03-15T15:45:38Z</time>
      </trkpt>
      <trkpt lat="48.01102" lon="6.99783">
        <ele>926.122969</ele>
        <time>2015-03-15T15:45:42Z</time>
      </trkpt>
      <trkpt lat="48.01105" lon="6.99783">
        <ele>926.247803</ele>
        <time>2015-03-15T15:50:40Z</time>
      </trkpt>
      <trkpt lat="48.01104" lon="6.9978">
        <ele>926.57373</ele>
        <time>2015-03-15T15:53:17Z</time>
      </trkpt>
      <trkpt lat="48.01108" lon="6.9978">
        <ele>925.772339</ele>
        <time>2015-03-15T15:53:33Z</time>
      </trkpt>
      <trkpt lat="48.01104" lon="6.99787">
        <ele>922.52002</ele>
        <time>2015-03-15T15:53:41Z</time>
      </trkpt>
      <trkpt lat="48.01087" lon="6.99791">
        <ele>922.861084</ele>
        <time>2015-03-15T15:53:49Z</time>
      </trkpt>
      <trkpt lat="48.01084" lon="6.99794">
        <ele>923.608643</ele>
        <time>2015-03-15T15:53:51Z</time>
      </trkpt>
      <trkpt lat="48.01084" lon="6.99813">
        <ele>922.546387</ele>
        <time>2015-03-15T15:53:58Z</time>
      </trkpt>
      <trkpt lat="48.01079" lon="6.9982">
        <ele>925.200317</ele>
        <time>2015-03-15T15:54:02Z</time>
      </trkpt>
      <trkpt lat="48.01073" lon="6.99834">
        <ele>930.446533</ele>
        <time>2015-03-15T15:54:10Z</time>
      </trkpt>
      <trkpt lat="48.01074" lon="6.99838">
        <ele>930.942627</ele>
        <time>2015-03-15T15:54:14Z</time>
      </trkpt>
      <trkpt lat="48.01069" lon="6.99845">
        <ele>930.160156</ele>
        <time>2015-03-15T15:54:21Z</time>
      </trkpt>
      <trkpt lat="48.0107" lon="6.99841">
        <ele>930.134399</ele>
        <time>2015-03-15T15:54:37Z</time>
      </trkpt>
      <trkpt lat="48.01059" lon="6.9985">
        <ele>933.267578</ele>
        <time>2015-03-15T15:54:47Z</time>
      </trkpt>
      <trkpt lat="48.01057" lon="6.99855">
        <ele>935.112549</ele>
        <time>2015-03-15T15:54:51Z</time>
      </trkpt>
      <trkpt lat="48.0105" lon="6.9986">
        <ele>936.112915</ele>
        <time>2015-03-15T15:54:59Z</time>
      </trkpt>
      <trkpt lat="48.01052" lon="6.99866">
        <ele>935.442139</ele>
        <time>2015-03-15T15:55:03Z</time>
      </trkpt>
      <trkpt lat="48.01039" lon="6.99884">
        <ele>934.742188</ele>
        <time>2015-03-15T15:55:19Z</time>
      </trkpt>
      <trkpt lat="48.01038" lon="6.99893">
        <ele>932.567383</ele>
        <time>2015-03-15T15:55:27Z</time>
      </trkpt>
      <trkpt lat="48.01025" lon="6.99914">
        <ele>936.162598</ele>
        <time>2015-03-15T15:55:55Z</time>
      </trkpt>
      <trkpt lat="48.01019" lon="6.99916">
        <ele>939.396118</ele>
        <time>2015-03-15T15:56:03Z</time>
      </trkpt>
      <trkpt lat="48.01003" lon="6.99938">
        <ele>940.76709</ele>
        <time>2015-03-15T15:56:36Z</time>
      </trkpt>
      <trkpt lat="48.00994" lon="6.99959">
        <ele>941.407959</ele>
        <time>2015-03-15T15:56:48Z</time>
      </trkpt>
      <trkpt lat="48.0099" lon="6.9999">
        <ele>942.637207</ele>
        <time>2015-03-15T15:57:04Z</time>
      </trkpt>
      <trkpt lat="48.0099" lon="7.00003">
        <ele>942.391113</ele>
        <time>2015-03-15T15:57:12Z</time>
      </trkpt>
      <trkpt lat="48.00988" lon="7.00008">
        <ele>940.29541</ele>
        <time>2015-03-15T15:57:28Z</time>
      </trkpt>
      <trkpt lat="48.00982" lon="7.00016">
        <ele>936.512207</ele>
        <time>2015-03-15T15:57:36Z</time>
      </trkpt>
      <trkpt lat="48.0097" lon="7.00038">
        <ele>929.631348</ele>
        <time>2015-03-15T15:57:48Z</time>
      </trkpt>
      <trkpt lat="48.00963" lon="7.00058">
        <ele>934.593018</ele>
        <time>2015-03-15T15:57:56Z</time>
      </trkpt>
      <trkpt lat="48.00955" lon="7.00073">
        <ele>933.708496</ele>
        <time>2015-03-15T15:58:04Z</time>
      </trkpt>
      <trkpt lat="48.00953" lon="7.00094">
        <ele>934.512451</ele>
        <time>2015-03-15T15:58:24Z</time>
      </trkpt>
      <trkpt lat="48.00961" lon="7.00104">
        <ele>930.243896</ele>
        <time>2015-03-15T15:58:32Z</time>
      </trkpt>
      <trkpt lat="48.00973" lon="7.00114">
        <ele>927.407959</ele>
        <time>2015-03-15T15:58:40Z</time>
      </trkpt>
      <trkpt lat="48.00974" lon="7.00131">
        <ele>925.234131</ele>
        <time>2015-03-15T15:58:48Z</time>
      </trkpt>
      <trkpt lat="48.00974" lon="7.00146">
        <ele>927.87915</ele>
        <time>2015-03-15T15:58:56Z</time>
      </trkpt>
      <trkpt lat="48.0098" lon="7.00173">
        <ele>927.612671</ele>
        <time>2015-03-15T15:59:04Z</time>
      </trkpt>
      <trkpt lat="48.00977" lon="7.00193">
        <ele>929.245972</ele>
        <time>2015-03-15T15:59:16Z</time>
      </trkpt>
      <trkpt lat="48.00982" lon="7.00207">
        <ele>923.66333</ele>
        <time>2015-03-15T15:59:24Z</time>
      </trkpt>
      <trkpt lat="48.00985" lon="7.0021">
        <ele>923.704712</ele>
        <time>2015-03-15T15:59:28Z</time>
      </trkpt>
      <trkpt lat="48.0098" lon="7.00215">
        <ele>920.647705</ele>
        <time>2015-03-15T15:59:36Z</time>
      </trkpt>
      <trkpt lat="48.00973" lon="7.00257">
        <ele>926.252686</ele>
        <time>2015-03-15T15:59:52Z</time>
      </trkpt>
      <trkpt lat="48.0097" lon="7.00267">
        <ele>926.101685</ele>
        <time>2015-03-15T15:59:56Z</time>
      </trkpt>
      <trkpt lat="48.0097" lon="7.00281">
        <ele>922.908936</ele>
        <time>2015-03-15T16:00:04Z</time>
      </trkpt>
      <trkpt lat="48.00974" lon="7.00281">
        <ele>920.542236</ele>
        <time>2015-03-15T16:00:08Z</time>
      </trkpt>
      <trkpt lat="48.00981" lon="7.00278">
        <ele>919.897949</ele>
        <time>2015-03-15T16:00:12Z</time>
      </trkpt>
      <trkpt lat="48.00993" lon="7.00251">
        <ele>921.959961</ele>
        <time>2015-03-15T16:00:32Z</time>
      </trkpt>
      <trkpt lat="48.01009" lon="7.00258">
        <ele>918.046509</ele>
        <time>2015-03-15T16:00:40Z</time>
      </trkpt>
      <trkpt lat="48.01014" lon="7.00258">
        <ele>915.783569</ele>
        <time>2015-03-15T16:00:44Z</time>
      </trkpt>
      <trkpt lat="48.01018" lon="7.00255">
        <ele>913.10791</ele>
        <time>2015-03-15T16:01:33Z</time>
      </trkpt>
      <trkpt lat="48.01018" lon="7.00268">
        <ele>901.930542</ele>
        <time>2015-03-15T16:01:49Z</time>
      </trkpt>
      <trkpt lat="48.01022" lon="7.00275">
        <ele>899.16748</ele>
        <time>2015-03-15T16:01:53Z</time>
      </trkpt>
      <trkpt lat="48.01026" lon="7.00276">
        <ele>896.456055</ele>
        <time>2015-03-15T16:01:57Z</time>
      </trkpt>
      <trkpt lat="48.01041" lon="7.00305">
        <ele>888.232422</ele>
        <time>2015-03-15T16:02:13Z</time>
      </trkpt>
      <trkpt lat="48.01049" lon="7.00327">
        <ele>889.46582</ele>
        <time>2015-03-15T16:02:22Z</time>
      </trkpt>
      <trkpt lat="48.01042" lon="7.00348">
        <ele>887.11792</ele>
        <time>2015-03-15T16:02:38Z</time>
      </trkpt>
      <trkpt lat="48.01041" lon="7.00357">
        <ele>889.649292</ele>
        <time>2015-03-15T16:02:42Z</time>
      </trkpt>
      <trkpt lat="48.01042" lon="7.00368">
        <ele>884.904053</ele>
        <time>2015-03-15T16:02:50Z</time>
      </trkpt>
      <trkpt lat="48.01045" lon="7.00374">
        <ele>886.134644</ele>
        <time>2015-03-15T16:02:54Z</time>
      </trkpt>
      <trkpt lat="48.01048" lon="7.00369">
        <ele>879.599854</ele>
        <time>2015-03-15T16:02:58Z</time>
      </trkpt>
      <trkpt lat="48.01051" lon="7.00369">
        <ele>880.98877</ele>
        <time>2015-03-15T16:03:02Z</time>
      </trkpt>
      <trkpt lat="48.01052" lon="7.00372">
        <ele>881.786499</ele>
        <time>2015-03-15T16:03:10Z</time>
      </trkpt>
      <trkpt lat="48.01049" lon="7.00385">
        <ele>877.380615</ele>
        <time>2015-03-15T16:03:18Z</time>
      </trkpt>
      <trkpt lat="48.01051" lon="7.00397">
        <ele>870.273438</ele>
        <time>2015-03-15T16:03:34Z</time>
      </trkpt>
      <trkpt lat="48.01048" lon="7.004">
        <ele>867.718262</ele>
        <time>2015-03-15T16:03:49Z</time>
      </trkpt>
      <trkpt lat="48.01039" lon="7.00415">
        <ele>867.478516</ele>
        <time>2015-03-15T16:03:53Z</time>
      </trkpt>
      <trkpt lat="48.0104" lon="7.00419">
        <ele>868.56665</ele>
        <time>2015-03-15T16:04:09Z</time>
      </trkpt>
      <trkpt lat="48.0105" lon="7.00411">
        <ele>867.717529</ele>
        <time>2015-03-15T16:06:26Z</time>
      </trkpt>
      <trkpt lat="48.01044" lon="7.00446">
        <ele>865.696899</ele>
        <time>2015-03-15T16:08:00Z</time>
      </trkpt>
      <trkpt lat="48.01039" lon="7.00464">
        <ele>864.602539</ele>
        <time>2015-03-15T16:08:08Z</time>
      </trkpt>
      <trkpt lat="48.01027" lon="7.00521">
        <ele>868.974365</ele>
        <time>2015-03-15T16:08:28Z</time>
      </trkpt>
      <trkpt lat="48.01031" lon="7.00531">
        <ele>864.923218</ele>
        <time>2015-03-15T16:08:36Z</time>
      </trkpt>
      <trkpt lat="48.01021" lon="7.0055">
        <ele>859.572266</ele>
        <time>2015-03-15T16:08:48Z</time>
      </trkpt>
      <trkpt lat="48.01017" lon="7.00553">
        <ele>858.947876</ele>
        <time>2015-03-15T16:08:52Z</time>
      </trkpt>
      <trkpt lat="48.01012" lon="7.00622">
        <ele>857.86499</ele>
        <time>2015-03-15T16:09:32Z</time>
      </trkpt>
      <trkpt lat="48.0101" lon="7.00623">
        <ele>855.903931</ele>
        <time>2015-03-15T16:09:36Z</time>
      </trkpt>
      <trkpt lat="48.01006" lon="7.00635">
        <ele>853.391602</ele>
        <time>2015-03-15T16:09:44Z</time>
      </trkpt>
      <trkpt lat="48.01006" lon="7.00663">
        <ele>851.67749</ele>
        <time>2015-03-15T16:10:00Z</time>
      </trkpt>
      <trkpt lat="48.01014" lon="7.00669">
        <ele>847.855835</ele>
        <time>2015-03-15T16:10:06Z</time>
      </trkpt>
      <trkpt lat="48.00998" lon="7.007">
        <ele>852.641968</ele>
        <time>2015-03-15T16:10:18Z</time>
      </trkpt>
      <trkpt lat="48.00996" lon="7.00721">
        <ele>851.15686</ele>
        <time>2015-03-15T16:10:26Z</time>
      </trkpt>
      <trkpt lat="48.00992" lon="7.00724">
        <ele>850.323242</ele>
        <time>2015-03-15T16:10:34Z</time>
      </trkpt>
      <trkpt lat="48.00982" lon="7.00744">
        <ele>842.370239</ele>
        <time>2015-03-15T16:10:50Z</time>
      </trkpt>
      <trkpt lat="48.00982" lon="7.00741">
        <ele>842.510132</ele>
        <time>2015-03-15T16:11:23Z</time>
      </trkpt>
      <trkpt lat="48.00975" lon="7.00747">
        <ele>837.419678</ele>
        <time>2015-03-15T16:12:27Z</time>
      </trkpt>
      <trkpt lat="48.00961" lon="7.00766">
        <ele>838.074707</ele>
        <time>2015-03-15T16:13:22Z</time>
      </trkpt>
      <trkpt lat="48.00953" lon="7.0078">
        <ele>840.167725</ele>
        <time>2015-03-15T16:13:30Z</time>
      </trkpt>
      <trkpt lat="48.00944" lon="7.00785">
        <ele>836.482422</ele>
        <time>2015-03-15T16:13:36Z</time>
      </trkpt>
      <trkpt lat="48.00924" lon="7.00812">
        <ele>836.480469</ele>
        <time>2015-03-15T16:13:52Z</time>
      </trkpt>
      <trkpt lat="48.00914" lon="7.00819">
        <ele>838.946777</ele>
        <time>2015-03-15T16:14:00Z</time>
      </trkpt>
      <trkpt lat="48.00911" lon="7.00824">
        <ele>835.428589</ele>
        <time>2015-03-15T16:14:04Z</time>
      </trkpt>
      <trkpt lat="48.00902" lon="7.00826">
        <ele>829.459961</ele>
        <time>2015-03-15T16:14:12Z</time>
      </trkpt>
      <trkpt lat="48.00887" lon="7.00846">
        <ele>832.954468</ele>
        <time>2015-03-15T16:14:28Z</time>
      </trkpt>
      <trkpt lat="48.00883" lon="7.00847">
        <ele>830.42395</ele>
        <time>2015-03-15T16:14:32Z</time>
      </trkpt>
      <trkpt lat="48.00874" lon="7.00857">
        <ele>830.838379</ele>
        <time>2015-03-15T16:14:40Z</time>
      </trkpt>
      <trkpt lat="48.00864" lon="7.00865">
        <ele>829.9646</ele>
        <time>2015-03-15T16:14:48Z</time>
      </trkpt>
      <trkpt lat="48.00858" lon="7.00878">
        <ele>825.671265</ele>
        <time>2015-03-15T16:14:54Z</time>
      </trkpt>
      <trkpt lat="48.0086" lon="7.0088">
        <ele>827.179077</ele>
        <time>2015-03-15T16:14:56Z</time>
      </trkpt>
      <trkpt lat="48.00856" lon="7.00893">
        <ele>827.510986</ele>
        <time>2015-03-15T16:15:04Z</time>
      </trkpt>
      <trkpt lat="48.00856" lon="7.00897">
        <ele>825.215332</ele>
        <time>2015-03-15T16:15:08Z</time>
      </trkpt>
      <trkpt lat="48.00838" lon="7.0091">
        <ele>803.990307</ele>
        <time>2015-03-15T16:15:24Z</time>
      </trkpt>
      <trkpt lat="48.00825" lon="7.00929">
        <ele>802.394768</ele>
        <time>2015-03-15T16:15:36Z</time>
      </trkpt>
      <trkpt lat="48.00823" lon="7.00938">
        <ele>802.070284</ele>
        <time>2015-03-15T16:15:40Z</time>
      </trkpt>
      <trkpt lat="48.0079" lon="7.00971">
        <ele>799.111478</ele>
        <time>2015-03-15T16:16:08Z</time>
      </trkpt>
      <trkpt lat="48.00788" lon="7.0098">
        <ele>804.781494</ele>
        <time>2015-03-15T16:16:16Z</time>
      </trkpt>
      <trkpt lat="48.00777" lon="7.00974">
        <ele>797.449005</ele>
        <time>2015-03-15T16:16:26Z</time>
      </trkpt>
      <trkpt lat="48.0075" lon="7.00969">
        <ele>793.673509</ele>
        <time>2015-03-15T16:16:46Z</time>
      </trkpt>
      <trkpt lat="48.00735" lon="7.00949">
        <ele>791.986259</ele>
        <time>2015-03-15T16:16:58Z</time>
      </trkpt>
      <trkpt lat="48.0073" lon="7.00946">
        <ele>791.583098</ele>
        <time>2015-03-15T16:17:00Z</time>
      </trkpt>
      <trkpt lat="48.00722" lon="7.0095">
        <ele>790.565768</ele>
        <time>2015-03-15T16:17:04Z</time>
      </trkpt>
      <trkpt lat="48.00717" lon="7.00961">
        <ele>789.598018</ele>
        <time>2015-03-15T16:17:08Z</time>
      </trkpt>
      <trkpt lat="48.00722" lon="7.00967">
        <ele>788.43711</ele>
        <time>2015-03-15T16:17:14Z</time>
      </trkpt>
      <trkpt lat="48.0072" lon="7.0098">
        <ele>787.561462</ele>
        <time>2015-03-15T16:17:20Z</time>
      </trkpt>
      <trkpt lat="48.00721" lon="7.00984">
        <ele>787.393171</ele>
        <time>2015-03-15T16:17:22Z</time>
      </trkpt>
      <trkpt lat="48.00725" lon="7.00986">
        <ele>786.9891</ele>
        <time>2015-03-15T16:17:26Z</time>
      </trkpt>
      <trkpt lat="48.00734" lon="7.00983">
        <ele>786.114188</ele>
        <time>2015-03-15T16:17:34Z</time>
      </trkpt>
      <trkpt lat="48.00755" lon="7.00995">
        <ele>784.33836</ele>
        <time>2015-03-15T16:17:48Z</time>
      </trkpt>
      <trkpt lat="48.00783" lon="7.00981">
        <ele>783.173611</ele>
        <time>2015-03-15T16:17:57Z</time>
      </trkpt>
      <trkpt lat="48.00791" lon="7.0099">
        <ele>782.615837</ele>
        <time>2015-03-15T16:18:05Z</time>
      </trkpt>
      <trkpt lat="48.00793" lon="7.01002">
        <ele>781.805149</ele>
        <time>2015-03-15T16:18:13Z</time>
      </trkpt>
      <trkpt lat="48.00795" lon="7.01004">
        <ele>795.064087</ele>
        <time>2015-03-15T16:18:15Z</time>
      </trkpt>
      <trkpt lat="48.00832" lon="7.00978">
        <ele>777.657349</ele>
        <time>2015-03-15T16:18:51Z</time>
      </trkpt>
      <trkpt lat="48.00844" lon="7.00975">
        <ele>776.96578</ele>
        <time>2015-03-15T16:18:59Z</time>
      </trkpt>
      <trkpt lat="48.00852" lon="7.00967">
        <ele>781.099121</ele>
        <time>2015-03-15T16:19:07Z</time>
      </trkpt>
      <trkpt lat="48.00872" lon="7.00954">
        <ele>780.778076</ele>
        <time>2015-03-15T16:19:19Z</time>
      </trkpt>
      <trkpt lat="48.00881" lon="7.00954">
        <ele>783.37085</ele>
        <time>2015-03-15T16:19:23Z</time>
      </trkpt>
      <trkpt lat="48.00883" lon="7.00957">
        <ele>783.95813</ele>
        <time>2015-03-15T16:19:25Z</time>
      </trkpt>
      <trkpt lat="48.00882" lon="7.00965">
        <ele>782.344971</ele>
        <time>2015-03-15T16:19:31Z</time>
      </trkpt>
      <trkpt lat="48.00879" lon="7.00969">
        <ele>780.116455</ele>
        <time>2015-03-15T16:19:33Z</time>
      </trkpt>
      <trkpt lat="48.0087" lon="7.00971">
        <ele>779.587158</ele>
        <time>2015-03-15T16:19:37Z</time>
      </trkpt>
      <trkpt lat="48.00865" lon="7.00977">
        <ele>777.794922</ele>
        <time>2015-03-15T16:19:41Z</time>
      </trkpt>
      <trkpt lat="48.00858" lon="7.00979">
        <ele>774.582275</ele>
        <time>2015-03-15T16:19:49Z</time>
      </trkpt>
      <trkpt lat="48.0084" lon="7.01009">
        <ele>775.435303</ele>
        <time>2015-03-15T16:20:05Z</time>
      </trkpt>
      <trkpt lat="48.00818" lon="7.01022">
        <ele>775.985718</ele>
        <time>2015-03-15T16:20:21Z</time>
      </trkpt>
      <trkpt lat="48.00811" lon="7.01029">
        <ele>775.799072</ele>
        <time>2015-03-15T16:20:29Z</time>
      </trkpt>
      <trkpt lat="48.00804" lon="7.01031">
        <ele>776.572021</ele>
        <time>2015-03-15T16:20:33Z</time>
      </trkpt>
      <trkpt lat="48.00789" lon="7.01025">
        <ele>775.315186</ele>
        <time>2015-03-15T16:20:41Z</time>
      </trkpt>
      <trkpt lat="48.00785" lon="7.01025">
        <ele>774.659912</ele>
        <time>2015-03-15T16:20:43Z</time>
      </trkpt>
      <trkpt lat="48.00777" lon="7.01029">
        <ele>776.028076</ele>
        <time>2015-03-15T16:20:47Z</time>
      </trkpt>
      <trkpt lat="48.00775" lon="7.01028">
        <ele>776.649414</ele>
        <time>2015-03-15T16:20:49Z</time>
      </trkpt>
      <trkpt lat="48.00775" lon="7.01023">
        <ele>776.929443</ele>
        <time>2015-03-15T16:20:53Z</time>
      </trkpt>
      <trkpt lat="48.00768" lon="7.01021">
        <ele>777.345703</ele>
        <time>2015-03-15T16:20:57Z</time>
      </trkpt>
      <trkpt lat="48.00764" lon="7.01018">
        <ele>779.777832</ele>
        <time>2015-03-15T16:21:01Z</time>
      </trkpt>
      <trkpt lat="48.00755" lon="7.01025">
        <ele>779.417236</ele>
        <time>2015-03-15T16:21:07Z</time>
      </trkpt>
      <trkpt lat="48.00757" lon="7.01026">
        <ele>779.407715</ele>
        <time>2015-03-15T16:21:40Z</time>
      </trkpt>
      <trkpt lat="48.00742" lon="7.01038">
        <ele>774.102295</ele>
        <time>2015-03-15T16:21:56Z</time>
      </trkpt>
      <trkpt lat="48.00717" lon="7.01072">
        <ele>773.782593</ele>
        <time>2015-03-15T16:22:16Z</time>
      </trkpt>
      <trkpt lat="48.0069" lon="7.01086">
        <ele>771.265381</ele>
        <time>2015-03-15T16:22:40Z</time>
      </trkpt>
      <trkpt lat="48.00688" lon="7.0109">
        <ele>771.148193</ele>
        <time>2015-03-15T16:22:56Z</time>
      </trkpt>
      <trkpt lat="48.00691" lon="7.01084">
        <ele>760.028556</ele>
        <time>2015-03-15T16:24:03Z</time>
      </trkpt>
      <trkpt lat="48.00691" lon="7.01088">
        <ele>759.913356</ele>
        <time>2015-03-15T16:24:13Z</time>
      </trkpt>
      <trkpt lat="48.00682" lon="7.01111">
        <ele>753.624458</ele>
        <time>2015-03-15T16:24:29Z</time>
      </trkpt>
      <trkpt lat="48.00681" lon="7.01127">
        <ele>751.128456</ele>
        <time>2015-03-15T16:24:37Z</time>
      </trkpt>
      <trkpt lat="48.00674" lon="7.01151">
        <ele>747.123026</ele>
        <time>2015-03-15T16:24:53Z</time>
      </trkpt>
      <trkpt lat="48.00674" lon="7.01158">
        <ele>745.85007</ele>
        <time>2015-03-15T16:24:57Z</time>
      </trkpt>
      <trkpt lat="48.00676" lon="7.01161">
        <ele>745.026202</ele>
        <time>2015-03-15T16:25:02Z</time>
      </trkpt>
      <trkpt lat="48.00676" lon="7.01165">
        <ele>744.25427</ele>
        <time>2015-03-15T16:25:07Z</time>
      </trkpt>
      <trkpt lat="48.00673" lon="7.01174">
        <ele>742.843836</ele>
        <time>2015-03-15T16:25:15Z</time>
      </trkpt>
      <trkpt lat="48.00674" lon="7.01176">
        <ele>741.954696</ele>
        <time>2015-03-15T16:25:23Z</time>
      </trkpt>
      <trkpt lat="48.00675" lon="7.01171">
        <ele>754.638916</ele>
        <time>2015-03-15T16:25:30Z</time>
      </trkpt>
      <trkpt lat="48.00673" lon="7.01174">
        <ele>740.762157</ele>
        <time>2015-03-15T16:25:50Z</time>
      </trkpt>
      <trkpt lat="48.00675" lon="7.01172">
        <ele>740.678273</ele>
        <time>2015-03-15T16:25:58Z</time>
      </trkpt>
      <trkpt lat="48.00673" lon="7.01177">
        <ele>749.67627</ele>
        <time>2015-03-15T16:26:03Z</time>
      </trkpt>
      <trkpt lat="48.00671" lon="7.01176">
        <ele>751.184082</ele>
        <time>2015-03-15T16:26:35Z</time>
      </trkpt>
      <trkpt lat="48.0067" lon="7.01183">
        <ele>751.479858</ele>
        <time>2015-03-15T16:26:43Z</time>
      </trkpt>
      <trkpt lat="48.00671" lon="7.01194">
        <ele>748.674683</ele>
        <time>2015-03-15T16:26:49Z</time>
      </trkpt>
      <trkpt lat="48.00676" lon="7.01198">
        <ele>743.658936</ele>
        <time>2015-03-15T16:26:53Z</time>
      </trkpt>
      <trkpt lat="48.00678" lon="7.01205">
        <ele>743.534912</ele>
        <time>2015-03-15T16:26:57Z</time>
      </trkpt>
      <trkpt lat="48.00687" lon="7.01207">
        <ele>741.343018</ele>
        <time>2015-03-15T16:27:13Z</time>
      </trkpt>
      <trkpt lat="48.00681" lon="7.01212">
        <ele>741.748535</ele>
        <time>2015-03-15T16:27:22Z</time>
      </trkpt>
      <trkpt lat="48.00676" lon="7.01219">
        <ele>718.265851</ele>
        <time>2015-03-15T16:27:26Z</time>
      </trkpt>
      <trkpt lat="48.00677" lon="7.01226">
        <ele>717.502013</ele>
        <time>2015-03-15T16:27:30Z</time>
      </trkpt>
      <trkpt lat="48.0069" lon="7.0124">
        <ele>715.841387</ele>
        <time>2015-03-15T16:27:36Z</time>
      </trkpt>
      <trkpt lat="48.00692" lon="7.01246">
        <ele>715.449887</ele>
        <time>2015-03-15T16:27:38Z</time>
      </trkpt>
      <trkpt lat="48.00688" lon="7.01258">
        <ele>713.569571</ele>
        <time>2015-03-15T16:27:48Z</time>
      </trkpt>
      <trkpt lat="48.00688" lon="7.01268">
        <ele>712.553341</ele>
        <time>2015-03-15T16:27:53Z</time>
      </trkpt>
      <trkpt lat="48.007" lon="7.01256">
        <ele>710.73531</ele>
        <time>2015-03-15T16:28:01Z</time>
      </trkpt>
      <trkpt lat="48.00704" lon="7.01256">
        <ele>707.962901</ele>
        <time>2015-03-15T16:28:05Z</time>
      </trkpt>
      <trkpt lat="48.00705" lon="7.01262">
        <ele>708.037762</ele>
        <time>2015-03-15T16:28:09Z</time>
      </trkpt>
      <trkpt lat="48.00695" lon="7.01281">
        <ele>706.790213</ele>
        <time>2015-03-15T16:28:17Z</time>
      </trkpt>
      <trkpt lat="48.00692" lon="7.01284">
        <ele>706.844554</ele>
        <time>2015-03-15T16:28:19Z</time>
      </trkpt>
      <trkpt lat="48.00689" lon="7.01281">
        <ele>706.732755</ele>
        <time>2015-03-15T16:28:21Z</time>
      </trkpt>
      <trkpt lat="48.00685" lon="7.01263">
        <ele>706.812776</ele>
        <time>2015-03-15T16:28:27Z</time>
      </trkpt>
      <trkpt lat="48.00683" lon="7.01264">
        <ele>706.821652</ele>
        <time>2015-03-15T16:28:29Z</time>
      </trkpt>
      <trkpt lat="48.00676" lon="7.01293">
        <ele>706.128723</ele>
        <time>2015-03-15T16:28:41Z</time>
      </trkpt>
      <trkpt lat="48.00659" lon="7.0133">
        <ele>715.901978</ele>
        <time>2015-03-15T16:29:38Z</time>
      </trkpt>
      <trkpt lat="48.00654" lon="7.01337">
        <ele>716.418335</ele>
        <time>2015-03-15T16:29:46Z</time>
      </trkpt>
      <trkpt lat="48.00635" lon="7.01349">
        <ele>720.165527</ele>
        <time>2015-03-15T16:30:18Z</time>
      </trkpt>
      <trkpt lat="48.00617" lon="7.01371">
        <ele>713.290527</ele>
        <time>2015-03-15T16:30:34Z</time>
      </trkpt>
      <trkpt lat="48.00611" lon="7.01383">
        <ele>714.497314</ele>
        <time>2015-03-15T16:30:42Z</time>
      </trkpt>
      <trkpt lat="48.00602" lon="7.01391">
        <ele>711.992188</ele>
        <time>2015-03-15T16:30:50Z</time>
      </trkpt>
      <trkpt lat="48.00599" lon="7.01388">
        <ele>711.234619</ele>
        <time>2015-03-15T16:30:54Z</time>
      </trkpt>
      <trkpt lat="48.00605" lon="7.01379">
        <ele>701.700195</ele>
        <time>2015-03-15T16:31:15Z</time>
      </trkpt>
      <trkpt lat="48.00602" lon="7.01372">
        <ele>682.668045</ele>
        <time>2015-03-15T16:31:20Z</time>
      </trkpt>
      <trkpt lat="48.00603" lon="7.01368">
        <ele>682.536027</ele>
        <time>2015-03-15T16:31:23Z</time>
      </trkpt>
      <trkpt lat="48.006" lon="7.01374">
        <ele>682.532987</ele>
        <time>2015-03-15T16:31:31Z</time>
      </trkpt>
      <trkpt lat="48.00599" lon="7.01385">
        <ele>677.872833</ele>
        <time>2015-03-15T16:31:45Z</time>
      </trkpt>
      <trkpt lat="48.00601" lon="7.01387">
        <ele>677.11949</ele>
        <time>2015-03-15T16:31:47Z</time>
      </trkpt>
      <trkpt lat="48.00611" lon="7.01384">
        <ele>676.786214</ele>
        <time>2015-03-15T16:31:50Z</time>
      </trkpt>
      <trkpt lat="48.00611" lon="7.01401">
        <ele>675.586908</ele>
        <time>2015-03-15T16:31:54Z</time>
      </trkpt>
      <trkpt lat="48.00605" lon="7.0142">
        <ele>673.998699</ele>
        <time>2015-03-15T16:32:00Z</time>
      </trkpt>
      <trkpt lat="48.00607" lon="7.01423">
        <ele>673.236463</ele>
        <time>2015-03-15T16:32:02Z</time>
      </trkpt>
      <trkpt lat="48.00602" lon="7.01431">
        <ele>672.539244</ele>
        <time>2015-03-15T16:32:05Z</time>
      </trkpt>
      <trkpt lat="48.00601" lon="7.01422">
        <ele>671.977873</ele>
        <time>2015-03-15T16:32:09Z</time>
      </trkpt>
      <trkpt lat="48.00604" lon="7.01421">
        <ele>670.47982</ele>
        <time>2015-03-15T16:32:13Z</time>
      </trkpt>
      <trkpt lat="48.00606" lon="7.01425">
        <ele>669.033893</ele>
        <time>2015-03-15T16:32:21Z</time>
      </trkpt>
      <trkpt lat="48.00605" lon="7.01454">
        <ele>665.833162</ele>
        <time>2015-03-15T16:32:29Z</time>
      </trkpt>
      <trkpt lat="48.00616" lon="7.0144">
        <ele>664.466293</ele>
        <time>2015-03-15T16:32:35Z</time>
      </trkpt>
      <trkpt lat="48.00617" lon="7.01433">
        <ele>664.327627</ele>
        <time>2015-03-15T16:32:38Z</time>
      </trkpt>
      <trkpt lat="48.00626" lon="7.01416">
        <ele>662.210546</ele>
        <time>2015-03-15T16:32:47Z</time>
      </trkpt>
      <trkpt lat="48.00621" lon="7.01423">
        <ele>661.205593</ele>
        <time>2015-03-15T16:32:53Z</time>
      </trkpt>
      <trkpt lat="48.00618" lon="7.01433">
        <ele>675.675537</ele>
        <time>2015-03-15T16:32:58Z</time>
      </trkpt>
      <trkpt lat="48.00618" lon="7.01444">
        <ele>675.541382</ele>
        <time>2015-03-15T16:33:02Z</time>
      </trkpt>
      <trkpt lat="48.00613" lon="7.01463">
        <ele>673.493652</ele>
        <time>2015-03-15T16:33:10Z</time>
      </trkpt>
      <trkpt lat="48.00609" lon="7.01469">
        <ele>666.752686</ele>
        <time>2015-03-15T16:33:20Z</time>
      </trkpt>
      <trkpt lat="48.00606" lon="7.01469">
        <ele>667.259766</ele>
        <time>2015-03-15T16:33:24Z</time>
      </trkpt>
      <trkpt lat="48.00603" lon="7.01473">
        <ele>665.819336</ele>
        <time>2015-03-15T16:33:28Z</time>
      </trkpt>
      <trkpt lat="48.00602" lon="7.01483">
        <ele>664.194336</ele>
        <time>2015-03-15T16:33:36Z</time>
      </trkpt>
      <trkpt lat="48.00601" lon="7.01482">
        <ele>660.859619</ele>
        <time>2015-03-15T16:33:40Z</time>
      </trkpt>
      <trkpt lat="48.00591" lon="7.01503">
        <ele>664.138184</ele>
        <time>2015-03-15T16:33:56Z</time>
      </trkpt>
      <trkpt lat="48.00587" lon="7.01505">
        <ele>661.980713</ele>
        <time>2015-03-15T16:34:00Z</time>
      </trkpt>
      <trkpt lat="48.00585" lon="7.01529">
        <ele>658.822388</ele>
        <time>2015-03-15T16:34:50Z</time>
      </trkpt>
      <trkpt lat="48.00587" lon="7.01528">
        <ele>653.848633</ele>
        <time>2015-03-15T16:34:54Z</time>
      </trkpt>
      <trkpt lat="48.00588" lon="7.01535">
        <ele>648.399414</ele>
        <time>2015-03-15T16:35:02Z</time>
      </trkpt>
      <trkpt lat="48.00592" lon="7.01544">
        <ele>644.049805</ele>
        <time>2015-03-15T16:35:10Z</time>
      </trkpt>
      <trkpt lat="48.00588" lon="7.01553">
        <ele>642.92688</ele>
        <time>2015-03-15T16:35:18Z</time>
      </trkpt>
      <trkpt lat="48.00588" lon="7.01556">
        <ele>627.75168</ele>
        <time>2015-03-15T16:35:20Z</time>
      </trkpt>
      <trkpt lat="48.00586" lon="7.01554">
        <ele>627.107026</ele>
        <time>2015-03-15T16:35:24Z</time>
      </trkpt>
      <trkpt lat="48.00583" lon="7.01565">
        <ele>623.888674</ele>
        <time>2015-03-15T16:35:32Z</time>
      </trkpt>
      <trkpt lat="48.00584" lon="7.01577">
        <ele>620.087057</ele>
        <time>2015-03-15T16:35:40Z</time>
      </trkpt>
      <trkpt lat="48.00583" lon="7.01581">
        <ele>618.887299</ele>
        <time>2015-03-15T16:35:42Z</time>
      </trkpt>
      <trkpt lat="48.0058" lon="7.01579">
        <ele>618.683164</ele>
        <time>2015-03-15T16:35:46Z</time>
      </trkpt>
      <trkpt lat="48.00559" lon="7.01585">
        <ele>635.628662</ele>
        <time>2015-03-15T16:36:19Z</time>
      </trkpt>
      <trkpt lat="48.00556" lon="7.01598">
        <ele>633.22876</ele>
        <time>2015-03-15T16:36:43Z</time>
      </trkpt>
      <trkpt lat="48.00549" lon="7.01611">
        <ele>630.342285</ele>
        <time>2015-03-15T16:36:53Z</time>
      </trkpt>
      <trkpt lat="48.00543" lon="7.0161">
        <ele>630.674194</ele>
        <time>2015-03-15T16:36:57Z</time>
      </trkpt>
      <trkpt lat="48.00522" lon="7.01635">
        <ele>624.981934</ele>
        <time>2015-03-15T16:37:09Z</time>
      </trkpt>
      <trkpt lat="48.00501" lon="7.01648">
        <ele>622.016357</ele>
        <time>2015-03-15T16:37:25Z</time>
      </trkpt>
      <trkpt lat="48.00488" lon="7.01665">
        <ele>621.279297</ele>
        <time>2015-03-15T16:37:31Z</time>
      </trkpt>
      <trkpt lat="48.00481" lon="7.0166">
        <ele>616.359863</ele>
        <time>2015-03-15T16:37:39Z</time>
      </trkpt>
      <trkpt lat="48.00475" lon="7.01668">
        <ele>618.838867</ele>
        <time>2015-03-15T16:37:47Z</time>
      </trkpt>
      <trkpt lat="48.00467" lon="7.01675">
        <ele>617.745972</ele>
        <time>2015-03-15T16:37:55Z</time>
      </trkpt>
      <trkpt lat="48.00465" lon="7.01672">
        <ele>612.269165</ele>
        <time>2015-03-15T16:37:59Z</time>
      </trkpt>
      <trkpt lat="48.00468" lon="7.01666">
        <ele>606.673584</ele>
        <time>2015-03-15T16:38:12Z</time>
      </trkpt>
      <trkpt lat="48.00477" lon="7.01657">
        <ele>602.057129</ele>
        <time>2015-03-15T16:38:20Z</time>
      </trkpt>
      <trkpt lat="48.00479" lon="7.0165">
        <ele>602.231323</ele>
        <time>2015-03-15T16:38:31Z</time>
      </trkpt>
    </trkseg>
  </trk>
</gpx>